<?xml version="1.0" encoding="UTF-8" standalone="no" ?>
<gpx xmlns="http://www.topografix.com/GPX/1/1" xmlns:xsi="http://www.w3.org/2001/XMLSchema-instance" xsi:schemaLocation="http://www.topografix.com/GPX/1/1 http://www.topografix.com/GPX/1/1/gpx.xsd" version="1.1" creator="VisuGPX - https://www.visugpx.com">
  <metadata>
    <name>Montagne d\'Aujour</name>
    <desc><![CDATA[Mountain biking]]></desc>
  </metadata>
  <trk>
    <name><![CDATA[Buech 19/09/2010 10:54]]></name>
    <trkseg>
      <trkpt lat="44.39148" lon="5.88244">
        <ele>732</ele>
        <time>2010-09-19T09:10:10.73</time>
      </trkpt>
      <trkpt lat="44.39147" lon="5.88247">
        <ele>726.5</ele>
        <time>2010-09-19T09:10:41.70</time>
      </trkpt>
      <trkpt lat="44.39152" lon="5.88243">
        <ele>729.5</ele>
        <time>2010-09-19T09:10:55.66</time>
      </trkpt>
      <trkpt lat="44.39165" lon="5.88234">
        <ele>731</ele>
        <time>2010-09-19T09:11:05.62</time>
      </trkpt>
      <trkpt lat="44.39178" lon="5.88219">
        <ele>735</ele>
        <time>2010-09-19T09:11:15.58</time>
      </trkpt>
      <trkpt lat="44.39191" lon="5.88197">
        <ele>737.5</ele>
        <time>2010-09-19T09:11:25.55</time>
      </trkpt>
      <trkpt lat="44.39206" lon="5.88171">
        <ele>743.5</ele>
        <time>2010-09-19T09:11:35.52</time>
      </trkpt>
      <trkpt lat="44.39222" lon="5.88141">
        <ele>750.5</ele>
        <time>2010-09-19T09:11:45.50</time>
      </trkpt>
      <trkpt lat="44.39245" lon="5.88117">
        <ele>745</ele>
        <time>2010-09-19T09:11:56.46</time>
      </trkpt>
      <trkpt lat="44.39269" lon="5.88095">
        <ele>742</ele>
        <time>2010-09-19T09:12:06.41</time>
      </trkpt>
      <trkpt lat="44.39295" lon="5.88081">
        <ele>742.5</ele>
        <time>2010-09-19T09:12:16.37</time>
      </trkpt>
      <trkpt lat="44.39325" lon="5.88079">
        <ele>742.5</ele>
        <time>2010-09-19T09:12:26.32</time>
      </trkpt>
      <trkpt lat="44.39351" lon="5.88063">
        <ele>746.5</ele>
        <time>2010-09-19T09:12:36.29</time>
      </trkpt>
      <trkpt lat="44.39376" lon="5.88036">
        <ele>745</ele>
        <time>2010-09-19T09:12:46.26</time>
      </trkpt>
      <trkpt lat="44.39401" lon="5.88008">
        <ele>744</ele>
        <time>2010-09-19T09:12:56.25</time>
      </trkpt>
      <trkpt lat="44.3942" lon="5.87978">
        <ele>748.5</ele>
        <time>2010-09-19T09:13:06.21</time>
      </trkpt>
      <trkpt lat="44.39436" lon="5.87949">
        <ele>752.5</ele>
        <time>2010-09-19T09:13:16.16</time>
      </trkpt>
      <trkpt lat="44.39459" lon="5.8793">
        <ele>752.5</ele>
        <time>2010-09-19T09:13:26.13</time>
      </trkpt>
      <trkpt lat="44.39485" lon="5.87906">
        <ele>753</ele>
        <time>2010-09-19T09:13:36.09</time>
      </trkpt>
      <trkpt lat="44.39506" lon="5.87873">
        <ele>753.5</ele>
        <time>2010-09-19T09:13:46.05</time>
      </trkpt>
      <trkpt lat="44.39529" lon="5.87846">
        <ele>752</ele>
        <time>2010-09-19T09:13:56.01</time>
      </trkpt>
      <trkpt lat="44.39555" lon="5.87821">
        <ele>751.5</ele>
        <time>2010-09-19T09:14:05.97</time>
      </trkpt>
      <trkpt lat="44.39576" lon="5.87796">
        <ele>761</ele>
        <time>2010-09-19T09:14:15.93</time>
      </trkpt>
      <trkpt lat="44.396" lon="5.87779">
        <ele>768</ele>
        <time>2010-09-19T09:14:25.89</time>
      </trkpt>
      <trkpt lat="44.39632" lon="5.87767">
        <ele>761</ele>
        <time>2010-09-19T09:14:35.85</time>
      </trkpt>
      <trkpt lat="44.39659" lon="5.87752">
        <ele>761</ele>
        <time>2010-09-19T09:14:45.81</time>
      </trkpt>
      <trkpt lat="44.39681" lon="5.87731">
        <ele>766.5</ele>
        <time>2010-09-19T09:14:55.76</time>
      </trkpt>
      <trkpt lat="44.39698" lon="5.87713">
        <ele>773.5</ele>
        <time>2010-09-19T09:15:05.73</time>
      </trkpt>
      <trkpt lat="44.39719" lon="5.87697">
        <ele>772.5</ele>
        <time>2010-09-19T09:15:15.70</time>
      </trkpt>
      <trkpt lat="44.3974" lon="5.87679">
        <ele>775.5</ele>
        <time>2010-09-19T09:15:25.65</time>
      </trkpt>
      <trkpt lat="44.39764" lon="5.87666">
        <ele>774</ele>
        <time>2010-09-19T09:15:35.61</time>
      </trkpt>
      <trkpt lat="44.39783" lon="5.87654">
        <ele>778.5</ele>
        <time>2010-09-19T09:15:45.57</time>
      </trkpt>
      <trkpt lat="44.39805" lon="5.87655">
        <ele>778.5</ele>
        <time>2010-09-19T09:15:55.55</time>
      </trkpt>
      <trkpt lat="44.39822" lon="5.87654">
        <ele>781.5</ele>
        <time>2010-09-19T09:16:05.50</time>
      </trkpt>
      <trkpt lat="44.39841" lon="5.87602">
        <ele>779.5</ele>
        <time>2010-09-19T09:16:17.46</time>
      </trkpt>
      <trkpt lat="44.39874" lon="5.87574">
        <ele>777</ele>
        <time>2010-09-19T09:16:28.42</time>
      </trkpt>
      <trkpt lat="44.39902" lon="5.87549">
        <ele>775</ele>
        <time>2010-09-19T09:16:38.36</time>
      </trkpt>
      <trkpt lat="44.39926" lon="5.87525">
        <ele>775.5</ele>
        <time>2010-09-19T09:16:48.33</time>
      </trkpt>
      <trkpt lat="44.39948" lon="5.87498">
        <ele>779.5</ele>
        <time>2010-09-19T09:16:58.30</time>
      </trkpt>
      <trkpt lat="44.3997" lon="5.87476">
        <ele>779</ele>
        <time>2010-09-19T09:17:08.26</time>
      </trkpt>
      <trkpt lat="44.39986" lon="5.87457">
        <ele>783.5</ele>
        <time>2010-09-19T09:17:18.24</time>
      </trkpt>
      <trkpt lat="44.40003" lon="5.87437">
        <ele>784.5</ele>
        <time>2010-09-19T09:17:28.19</time>
      </trkpt>
      <trkpt lat="44.40018" lon="5.87418">
        <ele>787.5</ele>
        <time>2010-09-19T09:17:38.16</time>
      </trkpt>
      <trkpt lat="44.40033" lon="5.874">
        <ele>788</ele>
        <time>2010-09-19T09:17:48.14</time>
      </trkpt>
      <trkpt lat="44.40048" lon="5.87384">
        <ele>792.5</ele>
        <time>2010-09-19T09:17:58.11</time>
      </trkpt>
      <trkpt lat="44.40059" lon="5.87362">
        <ele>797</ele>
        <time>2010-09-19T09:18:08.07</time>
      </trkpt>
      <trkpt lat="44.4007" lon="5.87338">
        <ele>799.5</ele>
        <time>2010-09-19T09:18:18.02</time>
      </trkpt>
      <trkpt lat="44.40087" lon="5.87323">
        <ele>796.5</ele>
        <time>2010-09-19T09:18:27.97</time>
      </trkpt>
      <trkpt lat="44.40105" lon="5.87315">
        <ele>794.5</ele>
        <time>2010-09-19T09:18:37.92</time>
      </trkpt>
      <trkpt lat="44.40113" lon="5.87303">
        <ele>803.5</ele>
        <time>2010-09-19T09:18:47.88</time>
      </trkpt>
      <trkpt lat="44.40124" lon="5.87286">
        <ele>810.5</ele>
        <time>2010-09-19T09:18:57.82</time>
      </trkpt>
      <trkpt lat="44.40137" lon="5.8729">
        <ele>806.5</ele>
        <time>2010-09-19T09:19:07.78</time>
      </trkpt>
      <trkpt lat="44.40136" lon="5.87307">
        <ele>798.5</ele>
        <time>2010-09-19T09:19:17.75</time>
      </trkpt>
      <trkpt lat="44.40127" lon="5.87323">
        <ele>799</ele>
        <time>2010-09-19T09:19:27.70</time>
      </trkpt>
      <trkpt lat="44.40116" lon="5.87339">
        <ele>802</ele>
        <time>2010-09-19T09:19:37.65</time>
      </trkpt>
      <trkpt lat="44.40116" lon="5.8736">
        <ele>807</ele>
        <time>2010-09-19T09:19:47.61</time>
      </trkpt>
      <trkpt lat="44.40127" lon="5.87365">
        <ele>816</ele>
        <time>2010-09-19T09:19:57.57</time>
      </trkpt>
      <trkpt lat="44.40142" lon="5.87355">
        <ele>821</ele>
        <time>2010-09-19T09:20:07.53</time>
      </trkpt>
      <trkpt lat="44.40152" lon="5.87343">
        <ele>823</ele>
        <time>2010-09-19T09:20:17.49</time>
      </trkpt>
      <trkpt lat="44.40165" lon="5.87337">
        <ele>823.5</ele>
        <time>2010-09-19T09:20:27.46</time>
      </trkpt>
      <trkpt lat="44.40179" lon="5.87333">
        <ele>827.5</ele>
        <time>2010-09-19T09:20:37.41</time>
      </trkpt>
      <trkpt lat="44.40197" lon="5.87334">
        <ele>826</ele>
        <time>2010-09-19T09:20:47.38</time>
      </trkpt>
      <trkpt lat="44.40213" lon="5.87325">
        <ele>827</ele>
        <time>2010-09-19T09:20:57.33</time>
      </trkpt>
      <trkpt lat="44.40232" lon="5.87319">
        <ele>824.5</ele>
        <time>2010-09-19T09:21:08.30</time>
      </trkpt>
      <trkpt lat="44.40249" lon="5.8732">
        <ele>825</ele>
        <time>2010-09-19T09:21:18.28</time>
      </trkpt>
      <trkpt lat="44.4026" lon="5.87329">
        <ele>828</ele>
        <time>2010-09-19T09:21:28.24</time>
      </trkpt>
      <trkpt lat="44.4027" lon="5.87343">
        <ele>832.5</ele>
        <time>2010-09-19T09:21:38.19</time>
      </trkpt>
      <trkpt lat="44.40292" lon="5.87365">
        <ele>826.5</ele>
        <time>2010-09-19T09:21:48.14</time>
      </trkpt>
      <trkpt lat="44.40311" lon="5.87381">
        <ele>828</ele>
        <time>2010-09-19T09:21:59.16</time>
      </trkpt>
      <trkpt lat="44.40327" lon="5.87383">
        <ele>836.5</ele>
        <time>2010-09-19T09:22:09.14</time>
      </trkpt>
      <trkpt lat="44.40345" lon="5.87392">
        <ele>844.5</ele>
        <time>2010-09-19T09:22:20.01</time>
      </trkpt>
      <trkpt lat="44.40356" lon="5.87396">
        <ele>859</ele>
        <time>2010-09-19T09:22:30.96</time>
      </trkpt>
      <trkpt lat="44.40381" lon="5.87385">
        <ele>863</ele>
        <time>2010-09-19T09:22:42.92</time>
      </trkpt>
      <trkpt lat="44.4041" lon="5.87363">
        <ele>866.5</ele>
        <time>2010-09-19T09:22:52.89</time>
      </trkpt>
      <trkpt lat="44.40442" lon="5.87303">
        <ele>861.5</ele>
        <time>2010-09-19T09:23:03.86</time>
      </trkpt>
      <trkpt lat="44.4051" lon="5.87273">
        <ele>844</ele>
        <time>2010-09-19T09:23:14.81</time>
      </trkpt>
      <trkpt lat="44.40566" lon="5.87308">
        <ele>837.5</ele>
        <time>2010-09-19T09:23:24.77</time>
      </trkpt>
      <trkpt lat="44.40624" lon="5.87305">
        <ele>841.5</ele>
        <time>2010-09-19T09:23:36.86</time>
      </trkpt>
      <trkpt lat="44.40649" lon="5.87298">
        <ele>846</ele>
        <time>2010-09-19T09:23:46.68</time>
      </trkpt>
      <trkpt lat="44.40668" lon="5.87301">
        <ele>849.5</ele>
        <time>2010-09-19T09:23:56.64</time>
      </trkpt>
      <trkpt lat="44.4069" lon="5.87314">
        <ele>851</ele>
        <time>2010-09-19T09:24:06.61</time>
      </trkpt>
      <trkpt lat="44.40724" lon="5.87319">
        <ele>847.5</ele>
        <time>2010-09-19T09:24:23.69</time>
      </trkpt>
      <trkpt lat="44.40742" lon="5.87319">
        <ele>856</ele>
        <time>2010-09-19T09:24:33.64</time>
      </trkpt>
      <trkpt lat="44.40769" lon="5.8732">
        <ele>853</ele>
        <time>2010-09-19T09:24:44.62</time>
      </trkpt>
      <trkpt lat="44.40787" lon="5.8732">
        <ele>860.5</ele>
        <time>2010-09-19T09:24:55.58</time>
      </trkpt>
      <trkpt lat="44.40804" lon="5.8732">
        <ele>867.5</ele>
        <time>2010-09-19T09:25:06.53</time>
      </trkpt>
      <trkpt lat="44.40826" lon="5.8731">
        <ele>868</ele>
        <time>2010-09-19T09:25:16.50</time>
      </trkpt>
      <trkpt lat="44.40854" lon="5.87282">
        <ele>857.5</ele>
        <time>2010-09-19T09:25:27.47</time>
      </trkpt>
      <trkpt lat="44.40881" lon="5.87279">
        <ele>855.5</ele>
        <time>2010-09-19T09:25:38.43</time>
      </trkpt>
      <trkpt lat="44.40905" lon="5.87277">
        <ele>851</ele>
        <time>2010-09-19T09:25:48.39</time>
      </trkpt>
      <trkpt lat="44.40925" lon="5.87282">
        <ele>849</ele>
        <time>2010-09-19T09:25:58.34</time>
      </trkpt>
      <trkpt lat="44.40939" lon="5.8729">
        <ele>852.5</ele>
        <time>2010-09-19T09:26:08.30</time>
      </trkpt>
      <trkpt lat="44.40955" lon="5.87292">
        <ele>857.5</ele>
        <time>2010-09-19T09:26:18.29</time>
      </trkpt>
      <trkpt lat="44.40969" lon="5.87289">
        <ele>867</ele>
        <time>2010-09-19T09:26:28.25</time>
      </trkpt>
      <trkpt lat="44.40988" lon="5.87282">
        <ele>869.5</ele>
        <time>2010-09-19T09:26:39.22</time>
      </trkpt>
      <trkpt lat="44.41007" lon="5.87277">
        <ele>873</ele>
        <time>2010-09-19T09:26:49.19</time>
      </trkpt>
      <trkpt lat="44.4102" lon="5.87273">
        <ele>884.5</ele>
        <time>2010-09-19T09:26:59.13</time>
      </trkpt>
      <trkpt lat="44.41043" lon="5.87273">
        <ele>885</ele>
        <time>2010-09-19T09:27:11.10</time>
      </trkpt>
      <trkpt lat="44.41069" lon="5.87273">
        <ele>880</ele>
        <time>2010-09-19T09:27:22.05</time>
      </trkpt>
      <trkpt lat="44.41099" lon="5.87272">
        <ele>879</ele>
        <time>2010-09-19T09:27:34.02</time>
      </trkpt>
      <trkpt lat="44.41123" lon="5.87263">
        <ele>885.5</ele>
        <time>2010-09-19T09:27:43.98</time>
      </trkpt>
      <trkpt lat="44.41151" lon="5.87254">
        <ele>889</ele>
        <time>2010-09-19T09:27:55.95</time>
      </trkpt>
      <trkpt lat="44.41165" lon="5.87256">
        <ele>878.5</ele>
        <time>2010-09-19T09:28:30.93</time>
      </trkpt>
      <trkpt lat="44.41163" lon="5.87253">
        <ele>886.5</ele>
        <time>2010-09-19T09:29:15.86</time>
      </trkpt>
      <trkpt lat="44.41158" lon="5.87248">
        <ele>889</ele>
        <time>2010-09-19T09:30:11.82</time>
      </trkpt>
      <trkpt lat="44.41165" lon="5.8725">
        <ele>887</ele>
        <time>2010-09-19T09:30:41.77</time>
      </trkpt>
      <trkpt lat="44.41178" lon="5.87263">
        <ele>882.5</ele>
        <time>2010-09-19T09:30:51.72</time>
      </trkpt>
      <trkpt lat="44.41187" lon="5.87275">
        <ele>878</ele>
        <time>2010-09-19T09:31:01.69</time>
      </trkpt>
      <trkpt lat="44.41196" lon="5.87291">
        <ele>880.5</ele>
        <time>2010-09-19T09:31:11.64</time>
      </trkpt>
      <trkpt lat="44.41192" lon="5.87307">
        <ele>883</ele>
        <time>2010-09-19T09:31:21.61</time>
      </trkpt>
      <trkpt lat="44.41203" lon="5.87318">
        <ele>884.5</ele>
        <time>2010-09-19T09:31:31.78</time>
      </trkpt>
      <trkpt lat="44.41213" lon="5.87331">
        <ele>884</ele>
        <time>2010-09-19T09:31:41.53</time>
      </trkpt>
      <trkpt lat="44.41216" lon="5.87339">
        <ele>888.5</ele>
        <time>2010-09-19T09:31:51.47</time>
      </trkpt>
      <trkpt lat="44.41225" lon="5.87347">
        <ele>890.5</ele>
        <time>2010-09-19T09:32:02.44</time>
      </trkpt>
      <trkpt lat="44.41232" lon="5.87351">
        <ele>899</ele>
        <time>2010-09-19T09:32:13.39</time>
      </trkpt>
      <trkpt lat="44.41249" lon="5.87353">
        <ele>895.5</ele>
        <time>2010-09-19T09:32:23.36</time>
      </trkpt>
      <trkpt lat="44.41258" lon="5.87353">
        <ele>902.5</ele>
        <time>2010-09-19T09:32:35.32</time>
      </trkpt>
      <trkpt lat="44.4127" lon="5.87364">
        <ele>901</ele>
        <time>2010-09-19T09:32:46.53</time>
      </trkpt>
      <trkpt lat="44.41285" lon="5.87378">
        <ele>896.5</ele>
        <time>2010-09-19T09:32:56.21</time>
      </trkpt>
      <trkpt lat="44.41297" lon="5.87389">
        <ele>895.5</ele>
        <time>2010-09-19T09:33:09.17</time>
      </trkpt>
      <trkpt lat="44.41304" lon="5.87399">
        <ele>900.5</ele>
        <time>2010-09-19T09:33:19.13</time>
      </trkpt>
      <trkpt lat="44.41312" lon="5.874">
        <ele>908</ele>
        <time>2010-09-19T09:33:31.14</time>
      </trkpt>
      <trkpt lat="44.41324" lon="5.874">
        <ele>923</ele>
        <time>2010-09-19T09:33:44.05</time>
      </trkpt>
      <trkpt lat="44.41341" lon="5.87402">
        <ele>924</ele>
        <time>2010-09-19T09:33:56.06</time>
      </trkpt>
      <trkpt lat="44.41358" lon="5.87409">
        <ele>920.5</ele>
        <time>2010-09-19T09:34:06.98</time>
      </trkpt>
      <trkpt lat="44.41367" lon="5.87423">
        <ele>915.5</ele>
        <time>2010-09-19T09:34:16.94</time>
      </trkpt>
      <trkpt lat="44.41375" lon="5.87423">
        <ele>916</ele>
        <time>2010-09-19T09:34:40.89</time>
      </trkpt>
      <trkpt lat="44.41376" lon="5.87432">
        <ele>917.5</ele>
        <time>2010-09-19T09:34:50.86</time>
      </trkpt>
      <trkpt lat="44.41382" lon="5.87444">
        <ele>915.5</ele>
        <time>2010-09-19T09:35:00.91</time>
      </trkpt>
      <trkpt lat="44.41387" lon="5.87458">
        <ele>917</ele>
        <time>2010-09-19T09:35:10.92</time>
      </trkpt>
      <trkpt lat="44.41388" lon="5.87468">
        <ele>920.5</ele>
        <time>2010-09-19T09:35:23.78</time>
      </trkpt>
      <trkpt lat="44.41388" lon="5.87482">
        <ele>920</ele>
        <time>2010-09-19T09:35:33.72</time>
      </trkpt>
      <trkpt lat="44.41386" lon="5.87492">
        <ele>922</ele>
        <time>2010-09-19T09:35:43.68</time>
      </trkpt>
      <trkpt lat="44.41387" lon="5.87501">
        <ele>923.5</ele>
        <time>2010-09-19T09:35:53.66</time>
      </trkpt>
      <trkpt lat="44.41393" lon="5.87508">
        <ele>934</ele>
        <time>2010-09-19T09:37:08.62</time>
      </trkpt>
      <trkpt lat="44.41402" lon="5.87511">
        <ele>939</ele>
        <time>2010-09-19T09:38:35.58</time>
      </trkpt>
      <trkpt lat="44.41404" lon="5.87512">
        <ele>927.5</ele>
        <time>2010-09-19T09:39:04.54</time>
      </trkpt>
      <trkpt lat="44.41401" lon="5.87521">
        <ele>922</ele>
        <time>2010-09-19T09:39:57.49</time>
      </trkpt>
      <trkpt lat="44.41397" lon="5.87523">
        <ele>922</ele>
        <time>2010-09-19T09:40:26.46</time>
      </trkpt>
      <trkpt lat="44.41399" lon="5.87521">
        <ele>915.5</ele>
        <time>2010-09-19T09:41:28.40</time>
      </trkpt>
      <trkpt lat="44.41404" lon="5.87524">
        <ele>911.5</ele>
        <time>2010-09-19T09:42:17.36</time>
      </trkpt>
      <trkpt lat="44.41406" lon="5.87531">
        <ele>923</ele>
        <time>2010-09-19T09:43:42.31</time>
      </trkpt>
      <trkpt lat="44.41389" lon="5.87545">
        <ele>943</ele>
        <time>2010-09-19T09:44:22.29</time>
      </trkpt>
      <trkpt lat="44.41392" lon="5.87531">
        <ele>940</ele>
        <time>2010-09-19T09:44:46.24</time>
      </trkpt>
      <trkpt lat="44.41395" lon="5.87511">
        <ele>929.5</ele>
        <time>2010-09-19T09:46:02.20</time>
      </trkpt>
      <trkpt lat="44.41388" lon="5.87514">
        <ele>926.5</ele>
        <time>2010-09-19T09:47:07.15</time>
      </trkpt>
      <trkpt lat="44.41394" lon="5.87522">
        <ele>914.5</ele>
        <time>2010-09-19T09:47:39.12</time>
      </trkpt>
      <trkpt lat="44.41402" lon="5.87531">
        <ele>912.5</ele>
        <time>2010-09-19T09:47:49.09</time>
      </trkpt>
      <trkpt lat="44.41401" lon="5.87534">
        <ele>922</ele>
        <time>2010-09-19T09:48:09.04</time>
      </trkpt>
      <trkpt lat="44.41412" lon="5.87542">
        <ele>924</ele>
        <time>2010-09-19T09:48:22.00</time>
      </trkpt>
      <trkpt lat="44.41428" lon="5.87558">
        <ele>923.5</ele>
        <time>2010-09-19T09:48:32.96</time>
      </trkpt>
      <trkpt lat="44.41432" lon="5.87567">
        <ele>930</ele>
        <time>2010-09-19T09:48:42.92</time>
      </trkpt>
      <trkpt lat="44.41424" lon="5.87568">
        <ele>938.5</ele>
        <time>2010-09-19T09:48:52.88</time>
      </trkpt>
      <trkpt lat="44.41414" lon="5.87569">
        <ele>937.5</ele>
        <time>2010-09-19T09:49:02.84</time>
      </trkpt>
      <trkpt lat="44.41409" lon="5.87576">
        <ele>940</ele>
        <time>2010-09-19T09:49:12.81</time>
      </trkpt>
      <trkpt lat="44.41405" lon="5.87587">
        <ele>937.5</ele>
        <time>2010-09-19T09:49:22.79</time>
      </trkpt>
      <trkpt lat="44.41401" lon="5.87601">
        <ele>931.5</ele>
        <time>2010-09-19T09:49:32.75</time>
      </trkpt>
      <trkpt lat="44.41391" lon="5.87609">
        <ele>941.5</ele>
        <time>2010-09-19T09:49:42.71</time>
      </trkpt>
      <trkpt lat="44.4138" lon="5.87623">
        <ele>954.5</ele>
        <time>2010-09-19T09:49:52.88</time>
      </trkpt>
      <trkpt lat="44.41381" lon="5.87645">
        <ele>949.5</ele>
        <time>2010-09-19T09:50:02.64</time>
      </trkpt>
      <trkpt lat="44.41386" lon="5.87667">
        <ele>950.5</ele>
        <time>2010-09-19T09:50:13.60</time>
      </trkpt>
      <trkpt lat="44.41393" lon="5.87681">
        <ele>951</ele>
        <time>2010-09-19T09:50:23.56</time>
      </trkpt>
      <trkpt lat="44.41401" lon="5.87697">
        <ele>952</ele>
        <time>2010-09-19T09:50:33.50</time>
      </trkpt>
      <trkpt lat="44.41393" lon="5.87702">
        <ele>954</ele>
        <time>2010-09-19T09:50:44.45</time>
      </trkpt>
      <trkpt lat="44.41384" lon="5.87708">
        <ele>959.5</ele>
        <time>2010-09-19T09:50:54.42</time>
      </trkpt>
      <trkpt lat="44.41379" lon="5.87719">
        <ele>954.5</ele>
        <time>2010-09-19T09:51:04.38</time>
      </trkpt>
      <trkpt lat="44.41373" lon="5.8773">
        <ele>952.5</ele>
        <time>2010-09-19T09:51:14.35</time>
      </trkpt>
      <trkpt lat="44.41356" lon="5.87738">
        <ele>970.5</ele>
        <time>2010-09-19T09:51:25.32</time>
      </trkpt>
      <trkpt lat="44.41354" lon="5.87745">
        <ele>976.5</ele>
        <time>2010-09-19T09:51:38.28</time>
      </trkpt>
      <trkpt lat="44.41354" lon="5.87747">
        <ele>984.5</ele>
        <time>2010-09-19T09:51:50.40</time>
      </trkpt>
      <trkpt lat="44.41362" lon="5.87747">
        <ele>990.5</ele>
        <time>2010-09-19T09:52:00.17</time>
      </trkpt>
      <trkpt lat="44.41372" lon="5.87748">
        <ele>993.5</ele>
        <time>2010-09-19T09:52:10.13</time>
      </trkpt>
      <trkpt lat="44.41381" lon="5.87753">
        <ele>996.5</ele>
        <time>2010-09-19T09:52:20.10</time>
      </trkpt>
      <trkpt lat="44.41394" lon="5.8776">
        <ele>986</ele>
        <time>2010-09-19T09:52:32.07</time>
      </trkpt>
      <trkpt lat="44.41403" lon="5.87758">
        <ele>981</ele>
        <time>2010-09-19T09:52:42.04</time>
      </trkpt>
      <trkpt lat="44.41424" lon="5.87761">
        <ele>964</ele>
        <time>2010-09-19T09:52:55.99</time>
      </trkpt>
      <trkpt lat="44.41439" lon="5.87762">
        <ele>961.5</ele>
        <time>2010-09-19T09:53:05.98</time>
      </trkpt>
      <trkpt lat="44.41445" lon="5.8776">
        <ele>968.5</ele>
        <time>2010-09-19T09:53:15.95</time>
      </trkpt>
      <trkpt lat="44.41457" lon="5.87758">
        <ele>973</ele>
        <time>2010-09-19T09:53:25.91</time>
      </trkpt>
      <trkpt lat="44.41469" lon="5.87758">
        <ele>972</ele>
        <time>2010-09-19T09:53:35.89</time>
      </trkpt>
      <trkpt lat="44.41478" lon="5.87764">
        <ele>968</ele>
        <time>2010-09-19T09:53:45.84</time>
      </trkpt>
      <trkpt lat="44.41486" lon="5.87766">
        <ele>968</ele>
        <time>2010-09-19T09:53:55.80</time>
      </trkpt>
      <trkpt lat="44.41491" lon="5.87758">
        <ele>981</ele>
        <time>2010-09-19T09:54:06.76</time>
      </trkpt>
      <trkpt lat="44.415" lon="5.8775">
        <ele>985</ele>
        <time>2010-09-19T09:54:16.72</time>
      </trkpt>
      <trkpt lat="44.41519" lon="5.87754">
        <ele>975.5</ele>
        <time>2010-09-19T09:54:26.69</time>
      </trkpt>
      <trkpt lat="44.41527" lon="5.87746">
        <ele>980.5</ele>
        <time>2010-09-19T09:54:36.65</time>
      </trkpt>
      <trkpt lat="44.41528" lon="5.8774">
        <ele>991.5</ele>
        <time>2010-09-19T09:54:49.62</time>
      </trkpt>
      <trkpt lat="44.41533" lon="5.87731">
        <ele>986.5</ele>
        <time>2010-09-19T09:55:01.58</time>
      </trkpt>
      <trkpt lat="44.41536" lon="5.87722">
        <ele>990.5</ele>
        <time>2010-09-19T09:55:19.54</time>
      </trkpt>
      <trkpt lat="44.41539" lon="5.87716">
        <ele>995.5</ele>
        <time>2010-09-19T09:55:31.49</time>
      </trkpt>
      <trkpt lat="44.41547" lon="5.87709">
        <ele>988.5</ele>
        <time>2010-09-19T09:55:43.47</time>
      </trkpt>
      <trkpt lat="44.41554" lon="5.87702">
        <ele>989.5</ele>
        <time>2010-09-19T09:55:53.43</time>
      </trkpt>
      <trkpt lat="44.41556" lon="5.87694">
        <ele>995.5</ele>
        <time>2010-09-19T09:56:05.40</time>
      </trkpt>
      <trkpt lat="44.41565" lon="5.87687">
        <ele>989.5</ele>
        <time>2010-09-19T09:56:23.36</time>
      </trkpt>
      <trkpt lat="44.41564" lon="5.87673">
        <ele>1001.5</ele>
        <time>2010-09-19T09:56:38.33</time>
      </trkpt>
      <trkpt lat="44.41572" lon="5.87657">
        <ele>1006.5</ele>
        <time>2010-09-19T09:56:52.29</time>
      </trkpt>
      <trkpt lat="44.41585" lon="5.87649">
        <ele>994</ele>
        <time>2010-09-19T09:57:20.26</time>
      </trkpt>
      <trkpt lat="44.41591" lon="5.87647">
        <ele>987.5</ele>
        <time>2010-09-19T09:57:32.28</time>
      </trkpt>
      <trkpt lat="44.4159" lon="5.87645">
        <ele>994.5</ele>
        <time>2010-09-19T09:57:42.17</time>
      </trkpt>
      <trkpt lat="44.41591" lon="5.87647">
        <ele>999.5</ele>
        <time>2010-09-19T09:57:52.13</time>
      </trkpt>
      <trkpt lat="44.41592" lon="5.8765">
        <ele>999.5</ele>
        <time>2010-09-19T09:58:02.10</time>
      </trkpt>
      <trkpt lat="44.41594" lon="5.87646">
        <ele>1005</ele>
        <time>2010-09-19T09:58:12.08</time>
      </trkpt>
      <trkpt lat="44.41596" lon="5.87641">
        <ele>1014.5</ele>
        <time>2010-09-19T09:58:23.06</time>
      </trkpt>
      <trkpt lat="44.41606" lon="5.87637">
        <ele>1006</ele>
        <time>2010-09-19T09:58:32.98</time>
      </trkpt>
      <trkpt lat="44.41605" lon="5.87638">
        <ele>1010.5</ele>
        <time>2010-09-19T09:58:43.95</time>
      </trkpt>
      <trkpt lat="44.41605" lon="5.87644">
        <ele>1014</ele>
        <time>2010-09-19T09:58:55.91</time>
      </trkpt>
      <trkpt lat="44.41605" lon="5.8765">
        <ele>1019.5</ele>
        <time>2010-09-19T09:59:05.87</time>
      </trkpt>
      <trkpt lat="44.41605" lon="5.87658">
        <ele>1024.5</ele>
        <time>2010-09-19T09:59:17.09</time>
      </trkpt>
      <trkpt lat="44.41605" lon="5.87664">
        <ele>1026</ele>
        <time>2010-09-19T09:59:26.80</time>
      </trkpt>
      <trkpt lat="44.41603" lon="5.87672">
        <ele>1032</ele>
        <time>2010-09-19T09:59:38.77</time>
      </trkpt>
      <trkpt lat="44.41608" lon="5.87672">
        <ele>1033.5</ele>
        <time>2010-09-19T09:59:52.72</time>
      </trkpt>
      <trkpt lat="44.41614" lon="5.87668">
        <ele>1030</ele>
        <time>2010-09-19T10:00:02.91</time>
      </trkpt>
      <trkpt lat="44.41616" lon="5.87664">
        <ele>1031</ele>
        <time>2010-09-19T10:00:12.64</time>
      </trkpt>
      <trkpt lat="44.41616" lon="5.87656">
        <ele>1039</ele>
        <time>2010-09-19T10:00:22.58</time>
      </trkpt>
      <trkpt lat="44.41618" lon="5.87656">
        <ele>1045</ele>
        <time>2010-09-19T10:00:32.77</time>
      </trkpt>
      <trkpt lat="44.41622" lon="5.87661">
        <ele>1043</ele>
        <time>2010-09-19T10:00:42.49</time>
      </trkpt>
      <trkpt lat="44.4162" lon="5.87668">
        <ele>1046.5</ele>
        <time>2010-09-19T10:00:52.45</time>
      </trkpt>
      <trkpt lat="44.4162" lon="5.87676">
        <ele>1049</ele>
        <time>2010-09-19T10:01:02.40</time>
      </trkpt>
      <trkpt lat="44.41623" lon="5.87688">
        <ele>1048.5</ele>
        <time>2010-09-19T10:01:13.36</time>
      </trkpt>
      <trkpt lat="44.41627" lon="5.87701">
        <ele>1043</ele>
        <time>2010-09-19T10:01:36.32</time>
      </trkpt>
      <trkpt lat="44.41629" lon="5.87712">
        <ele>1045.5</ele>
        <time>2010-09-19T10:01:46.28</time>
      </trkpt>
      <trkpt lat="44.41627" lon="5.87721">
        <ele>1054</ele>
        <time>2010-09-19T10:01:56.24</time>
      </trkpt>
      <trkpt lat="44.41628" lon="5.87731">
        <ele>1054.5</ele>
        <time>2010-09-19T10:02:06.20</time>
      </trkpt>
      <trkpt lat="44.41633" lon="5.87746">
        <ele>1044.5</ele>
        <time>2010-09-19T10:02:24.16</time>
      </trkpt>
      <trkpt lat="44.41624" lon="5.87758">
        <ele>1064</ele>
        <time>2010-09-19T10:02:34.12</time>
      </trkpt>
      <trkpt lat="44.41616" lon="5.87771">
        <ele>1077</ele>
        <time>2010-09-19T10:02:44.08</time>
      </trkpt>
      <trkpt lat="44.41613" lon="5.87788">
        <ele>1080.5</ele>
        <time>2010-09-19T10:02:54.04</time>
      </trkpt>
      <trkpt lat="44.41611" lon="5.87801">
        <ele>1085.5</ele>
        <time>2010-09-19T10:03:04.01</time>
      </trkpt>
      <trkpt lat="44.41612" lon="5.87816">
        <ele>1083</ele>
        <time>2010-09-19T10:03:15.98</time>
      </trkpt>
      <trkpt lat="44.41617" lon="5.8782">
        <ele>1072</ele>
        <time>2010-09-19T10:03:25.95</time>
      </trkpt>
      <trkpt lat="44.41623" lon="5.87824">
        <ele>1072</ele>
        <time>2010-09-19T10:03:40.91</time>
      </trkpt>
      <trkpt lat="44.41625" lon="5.87822">
        <ele>1073.5</ele>
        <time>2010-09-19T10:03:52.89</time>
      </trkpt>
      <trkpt lat="44.41634" lon="5.87815">
        <ele>1064</ele>
        <time>2010-09-19T10:04:02.87</time>
      </trkpt>
      <trkpt lat="44.41638" lon="5.87803">
        <ele>1069.5</ele>
        <time>2010-09-19T10:04:12.83</time>
      </trkpt>
      <trkpt lat="44.41639" lon="5.8779">
        <ele>1087</ele>
        <time>2010-09-19T10:04:22.80</time>
      </trkpt>
      <trkpt lat="44.41647" lon="5.87777">
        <ele>1087</ele>
        <time>2010-09-19T10:04:33.74</time>
      </trkpt>
      <trkpt lat="44.41656" lon="5.87764">
        <ele>1078.5</ele>
        <time>2010-09-19T10:04:43.70</time>
      </trkpt>
      <trkpt lat="44.41662" lon="5.87751">
        <ele>1074.5</ele>
        <time>2010-09-19T10:04:54.80</time>
      </trkpt>
      <trkpt lat="44.41664" lon="5.87741">
        <ele>1081</ele>
        <time>2010-09-19T10:05:04.74</time>
      </trkpt>
      <trkpt lat="44.41669" lon="5.87732">
        <ele>1079.5</ele>
        <time>2010-09-19T10:05:14.58</time>
      </trkpt>
      <trkpt lat="44.41671" lon="5.87722">
        <ele>1078.5</ele>
        <time>2010-09-19T10:05:24.54</time>
      </trkpt>
      <trkpt lat="44.41672" lon="5.87711">
        <ele>1083.5</ele>
        <time>2010-09-19T10:05:35.67</time>
      </trkpt>
      <trkpt lat="44.41678" lon="5.87697">
        <ele>1079</ele>
        <time>2010-09-19T10:05:46.45</time>
      </trkpt>
      <trkpt lat="44.41683" lon="5.8769">
        <ele>1078</ele>
        <time>2010-09-19T10:05:57.40</time>
      </trkpt>
      <trkpt lat="44.41691" lon="5.87685">
        <ele>1072.5</ele>
        <time>2010-09-19T10:06:26.54</time>
      </trkpt>
      <trkpt lat="44.41695" lon="5.87695">
        <ele>1062.5</ele>
        <time>2010-09-19T10:06:36.31</time>
      </trkpt>
      <trkpt lat="44.41692" lon="5.87703">
        <ele>1071.5</ele>
        <time>2010-09-19T10:06:52.43</time>
      </trkpt>
      <trkpt lat="44.41695" lon="5.87714">
        <ele>1073.5</ele>
        <time>2010-09-19T10:07:02.26</time>
      </trkpt>
      <trkpt lat="44.41692" lon="5.87727">
        <ele>1083.5</ele>
        <time>2010-09-19T10:07:12.22</time>
      </trkpt>
      <trkpt lat="44.41695" lon="5.87738">
        <ele>1084.5</ele>
        <time>2010-09-19T10:07:25.27</time>
      </trkpt>
      <trkpt lat="44.41698" lon="5.87748">
        <ele>1082</ele>
        <time>2010-09-19T10:07:35.19</time>
      </trkpt>
      <trkpt lat="44.41697" lon="5.87756">
        <ele>1089</ele>
        <time>2010-09-19T10:07:45.29</time>
      </trkpt>
      <trkpt lat="44.41696" lon="5.87762">
        <ele>1091.5</ele>
        <time>2010-09-19T10:07:56.07</time>
      </trkpt>
      <trkpt lat="44.41694" lon="5.87771">
        <ele>1099</ele>
        <time>2010-09-19T10:08:06.01</time>
      </trkpt>
      <trkpt lat="44.41696" lon="5.87781">
        <ele>1098.5</ele>
        <time>2010-09-19T10:08:15.97</time>
      </trkpt>
      <trkpt lat="44.41694" lon="5.87793">
        <ele>1103.5</ele>
        <time>2010-09-19T10:08:25.92</time>
      </trkpt>
      <trkpt lat="44.41691" lon="5.87803">
        <ele>1109.5</ele>
        <time>2010-09-19T10:08:35.98</time>
      </trkpt>
      <trkpt lat="44.41686" lon="5.87815">
        <ele>1114</ele>
        <time>2010-09-19T10:08:50.83</time>
      </trkpt>
      <trkpt lat="44.41688" lon="5.87831">
        <ele>1116.5</ele>
        <time>2010-09-19T10:09:00.77</time>
      </trkpt>
      <trkpt lat="44.41687" lon="5.87845">
        <ele>1121</ele>
        <time>2010-09-19T10:09:10.74</time>
      </trkpt>
      <trkpt lat="44.41688" lon="5.87863">
        <ele>1117</ele>
        <time>2010-09-19T10:09:20.69</time>
      </trkpt>
      <trkpt lat="44.41688" lon="5.87878">
        <ele>1120</ele>
        <time>2010-09-19T10:09:30.64</time>
      </trkpt>
      <trkpt lat="44.41686" lon="5.87892">
        <ele>1126</ele>
        <time>2010-09-19T10:09:40.60</time>
      </trkpt>
      <trkpt lat="44.41685" lon="5.87907">
        <ele>1127.5</ele>
        <time>2010-09-19T10:09:50.57</time>
      </trkpt>
      <trkpt lat="44.41683" lon="5.87921">
        <ele>1133</ele>
        <time>2010-09-19T10:10:00.51</time>
      </trkpt>
      <trkpt lat="44.41681" lon="5.87936">
        <ele>1140.5</ele>
        <time>2010-09-19T10:10:13.45</time>
      </trkpt>
      <trkpt lat="44.41685" lon="5.87947">
        <ele>1140.5</ele>
        <time>2010-09-19T10:10:35.41</time>
      </trkpt>
      <trkpt lat="44.41689" lon="5.87948">
        <ele>1143</ele>
        <time>2010-09-19T10:10:48.58</time>
      </trkpt>
      <trkpt lat="44.41687" lon="5.87946">
        <ele>1154</ele>
        <time>2010-09-19T10:11:00.33</time>
      </trkpt>
      <trkpt lat="44.41688" lon="5.87936">
        <ele>1159.5</ele>
        <time>2010-09-19T10:11:14.29</time>
      </trkpt>
      <trkpt lat="44.41696" lon="5.87926">
        <ele>1144.5</ele>
        <time>2010-09-19T10:11:35.24</time>
      </trkpt>
      <trkpt lat="44.41701" lon="5.87913">
        <ele>1138.5</ele>
        <time>2010-09-19T10:11:45.20</time>
      </trkpt>
      <trkpt lat="44.41707" lon="5.87901">
        <ele>1138.5</ele>
        <time>2010-09-19T10:11:55.32</time>
      </trkpt>
      <trkpt lat="44.41714" lon="5.87889">
        <ele>1139.5</ele>
        <time>2010-09-19T10:12:05.12</time>
      </trkpt>
      <trkpt lat="44.41717" lon="5.87874">
        <ele>1149.5</ele>
        <time>2010-09-19T10:12:15.12</time>
      </trkpt>
      <trkpt lat="44.41724" lon="5.87866">
        <ele>1145.5</ele>
        <time>2010-09-19T10:12:27.21</time>
      </trkpt>
      <trkpt lat="44.41726" lon="5.87858">
        <ele>1150.5</ele>
        <time>2010-09-19T10:12:36.99</time>
      </trkpt>
      <trkpt lat="44.41731" lon="5.87849">
        <ele>1151.5</ele>
        <time>2010-09-19T10:12:49.07</time>
      </trkpt>
      <trkpt lat="44.41737" lon="5.87839">
        <ele>1144</ele>
        <time>2010-09-19T10:13:00.16</time>
      </trkpt>
      <trkpt lat="44.41742" lon="5.8783">
        <ele>1152</ele>
        <time>2010-09-19T10:13:19.84</time>
      </trkpt>
      <trkpt lat="44.41744" lon="5.87813">
        <ele>1154</ele>
        <time>2010-09-19T10:13:29.80</time>
      </trkpt>
      <trkpt lat="44.41751" lon="5.87798">
        <ele>1149.5</ele>
        <time>2010-09-19T10:13:42.76</time>
      </trkpt>
      <trkpt lat="44.41755" lon="5.87783">
        <ele>1156</ele>
        <time>2010-09-19T10:13:52.71</time>
      </trkpt>
      <trkpt lat="44.41762" lon="5.87771">
        <ele>1153.5</ele>
        <time>2010-09-19T10:14:02.67</time>
      </trkpt>
      <trkpt lat="44.41763" lon="5.87762">
        <ele>1161.5</ele>
        <time>2010-09-19T10:14:17.83</time>
      </trkpt>
      <trkpt lat="44.41764" lon="5.87752">
        <ele>1165.5</ele>
        <time>2010-09-19T10:14:27.83</time>
      </trkpt>
      <trkpt lat="44.41763" lon="5.8774">
        <ele>1180.5</ele>
        <time>2010-09-19T10:14:38.69</time>
      </trkpt>
      <trkpt lat="44.41768" lon="5.87731">
        <ele>1172.5</ele>
        <time>2010-09-19T10:14:48.48</time>
      </trkpt>
      <trkpt lat="44.41768" lon="5.87718">
        <ele>1174</ele>
        <time>2010-09-19T10:14:58.44</time>
      </trkpt>
      <trkpt lat="44.4177" lon="5.8771">
        <ele>1175.5</ele>
        <time>2010-09-19T10:15:08.55</time>
      </trkpt>
      <trkpt lat="44.41774" lon="5.87716">
        <ele>1173</ele>
        <time>2010-09-19T10:15:18.39</time>
      </trkpt>
      <trkpt lat="44.4178" lon="5.8772">
        <ele>1168</ele>
        <time>2010-09-19T10:15:28.29</time>
      </trkpt>
      <trkpt lat="44.41781" lon="5.87726">
        <ele>1167.5</ele>
        <time>2010-09-19T10:15:39.27</time>
      </trkpt>
      <trkpt lat="44.41785" lon="5.87742">
        <ele>1162.5</ele>
        <time>2010-09-19T10:15:49.23</time>
      </trkpt>
      <trkpt lat="44.41782" lon="5.87758">
        <ele>1169.5</ele>
        <time>2010-09-19T10:15:59.19</time>
      </trkpt>
      <trkpt lat="44.41781" lon="5.87775">
        <ele>1171.5</ele>
        <time>2010-09-19T10:16:09.16</time>
      </trkpt>
      <trkpt lat="44.41779" lon="5.87792">
        <ele>1177</ele>
        <time>2010-09-19T10:16:19.10</time>
      </trkpt>
      <trkpt lat="44.4178" lon="5.87807">
        <ele>1174.5</ele>
        <time>2010-09-19T10:16:29.06</time>
      </trkpt>
      <trkpt lat="44.41782" lon="5.87825">
        <ele>1175.5</ele>
        <time>2010-09-19T10:16:42.00</time>
      </trkpt>
      <trkpt lat="44.41783" lon="5.87843">
        <ele>1183</ele>
        <time>2010-09-19T10:17:00.95</time>
      </trkpt>
      <trkpt lat="44.41783" lon="5.87851">
        <ele>1189</ele>
        <time>2010-09-19T10:17:14.92</time>
      </trkpt>
      <trkpt lat="44.41785" lon="5.87866">
        <ele>1185</ele>
        <time>2010-09-19T10:18:38.88</time>
      </trkpt>
      <trkpt lat="44.41781" lon="5.87875">
        <ele>1190</ele>
        <time>2010-09-19T10:19:02.84</time>
      </trkpt>
      <trkpt lat="44.41782" lon="5.87887">
        <ele>1190</ele>
        <time>2010-09-19T10:19:25.84</time>
      </trkpt>
      <trkpt lat="44.41783" lon="5.87898">
        <ele>1190</ele>
        <time>2010-09-19T10:19:47.02</time>
      </trkpt>
      <trkpt lat="44.41783" lon="5.87908">
        <ele>1189.5</ele>
        <time>2010-09-19T10:19:56.75</time>
      </trkpt>
      <trkpt lat="44.41786" lon="5.87925">
        <ele>1189</ele>
        <time>2010-09-19T10:20:19.72</time>
      </trkpt>
      <trkpt lat="44.4179" lon="5.8795">
        <ele>1187.5</ele>
        <time>2010-09-19T10:20:29.68</time>
      </trkpt>
      <trkpt lat="44.4177" lon="5.87967">
        <ele>1186.5</ele>
        <time>2010-09-19T10:21:00.64</time>
      </trkpt>
      <trkpt lat="44.41773" lon="5.87959">
        <ele>1186</ele>
        <time>2010-09-19T10:21:20.60</time>
      </trkpt>
      <trkpt lat="44.41772" lon="5.87962">
        <ele>1186</ele>
        <time>2010-09-19T10:21:38.55</time>
      </trkpt>
      <trkpt lat="44.41777" lon="5.87964">
        <ele>1186</ele>
        <time>2010-09-19T10:21:49.50</time>
      </trkpt>
      <trkpt lat="44.41783" lon="5.87973">
        <ele>1186</ele>
        <time>2010-09-19T10:22:02.47</time>
      </trkpt>
      <trkpt lat="44.41786" lon="5.87979">
        <ele>1186</ele>
        <time>2010-09-19T10:22:15.42</time>
      </trkpt>
      <trkpt lat="44.41778" lon="5.87986">
        <ele>1203</ele>
        <time>2010-09-19T10:22:29.39</time>
      </trkpt>
      <trkpt lat="44.41784" lon="5.87995">
        <ele>1197</ele>
        <time>2010-09-19T10:22:47.54</time>
      </trkpt>
      <trkpt lat="44.41785" lon="5.88002">
        <ele>1199.5</ele>
        <time>2010-09-19T10:22:59.32</time>
      </trkpt>
      <trkpt lat="44.41791" lon="5.88017">
        <ele>1202</ele>
        <time>2010-09-19T10:23:09.40</time>
      </trkpt>
      <trkpt lat="44.41797" lon="5.88025">
        <ele>1203.5</ele>
        <time>2010-09-19T10:23:19.23</time>
      </trkpt>
      <trkpt lat="44.41808" lon="5.88035">
        <ele>1211.5</ele>
        <time>2010-09-19T10:23:30.21</time>
      </trkpt>
      <trkpt lat="44.41818" lon="5.88043">
        <ele>1213</ele>
        <time>2010-09-19T10:23:41.18</time>
      </trkpt>
      <trkpt lat="44.41829" lon="5.88052">
        <ele>1217.5</ele>
        <time>2010-09-19T10:23:56.14</time>
      </trkpt>
      <trkpt lat="44.41847" lon="5.88056">
        <ele>1212</ele>
        <time>2010-09-19T10:24:07.12</time>
      </trkpt>
      <trkpt lat="44.41855" lon="5.88066">
        <ele>1219</ele>
        <time>2010-09-19T10:24:17.09</time>
      </trkpt>
      <trkpt lat="44.41867" lon="5.88078">
        <ele>1213.5</ele>
        <time>2010-09-19T10:24:29.05</time>
      </trkpt>
      <trkpt lat="44.41875" lon="5.88087">
        <ele>1213</ele>
        <time>2010-09-19T10:24:45.02</time>
      </trkpt>
      <trkpt lat="44.41882" lon="5.88097">
        <ele>1211.5</ele>
        <time>2010-09-19T10:25:00.97</time>
      </trkpt>
      <trkpt lat="44.41887" lon="5.88101">
        <ele>1215.5</ele>
        <time>2010-09-19T10:25:11.94</time>
      </trkpt>
      <trkpt lat="44.41897" lon="5.88101">
        <ele>1220.5</ele>
        <time>2010-09-19T10:25:23.91</time>
      </trkpt>
      <trkpt lat="44.41918" lon="5.88121">
        <ele>1231.5</ele>
        <time>2010-09-19T10:26:25.87</time>
      </trkpt>
      <trkpt lat="44.41933" lon="5.88139">
        <ele>1239</ele>
        <time>2010-09-19T10:30:19.84</time>
      </trkpt>
      <trkpt lat="44.4193" lon="5.88131">
        <ele>1236</ele>
        <time>2010-09-19T10:30:40.78</time>
      </trkpt>
      <trkpt lat="44.41925" lon="5.88123">
        <ele>1237</ele>
        <time>2010-09-19T10:30:50.74</time>
      </trkpt>
      <trkpt lat="44.41922" lon="5.88111">
        <ele>1237</ele>
        <time>2010-09-19T10:31:00.73</time>
      </trkpt>
      <trkpt lat="44.4192" lon="5.88095">
        <ele>1239.5</ele>
        <time>2010-09-19T10:31:10.70</time>
      </trkpt>
      <trkpt lat="44.41916" lon="5.88077">
        <ele>1239.5</ele>
        <time>2010-09-19T10:31:20.67</time>
      </trkpt>
      <trkpt lat="44.4192" lon="5.88061">
        <ele>1236.5</ele>
        <time>2010-09-19T10:31:30.75</time>
      </trkpt>
      <trkpt lat="44.41925" lon="5.88067">
        <ele>1237</ele>
        <time>2010-09-19T10:31:40.58</time>
      </trkpt>
      <trkpt lat="44.41929" lon="5.88073">
        <ele>1233</ele>
        <time>2010-09-19T10:31:50.54</time>
      </trkpt>
      <trkpt lat="44.41935" lon="5.88077">
        <ele>1230.5</ele>
        <time>2010-09-19T10:32:00.63</time>
      </trkpt>
      <trkpt lat="44.4194" lon="5.88085">
        <ele>1234</ele>
        <time>2010-09-19T10:32:10.57</time>
      </trkpt>
      <trkpt lat="44.41945" lon="5.88096">
        <ele>1239</ele>
        <time>2010-09-19T10:32:20.44</time>
      </trkpt>
      <trkpt lat="44.41953" lon="5.88107">
        <ele>1240.5</ele>
        <time>2010-09-19T10:32:30.41</time>
      </trkpt>
      <trkpt lat="44.41956" lon="5.88121">
        <ele>1249</ele>
        <time>2010-09-19T10:32:40.38</time>
      </trkpt>
      <trkpt lat="44.41962" lon="5.88137">
        <ele>1255.5</ele>
        <time>2010-09-19T10:32:50.35</time>
      </trkpt>
      <trkpt lat="44.4197" lon="5.88151">
        <ele>1257.5</ele>
        <time>2010-09-19T10:33:00.33</time>
      </trkpt>
      <trkpt lat="44.41978" lon="5.88166">
        <ele>1260</ele>
        <time>2010-09-19T10:33:10.28</time>
      </trkpt>
      <trkpt lat="44.41985" lon="5.88178">
        <ele>1262.5</ele>
        <time>2010-09-19T10:33:20.25</time>
      </trkpt>
      <trkpt lat="44.41994" lon="5.8819">
        <ele>1265</ele>
        <time>2010-09-19T10:33:30.43</time>
      </trkpt>
      <trkpt lat="44.42003" lon="5.88203">
        <ele>1273.5</ele>
        <time>2010-09-19T10:33:40.16</time>
      </trkpt>
      <trkpt lat="44.42019" lon="5.88219">
        <ele>1270.5</ele>
        <time>2010-09-19T10:33:50.12</time>
      </trkpt>
      <trkpt lat="44.42032" lon="5.88232">
        <ele>1269.5</ele>
        <time>2010-09-19T10:34:00.16</time>
      </trkpt>
      <trkpt lat="44.4203" lon="5.88245">
        <ele>1277.5</ele>
        <time>2010-09-19T10:34:10.04</time>
      </trkpt>
      <trkpt lat="44.42022" lon="5.88249">
        <ele>1285</ele>
        <time>2010-09-19T10:34:20.00</time>
      </trkpt>
      <trkpt lat="44.42012" lon="5.88255">
        <ele>1293.5</ele>
        <time>2010-09-19T10:34:29.96</time>
      </trkpt>
      <trkpt lat="44.42004" lon="5.88265">
        <ele>1292</ele>
        <time>2010-09-19T10:34:40.11</time>
      </trkpt>
      <trkpt lat="44.41996" lon="5.88273">
        <ele>1288.5</ele>
        <time>2010-09-19T10:34:49.89</time>
      </trkpt>
      <trkpt lat="44.41986" lon="5.88282">
        <ele>1288.5</ele>
        <time>2010-09-19T10:34:59.86</time>
      </trkpt>
      <trkpt lat="44.41978" lon="5.88292">
        <ele>1286</ele>
        <time>2010-09-19T10:35:09.86</time>
      </trkpt>
      <trkpt lat="44.41969" lon="5.88307">
        <ele>1286</ele>
        <time>2010-09-19T10:35:19.79</time>
      </trkpt>
      <trkpt lat="44.41965" lon="5.88323">
        <ele>1288</ele>
        <time>2010-09-19T10:35:29.78</time>
      </trkpt>
      <trkpt lat="44.41964" lon="5.88343">
        <ele>1287</ele>
        <time>2010-09-19T10:35:39.74</time>
      </trkpt>
      <trkpt lat="44.41964" lon="5.88363">
        <ele>1290.5</ele>
        <time>2010-09-19T10:35:49.69</time>
      </trkpt>
      <trkpt lat="44.41965" lon="5.88385">
        <ele>1286.5</ele>
        <time>2010-09-19T10:35:59.65</time>
      </trkpt>
      <trkpt lat="44.41964" lon="5.88403">
        <ele>1289.5</ele>
        <time>2010-09-19T10:36:10.58</time>
      </trkpt>
      <trkpt lat="44.41963" lon="5.88421">
        <ele>1287</ele>
        <time>2010-09-19T10:36:21.72</time>
      </trkpt>
      <trkpt lat="44.41956" lon="5.88435">
        <ele>1289.5</ele>
        <time>2010-09-19T10:36:31.56</time>
      </trkpt>
      <trkpt lat="44.41951" lon="5.88439">
        <ele>1291.5</ele>
        <time>2010-09-19T10:36:41.51</time>
      </trkpt>
      <trkpt lat="44.41946" lon="5.88433">
        <ele>1291</ele>
        <time>2010-09-19T10:36:51.42</time>
      </trkpt>
      <trkpt lat="44.41942" lon="5.88425">
        <ele>1289.5</ele>
        <time>2010-09-19T10:37:01.36</time>
      </trkpt>
      <trkpt lat="44.41936" lon="5.88418">
        <ele>1289</ele>
        <time>2010-09-19T10:37:11.33</time>
      </trkpt>
      <trkpt lat="44.41926" lon="5.88417">
        <ele>1289</ele>
        <time>2010-09-19T10:37:22.30</time>
      </trkpt>
      <trkpt lat="44.41915" lon="5.88421">
        <ele>1288</ele>
        <time>2010-09-19T10:37:32.27</time>
      </trkpt>
      <trkpt lat="44.41902" lon="5.88424">
        <ele>1288</ele>
        <time>2010-09-19T10:37:43.23</time>
      </trkpt>
      <trkpt lat="44.41886" lon="5.88429">
        <ele>1288</ele>
        <time>2010-09-19T10:37:55.18</time>
      </trkpt>
      <trkpt lat="44.41865" lon="5.88442">
        <ele>1289.5</ele>
        <time>2010-09-19T10:38:06.39</time>
      </trkpt>
      <trkpt lat="44.41836" lon="5.88459">
        <ele>1301.5</ele>
        <time>2010-09-19T10:38:18.11</time>
      </trkpt>
      <trkpt lat="44.41827" lon="5.88475">
        <ele>1306</ele>
        <time>2010-09-19T10:38:28.08</time>
      </trkpt>
      <trkpt lat="44.4182" lon="5.88494">
        <ele>1309.5</ele>
        <time>2010-09-19T10:38:38.04</time>
      </trkpt>
      <trkpt lat="44.41815" lon="5.88509">
        <ele>1309.5</ele>
        <time>2010-09-19T10:38:48.01</time>
      </trkpt>
      <trkpt lat="44.41808" lon="5.88525">
        <ele>1311.5</ele>
        <time>2010-09-19T10:38:58.01</time>
      </trkpt>
      <trkpt lat="44.41798" lon="5.88538">
        <ele>1314</ele>
        <time>2010-09-19T10:39:08.95</time>
      </trkpt>
      <trkpt lat="44.41791" lon="5.88541">
        <ele>1314.5</ele>
        <time>2010-09-19T10:39:18.91</time>
      </trkpt>
      <trkpt lat="44.41781" lon="5.88543">
        <ele>1314</ele>
        <time>2010-09-19T10:39:28.87</time>
      </trkpt>
      <trkpt lat="44.41771" lon="5.88544">
        <ele>1316.5</ele>
        <time>2010-09-19T10:39:38.85</time>
      </trkpt>
      <trkpt lat="44.41759" lon="5.88547">
        <ele>1317</ele>
        <time>2010-09-19T10:39:48.78</time>
      </trkpt>
      <trkpt lat="44.41748" lon="5.88551">
        <ele>1318.5</ele>
        <time>2010-09-19T10:39:58.73</time>
      </trkpt>
      <trkpt lat="44.41736" lon="5.88556">
        <ele>1319.5</ele>
        <time>2010-09-19T10:40:09.69</time>
      </trkpt>
      <trkpt lat="44.41724" lon="5.88561">
        <ele>1319.5</ele>
        <time>2010-09-19T10:40:19.67</time>
      </trkpt>
      <trkpt lat="44.4171" lon="5.88566">
        <ele>1321</ele>
        <time>2010-09-19T10:40:30.64</time>
      </trkpt>
      <trkpt lat="44.41698" lon="5.88573">
        <ele>1321.5</ele>
        <time>2010-09-19T10:40:40.62</time>
      </trkpt>
      <trkpt lat="44.41683" lon="5.88581">
        <ele>1322</ele>
        <time>2010-09-19T10:40:50.58</time>
      </trkpt>
      <trkpt lat="44.41667" lon="5.88589">
        <ele>1324</ele>
        <time>2010-09-19T10:41:00.54</time>
      </trkpt>
      <trkpt lat="44.41653" lon="5.886">
        <ele>1324</ele>
        <time>2010-09-19T10:41:10.49</time>
      </trkpt>
      <trkpt lat="44.4164" lon="5.88607">
        <ele>1324.5</ele>
        <time>2010-09-19T10:41:20.47</time>
      </trkpt>
      <trkpt lat="44.4163" lon="5.88613">
        <ele>1325</ele>
        <time>2010-09-19T10:41:30.43</time>
      </trkpt>
      <trkpt lat="44.41619" lon="5.88618">
        <ele>1325.5</ele>
        <time>2010-09-19T10:41:40.40</time>
      </trkpt>
      <trkpt lat="44.41607" lon="5.88627">
        <ele>1326.5</ele>
        <time>2010-09-19T10:41:50.36</time>
      </trkpt>
      <trkpt lat="44.41598" lon="5.88635">
        <ele>1326.5</ele>
        <time>2010-09-19T10:42:00.34</time>
      </trkpt>
      <trkpt lat="44.41587" lon="5.88645">
        <ele>1326.5</ele>
        <time>2010-09-19T10:42:10.29</time>
      </trkpt>
      <trkpt lat="44.41577" lon="5.88655">
        <ele>1326</ele>
        <time>2010-09-19T10:42:20.26</time>
      </trkpt>
      <trkpt lat="44.41566" lon="5.88664">
        <ele>1330.5</ele>
        <time>2010-09-19T10:42:30.21</time>
      </trkpt>
      <trkpt lat="44.41555" lon="5.88676">
        <ele>1333.5</ele>
        <time>2010-09-19T10:42:40.17</time>
      </trkpt>
      <trkpt lat="44.41545" lon="5.88692">
        <ele>1326</ele>
        <time>2010-09-19T10:42:50.12</time>
      </trkpt>
      <trkpt lat="44.41538" lon="5.8871">
        <ele>1331.5</ele>
        <time>2010-09-19T10:43:00.08</time>
      </trkpt>
      <trkpt lat="44.41541" lon="5.88723">
        <ele>1326</ele>
        <time>2010-09-19T10:46:17.03</time>
      </trkpt>
      <trkpt lat="44.41527" lon="5.88723">
        <ele>1338</ele>
        <time>2010-09-19T10:48:30.97</time>
      </trkpt>
      <trkpt lat="44.41524" lon="5.88731">
        <ele>1346.5</ele>
        <time>2010-09-19T10:48:53.93</time>
      </trkpt>
      <trkpt lat="44.41527" lon="5.88742">
        <ele>1350</ele>
        <time>2010-09-19T10:49:03.89</time>
      </trkpt>
      <trkpt lat="44.41539" lon="5.88759">
        <ele>1347.5</ele>
        <time>2010-09-19T10:49:13.86</time>
      </trkpt>
      <trkpt lat="44.41548" lon="5.88784">
        <ele>1352.5</ele>
        <time>2010-09-19T10:49:23.84</time>
      </trkpt>
      <trkpt lat="44.41543" lon="5.88823">
        <ele>1356</ele>
        <time>2010-09-19T10:49:34.80</time>
      </trkpt>
      <trkpt lat="44.41557" lon="5.88859">
        <ele>1358</ele>
        <time>2010-09-19T10:49:44.76</time>
      </trkpt>
      <trkpt lat="44.41561" lon="5.88899">
        <ele>1359</ele>
        <time>2010-09-19T10:49:54.72</time>
      </trkpt>
      <trkpt lat="44.41567" lon="5.88953">
        <ele>1373.5</ele>
        <time>2010-09-19T10:50:04.67</time>
      </trkpt>
      <trkpt lat="44.4157" lon="5.88999">
        <ele>1386.5</ele>
        <time>2010-09-19T10:50:15.61</time>
      </trkpt>
      <trkpt lat="44.41573" lon="5.89046">
        <ele>1384.5</ele>
        <time>2010-09-19T10:50:26.55</time>
      </trkpt>
      <trkpt lat="44.41576" lon="5.89094">
        <ele>1379.5</ele>
        <time>2010-09-19T10:50:36.50</time>
      </trkpt>
      <trkpt lat="44.41558" lon="5.89131">
        <ele>1377</ele>
        <time>2010-09-19T10:50:47.46</time>
      </trkpt>
      <trkpt lat="44.41533" lon="5.89157">
        <ele>1376.5</ele>
        <time>2010-09-19T10:50:57.40</time>
      </trkpt>
      <trkpt lat="44.41515" lon="5.89186">
        <ele>1379</ele>
        <time>2010-09-19T10:51:07.38</time>
      </trkpt>
      <trkpt lat="44.41511" lon="5.8924">
        <ele>1365.5</ele>
        <time>2010-09-19T10:51:19.33</time>
      </trkpt>
      <trkpt lat="44.41519" lon="5.89297">
        <ele>1349</ele>
        <time>2010-09-19T10:51:31.30</time>
      </trkpt>
      <trkpt lat="44.41542" lon="5.89345">
        <ele>1336.5</ele>
        <time>2010-09-19T10:51:42.27</time>
      </trkpt>
      <trkpt lat="44.41525" lon="5.89411">
        <ele>1343.5</ele>
        <time>2010-09-19T10:51:54.28</time>
      </trkpt>
      <trkpt lat="44.4149" lon="5.89435">
        <ele>1349.5</ele>
        <time>2010-09-19T10:52:04.20</time>
      </trkpt>
      <trkpt lat="44.41453" lon="5.89457">
        <ele>1347.5</ele>
        <time>2010-09-19T10:52:14.10</time>
      </trkpt>
      <trkpt lat="44.41438" lon="5.89504">
        <ele>1349</ele>
        <time>2010-09-19T10:52:24.10</time>
      </trkpt>
      <trkpt lat="44.41446" lon="5.89571">
        <ele>1339.5</ele>
        <time>2010-09-19T10:52:34.00</time>
      </trkpt>
      <trkpt lat="44.4144" lon="5.89635">
        <ele>1336</ele>
        <time>2010-09-19T10:52:43.97</time>
      </trkpt>
      <trkpt lat="44.41387" lon="5.8968">
        <ele>1343.5</ele>
        <time>2010-09-19T10:52:54.94</time>
      </trkpt>
      <trkpt lat="44.41374" lon="5.89732">
        <ele>1347.5</ele>
        <time>2010-09-19T10:53:04.89</time>
      </trkpt>
      <trkpt lat="44.41338" lon="5.8975">
        <ele>1344</ele>
        <time>2010-09-19T10:53:17.83</time>
      </trkpt>
      <trkpt lat="44.41279" lon="5.89753">
        <ele>1343</ele>
        <time>2010-09-19T10:53:29.94</time>
      </trkpt>
      <trkpt lat="44.41218" lon="5.89781">
        <ele>1344.5</ele>
        <time>2010-09-19T10:53:40.74</time>
      </trkpt>
      <trkpt lat="44.4116" lon="5.8982">
        <ele>1346</ele>
        <time>2010-09-19T10:53:52.70</time>
      </trkpt>
      <trkpt lat="44.41107" lon="5.89859">
        <ele>1346</ele>
        <time>2010-09-19T10:54:02.77</time>
      </trkpt>
      <trkpt lat="44.41064" lon="5.89892">
        <ele>1341</ele>
        <time>2010-09-19T10:54:12.61</time>
      </trkpt>
      <trkpt lat="44.41051" lon="5.8992">
        <ele>1317.5</ele>
        <time>2010-09-19T10:54:38.56</time>
      </trkpt>
      <trkpt lat="44.4105" lon="5.89928">
        <ele>1310.5</ele>
        <time>2010-09-19T10:55:18.51</time>
      </trkpt>
      <trkpt lat="44.41053" lon="5.89932">
        <ele>1311</ele>
        <time>2010-09-19T10:55:40.46</time>
      </trkpt>
      <trkpt lat="44.41068" lon="5.89936">
        <ele>1317</ele>
        <time>2010-09-19T10:55:50.41</time>
      </trkpt>
      <trkpt lat="44.41085" lon="5.89936">
        <ele>1313</ele>
        <time>2010-09-19T10:56:46.37</time>
      </trkpt>
      <trkpt lat="44.41089" lon="5.89937">
        <ele>1318</ele>
        <time>2010-09-19T10:56:57.32</time>
      </trkpt>
      <trkpt lat="44.41091" lon="5.89935">
        <ele>1322.5</ele>
        <time>2010-09-19T10:57:11.26</time>
      </trkpt>
      <trkpt lat="44.41095" lon="5.89934">
        <ele>1325.5</ele>
        <time>2010-09-19T10:57:21.23</time>
      </trkpt>
      <trkpt lat="44.41099" lon="5.89934">
        <ele>1328.5</ele>
        <time>2010-09-19T10:57:35.20</time>
      </trkpt>
      <trkpt lat="44.41106" lon="5.89932">
        <ele>1325</ele>
        <time>2010-09-19T10:57:48.15</time>
      </trkpt>
      <trkpt lat="44.41115" lon="5.89927">
        <ele>1320.5</ele>
        <time>2010-09-19T10:58:00.11</time>
      </trkpt>
      <trkpt lat="44.41123" lon="5.89928">
        <ele>1319.5</ele>
        <time>2010-09-19T10:58:15.06</time>
      </trkpt>
      <trkpt lat="44.41127" lon="5.89924">
        <ele>1331</ele>
        <time>2010-09-19T10:58:26.28</time>
      </trkpt>
      <trkpt lat="44.41134" lon="5.89917">
        <ele>1336</ele>
        <time>2010-09-19T10:58:36.96</time>
      </trkpt>
      <trkpt lat="44.41147" lon="5.8991">
        <ele>1329</ele>
        <time>2010-09-19T10:59:12.93</time>
      </trkpt>
      <trkpt lat="44.41155" lon="5.89909">
        <ele>1326.5</ele>
        <time>2010-09-19T10:59:24.86</time>
      </trkpt>
      <trkpt lat="44.41161" lon="5.89908">
        <ele>1328.5</ele>
        <time>2010-09-19T10:59:36.82</time>
      </trkpt>
      <trkpt lat="44.41167" lon="5.89907">
        <ele>1329.5</ele>
        <time>2010-09-19T10:59:48.03</time>
      </trkpt>
      <trkpt lat="44.41175" lon="5.89904">
        <ele>1332</ele>
        <time>2010-09-19T10:59:57.74</time>
      </trkpt>
      <trkpt lat="44.41181" lon="5.89901">
        <ele>1333.5</ele>
        <time>2010-09-19T11:00:08.81</time>
      </trkpt>
      <trkpt lat="44.41189" lon="5.89901">
        <ele>1329</ele>
        <time>2010-09-19T11:00:19.67</time>
      </trkpt>
      <trkpt lat="44.41195" lon="5.89897">
        <ele>1335</ele>
        <time>2010-09-19T11:00:30.61</time>
      </trkpt>
      <trkpt lat="44.41202" lon="5.89892">
        <ele>1337.5</ele>
        <time>2010-09-19T11:00:43.75</time>
      </trkpt>
      <trkpt lat="44.41211" lon="5.89893">
        <ele>1333.5</ele>
        <time>2010-09-19T11:01:02.51</time>
      </trkpt>
      <trkpt lat="44.41217" lon="5.89892">
        <ele>1337</ele>
        <time>2010-09-19T11:01:14.76</time>
      </trkpt>
      <trkpt lat="44.41228" lon="5.89884">
        <ele>1346.5</ele>
        <time>2010-09-19T11:01:40.42</time>
      </trkpt>
      <trkpt lat="44.41237" lon="5.89883">
        <ele>1351.5</ele>
        <time>2010-09-19T11:01:51.54</time>
      </trkpt>
      <trkpt lat="44.41245" lon="5.89881">
        <ele>1359.5</ele>
        <time>2010-09-19T11:02:01.54</time>
      </trkpt>
      <trkpt lat="44.41253" lon="5.8988">
        <ele>1363</ele>
        <time>2010-09-19T11:02:11.29</time>
      </trkpt>
      <trkpt lat="44.41259" lon="5.89881">
        <ele>1364</ele>
        <time>2010-09-19T11:02:21.48</time>
      </trkpt>
      <trkpt lat="44.41268" lon="5.89884">
        <ele>1364.5</ele>
        <time>2010-09-19T11:02:31.23</time>
      </trkpt>
      <trkpt lat="44.41274" lon="5.89887">
        <ele>1363.5</ele>
        <time>2010-09-19T11:02:43.19</time>
      </trkpt>
      <trkpt lat="44.41284" lon="5.89888">
        <ele>1366</ele>
        <time>2010-09-19T11:02:53.28</time>
      </trkpt>
      <trkpt lat="44.41297" lon="5.89886">
        <ele>1367</ele>
        <time>2010-09-19T11:03:04.15</time>
      </trkpt>
      <trkpt lat="44.41305" lon="5.89886">
        <ele>1369.5</ele>
        <time>2010-09-19T11:03:17.06</time>
      </trkpt>
      <trkpt lat="44.41314" lon="5.89886">
        <ele>1371</ele>
        <time>2010-09-19T11:03:28.05</time>
      </trkpt>
      <trkpt lat="44.4132" lon="5.89886">
        <ele>1372</ele>
        <time>2010-09-19T11:03:37.97</time>
      </trkpt>
      <trkpt lat="44.41327" lon="5.89888">
        <ele>1373.5</ele>
        <time>2010-09-19T11:03:47.92</time>
      </trkpt>
      <trkpt lat="44.41337" lon="5.8989">
        <ele>1376.5</ele>
        <time>2010-09-19T11:03:57.88</time>
      </trkpt>
      <trkpt lat="44.41345" lon="5.89895">
        <ele>1379</ele>
        <time>2010-09-19T11:04:08.85</time>
      </trkpt>
      <trkpt lat="44.41351" lon="5.89898">
        <ele>1386</ele>
        <time>2010-09-19T11:04:18.81</time>
      </trkpt>
      <trkpt lat="44.41356" lon="5.89901">
        <ele>1395.5</ele>
        <time>2010-09-19T11:04:28.77</time>
      </trkpt>
      <trkpt lat="44.41364" lon="5.89902">
        <ele>1400.5</ele>
        <time>2010-09-19T11:04:38.85</time>
      </trkpt>
      <trkpt lat="44.41372" lon="5.89903">
        <ele>1406</ele>
        <time>2010-09-19T11:04:48.82</time>
      </trkpt>
      <trkpt lat="44.41379" lon="5.89907">
        <ele>1406</ele>
        <time>2010-09-19T11:04:58.64</time>
      </trkpt>
      <trkpt lat="44.41387" lon="5.8991">
        <ele>1405</ele>
        <time>2010-09-19T11:05:09.61</time>
      </trkpt>
      <trkpt lat="44.41395" lon="5.89911">
        <ele>1403</ele>
        <time>2010-09-19T11:05:19.56</time>
      </trkpt>
      <trkpt lat="44.41403" lon="5.89913">
        <ele>1402</ele>
        <time>2010-09-19T11:05:30.51</time>
      </trkpt>
      <trkpt lat="44.4141" lon="5.89913">
        <ele>1401.5</ele>
        <time>2010-09-19T11:05:42.47</time>
      </trkpt>
      <trkpt lat="44.41417" lon="5.89918">
        <ele>1396</ele>
        <time>2010-09-19T11:05:54.45</time>
      </trkpt>
      <trkpt lat="44.41424" lon="5.89917">
        <ele>1399.5</ele>
        <time>2010-09-19T11:06:10.37</time>
      </trkpt>
      <trkpt lat="44.41434" lon="5.89916">
        <ele>1402</ele>
        <time>2010-09-19T11:06:28.42</time>
      </trkpt>
      <trkpt lat="44.41441" lon="5.89915">
        <ele>1406.5</ele>
        <time>2010-09-19T11:06:39.29</time>
      </trkpt>
      <trkpt lat="44.41449" lon="5.89909">
        <ele>1416</ele>
        <time>2010-09-19T11:06:50.24</time>
      </trkpt>
      <trkpt lat="44.41456" lon="5.89909">
        <ele>1416</ele>
        <time>2010-09-19T11:07:02.36</time>
      </trkpt>
      <trkpt lat="44.41462" lon="5.89909">
        <ele>1416</ele>
        <time>2010-09-19T11:07:13.34</time>
      </trkpt>
      <trkpt lat="44.41469" lon="5.89907">
        <ele>1418</ele>
        <time>2010-09-19T11:07:24.12</time>
      </trkpt>
      <trkpt lat="44.41476" lon="5.89899">
        <ele>1425</ele>
        <time>2010-09-19T11:07:55.23</time>
      </trkpt>
      <trkpt lat="44.41484" lon="5.89891">
        <ele>1433.5</ele>
        <time>2010-09-19T11:08:07.06</time>
      </trkpt>
      <trkpt lat="44.41492" lon="5.89885">
        <ele>1437</ele>
        <time>2010-09-19T11:08:17.05</time>
      </trkpt>
      <trkpt lat="44.41498" lon="5.89881">
        <ele>1442</ele>
        <time>2010-09-19T11:08:27.98</time>
      </trkpt>
      <trkpt lat="44.41506" lon="5.89875">
        <ele>1446.5</ele>
        <time>2010-09-19T11:08:38.16</time>
      </trkpt>
      <trkpt lat="44.41512" lon="5.89871">
        <ele>1447</ele>
        <time>2010-09-19T11:08:47.92</time>
      </trkpt>
      <trkpt lat="44.41517" lon="5.89868">
        <ele>1448.5</ele>
        <time>2010-09-19T11:08:58.11</time>
      </trkpt>
      <trkpt lat="44.41522" lon="5.89864">
        <ele>1454</ele>
        <time>2010-09-19T11:09:08.81</time>
      </trkpt>
      <trkpt lat="44.41527" lon="5.89859">
        <ele>1455.5</ele>
        <time>2010-09-19T11:09:18.78</time>
      </trkpt>
      <trkpt lat="44.41532" lon="5.89855">
        <ele>1457</ele>
        <time>2010-09-19T11:09:28.79</time>
      </trkpt>
      <trkpt lat="44.41538" lon="5.89851">
        <ele>1457.5</ele>
        <time>2010-09-19T11:09:43.70</time>
      </trkpt>
      <trkpt lat="44.41545" lon="5.89845">
        <ele>1462.5</ele>
        <time>2010-09-19T11:09:53.65</time>
      </trkpt>
      <trkpt lat="44.41555" lon="5.89842">
        <ele>1456</ele>
        <time>2010-09-19T11:10:03.59</time>
      </trkpt>
      <trkpt lat="44.41564" lon="5.89844">
        <ele>1452</ele>
        <time>2010-09-19T11:10:13.71</time>
      </trkpt>
      <trkpt lat="44.41569" lon="5.89842">
        <ele>1451.5</ele>
        <time>2010-09-19T11:10:23.50</time>
      </trkpt>
      <trkpt lat="44.41575" lon="5.8984">
        <ele>1453.5</ele>
        <time>2010-09-19T11:10:33.46</time>
      </trkpt>
      <trkpt lat="44.41582" lon="5.8984">
        <ele>1453</ele>
        <time>2010-09-19T11:10:45.40</time>
      </trkpt>
      <trkpt lat="44.41589" lon="5.89836">
        <ele>1452</ele>
        <time>2010-09-19T11:10:55.39</time>
      </trkpt>
      <trkpt lat="44.41597" lon="5.89829">
        <ele>1451.5</ele>
        <time>2010-09-19T11:11:06.31</time>
      </trkpt>
      <trkpt lat="44.41605" lon="5.89824">
        <ele>1454.5</ele>
        <time>2010-09-19T11:11:16.27</time>
      </trkpt>
      <trkpt lat="44.41613" lon="5.89822">
        <ele>1456.5</ele>
        <time>2010-09-19T11:11:26.89</time>
      </trkpt>
      <trkpt lat="44.41623" lon="5.89818">
        <ele>1456.5</ele>
        <time>2010-09-19T11:11:37.18</time>
      </trkpt>
      <trkpt lat="44.41631" lon="5.89816">
        <ele>1457.5</ele>
        <time>2010-09-19T11:11:47.13</time>
      </trkpt>
      <trkpt lat="44.41639" lon="5.89814">
        <ele>1459.5</ele>
        <time>2010-09-19T11:11:58.31</time>
      </trkpt>
      <trkpt lat="44.41652" lon="5.8981">
        <ele>1464</ele>
        <time>2010-09-19T11:12:29.03</time>
      </trkpt>
      <trkpt lat="44.4166" lon="5.89807">
        <ele>1463</ele>
        <time>2010-09-19T11:14:50.98</time>
      </trkpt>
      <trkpt lat="44.41667" lon="5.89802">
        <ele>1464</ele>
        <time>2010-09-19T11:15:02.95</time>
      </trkpt>
      <trkpt lat="44.41677" lon="5.89791">
        <ele>1465.5</ele>
        <time>2010-09-19T11:15:12.90</time>
      </trkpt>
      <trkpt lat="44.41684" lon="5.89777">
        <ele>1467.5</ele>
        <time>2010-09-19T11:15:22.88</time>
      </trkpt>
      <trkpt lat="44.41695" lon="5.89757">
        <ele>1470.5</ele>
        <time>2010-09-19T11:15:32.82</time>
      </trkpt>
      <trkpt lat="44.4171" lon="5.89739">
        <ele>1475.5</ele>
        <time>2010-09-19T11:15:42.76</time>
      </trkpt>
      <trkpt lat="44.41727" lon="5.89725">
        <ele>1478.5</ele>
        <time>2010-09-19T11:15:52.74</time>
      </trkpt>
      <trkpt lat="44.41746" lon="5.89702">
        <ele>1481.5</ele>
        <time>2010-09-19T11:16:02.69</time>
      </trkpt>
      <trkpt lat="44.41762" lon="5.8968">
        <ele>1482.5</ele>
        <time>2010-09-19T11:16:12.71</time>
      </trkpt>
      <trkpt lat="44.41774" lon="5.89645">
        <ele>1490</ele>
        <time>2010-09-19T11:16:23.64</time>
      </trkpt>
      <trkpt lat="44.41787" lon="5.89609">
        <ele>1490.5</ele>
        <time>2010-09-19T11:16:33.55</time>
      </trkpt>
      <trkpt lat="44.41806" lon="5.89582">
        <ele>1491.5</ele>
        <time>2010-09-19T11:16:43.52</time>
      </trkpt>
      <trkpt lat="44.41832" lon="5.89563">
        <ele>1493</ele>
        <time>2010-09-19T11:16:53.47</time>
      </trkpt>
      <trkpt lat="44.41857" lon="5.89551">
        <ele>1492.5</ele>
        <time>2010-09-19T11:17:03.43</time>
      </trkpt>
      <trkpt lat="44.41884" lon="5.89514">
        <ele>1493</ele>
        <time>2010-09-19T11:17:13.39</time>
      </trkpt>
      <trkpt lat="44.41916" lon="5.89492">
        <ele>1492</ele>
        <time>2010-09-19T11:17:23.36</time>
      </trkpt>
      <trkpt lat="44.41943" lon="5.89455">
        <ele>1490</ele>
        <time>2010-09-19T11:17:33.32</time>
      </trkpt>
      <trkpt lat="44.41962" lon="5.89405">
        <ele>1485.5</ele>
        <time>2010-09-19T11:17:43.27</time>
      </trkpt>
      <trkpt lat="44.41995" lon="5.89381">
        <ele>1480.5</ele>
        <time>2010-09-19T11:17:53.25</time>
      </trkpt>
      <trkpt lat="44.42034" lon="5.89369">
        <ele>1480.5</ele>
        <time>2010-09-19T11:18:03.21</time>
      </trkpt>
      <trkpt lat="44.42063" lon="5.89405">
        <ele>1475</ele>
        <time>2010-09-19T11:18:14.17</time>
      </trkpt>
      <trkpt lat="44.42087" lon="5.89435">
        <ele>1476</ele>
        <time>2010-09-19T11:18:24.14</time>
      </trkpt>
      <trkpt lat="44.42113" lon="5.89461">
        <ele>1476</ele>
        <time>2010-09-19T11:18:34.09</time>
      </trkpt>
      <trkpt lat="44.42141" lon="5.89461">
        <ele>1474</ele>
        <time>2010-09-19T11:18:44.05</time>
      </trkpt>
      <trkpt lat="44.42165" lon="5.89459">
        <ele>1472.5</ele>
        <time>2010-09-19T11:18:54.01</time>
      </trkpt>
      <trkpt lat="44.42182" lon="5.89468">
        <ele>1471</ele>
        <time>2010-09-19T11:19:03.97</time>
      </trkpt>
      <trkpt lat="44.42198" lon="5.89464">
        <ele>1470.5</ele>
        <time>2010-09-19T11:20:33.92</time>
      </trkpt>
      <trkpt lat="44.42205" lon="5.89465">
        <ele>1469</ele>
        <time>2010-09-19T11:20:52.89</time>
      </trkpt>
      <trkpt lat="44.42229" lon="5.89477">
        <ele>1466.5</ele>
        <time>2010-09-19T11:21:02.95</time>
      </trkpt>
      <trkpt lat="44.42252" lon="5.89485">
        <ele>1467</ele>
        <time>2010-09-19T11:21:12.80</time>
      </trkpt>
      <trkpt lat="44.42268" lon="5.89498">
        <ele>1470.5</ele>
        <time>2010-09-19T11:21:22.74</time>
      </trkpt>
      <trkpt lat="44.42271" lon="5.8952">
        <ele>1474.5</ele>
        <time>2010-09-19T11:21:32.70</time>
      </trkpt>
      <trkpt lat="44.42267" lon="5.8954">
        <ele>1478.5</ele>
        <time>2010-09-19T11:21:42.67</time>
      </trkpt>
      <trkpt lat="44.4226" lon="5.89562">
        <ele>1482.5</ele>
        <time>2010-09-19T11:21:52.62</time>
      </trkpt>
      <trkpt lat="44.42255" lon="5.89585">
        <ele>1487.5</ele>
        <time>2010-09-19T11:22:02.59</time>
      </trkpt>
      <trkpt lat="44.42254" lon="5.89608">
        <ele>1488.5</ele>
        <time>2010-09-19T11:22:12.55</time>
      </trkpt>
      <trkpt lat="44.42253" lon="5.89635">
        <ele>1488</ele>
        <time>2010-09-19T11:22:22.51</time>
      </trkpt>
      <trkpt lat="44.42263" lon="5.89655">
        <ele>1489</ele>
        <time>2010-09-19T11:22:32.47</time>
      </trkpt>
      <trkpt lat="44.42271" lon="5.89676">
        <ele>1490.5</ele>
        <time>2010-09-19T11:22:42.43</time>
      </trkpt>
      <trkpt lat="44.42269" lon="5.89698">
        <ele>1492.5</ele>
        <time>2010-09-19T11:22:52.41</time>
      </trkpt>
      <trkpt lat="44.4227" lon="5.89716">
        <ele>1495.5</ele>
        <time>2010-09-19T11:23:02.36</time>
      </trkpt>
      <trkpt lat="44.42265" lon="5.89737">
        <ele>1497</ele>
        <time>2010-09-19T11:23:12.46</time>
      </trkpt>
      <trkpt lat="44.42261" lon="5.89759">
        <ele>1497.5</ele>
        <time>2010-09-19T11:23:22.30</time>
      </trkpt>
      <trkpt lat="44.42248" lon="5.89772">
        <ele>1498.5</ele>
        <time>2010-09-19T11:23:32.27</time>
      </trkpt>
      <trkpt lat="44.42239" lon="5.8978">
        <ele>1499</ele>
        <time>2010-09-19T11:23:43.23</time>
      </trkpt>
      <trkpt lat="44.42236" lon="5.89786">
        <ele>1494.5</ele>
        <time>2010-09-19T11:24:30.19</time>
      </trkpt>
      <trkpt lat="44.4223" lon="5.89783">
        <ele>1494.5</ele>
        <time>2010-09-19T11:24:46.16</time>
      </trkpt>
      <trkpt lat="44.42234" lon="5.89793">
        <ele>1493</ele>
        <time>2010-09-19T11:26:36.10</time>
      </trkpt>
      <trkpt lat="44.42234" lon="5.89784">
        <ele>1496.5</ele>
        <time>2010-09-19T11:27:10.06</time>
      </trkpt>
      <trkpt lat="44.42238" lon="5.89792">
        <ele>1501</ele>
        <time>2010-09-19T11:27:50.01</time>
      </trkpt>
      <trkpt lat="44.42237" lon="5.89791">
        <ele>1499.5</ele>
        <time>2010-09-19T11:28:35.96</time>
      </trkpt>
      <trkpt lat="44.42232" lon="5.89788">
        <ele>1490.5</ele>
        <time>2010-09-19T11:30:38.94</time>
      </trkpt>
      <trkpt lat="44.42234" lon="5.89789">
        <ele>1494</ele>
        <time>2010-09-19T11:32:00.91</time>
      </trkpt>
      <trkpt lat="44.42231" lon="5.89785">
        <ele>1500</ele>
        <time>2010-09-19T11:34:11.88</time>
      </trkpt>
      <trkpt lat="44.42229" lon="5.89783">
        <ele>1500</ele>
        <time>2010-09-19T11:35:16.82</time>
      </trkpt>
      <trkpt lat="44.42234" lon="5.89787">
        <ele>1494.5</ele>
        <time>2010-09-19T11:36:56.76</time>
      </trkpt>
      <trkpt lat="44.4223" lon="5.89778">
        <ele>1497.5</ele>
        <time>2010-09-19T11:38:45.72</time>
      </trkpt>
      <trkpt lat="44.4223" lon="5.89786">
        <ele>1497.5</ele>
        <time>2010-09-19T11:39:01.68</time>
      </trkpt>
      <trkpt lat="44.42232" lon="5.89785">
        <ele>1497</ele>
        <time>2010-09-19T11:39:17.64</time>
      </trkpt>
      <trkpt lat="44.42237" lon="5.89786">
        <ele>1497.5</ele>
        <time>2010-09-19T11:40:21.60</time>
      </trkpt>
      <trkpt lat="44.42233" lon="5.89783">
        <ele>1495.5</ele>
        <time>2010-09-19T11:44:58.72</time>
      </trkpt>
      <trkpt lat="44.42235" lon="5.8978">
        <ele>1500.5</ele>
        <time>2010-09-19T11:45:26.54</time>
      </trkpt>
      <trkpt lat="44.42234" lon="5.89785">
        <ele>1496</ele>
        <time>2010-09-19T11:52:37.44</time>
      </trkpt>
      <trkpt lat="44.42229" lon="5.8979">
        <ele>1501.5</ele>
        <time>2010-09-19T11:54:12.39</time>
      </trkpt>
      <trkpt lat="44.42233" lon="5.89783">
        <ele>1497.5</ele>
        <time>2010-09-19T11:54:41.34</time>
      </trkpt>
      <trkpt lat="44.42238" lon="5.89785">
        <ele>1488</ele>
        <time>2010-09-19T11:54:53.31</time>
      </trkpt>
      <trkpt lat="44.42241" lon="5.8978">
        <ele>1486</ele>
        <time>2010-09-19T11:55:06.28</time>
      </trkpt>
      <trkpt lat="44.4223" lon="5.89783">
        <ele>1497</ele>
        <time>2010-09-19T11:55:22.24</time>
      </trkpt>
      <trkpt lat="44.42232" lon="5.89793">
        <ele>1503</ele>
        <time>2010-09-19T11:55:33.21</time>
      </trkpt>
      <trkpt lat="44.42231" lon="5.898">
        <ele>1504</ele>
        <time>2010-09-19T11:55:45.18</time>
      </trkpt>
      <trkpt lat="44.42231" lon="5.89791">
        <ele>1505</ele>
        <time>2010-09-19T11:55:55.13</time>
      </trkpt>
      <trkpt lat="44.4223" lon="5.89787">
        <ele>1504.5</ele>
        <time>2010-09-19T11:56:05.09</time>
      </trkpt>
      <trkpt lat="44.42227" lon="5.89785">
        <ele>1501</ele>
        <time>2010-09-19T11:56:30.04</time>
      </trkpt>
      <trkpt lat="44.42225" lon="5.89784">
        <ele>1503</ele>
        <time>2010-09-19T11:56:49.01</time>
      </trkpt>
      <trkpt lat="44.42225" lon="5.89785">
        <ele>1502</ele>
        <time>2010-09-19T11:57:03.96</time>
      </trkpt>
      <trkpt lat="44.42232" lon="5.89788">
        <ele>1483.5</ele>
        <time>2010-09-19T11:57:39.91</time>
      </trkpt>
      <trkpt lat="44.42222" lon="5.8979">
        <ele>1501.5</ele>
        <time>2010-09-19T11:58:00.97</time>
      </trkpt>
      <trkpt lat="44.42224" lon="5.89789">
        <ele>1508</ele>
        <time>2010-09-19T11:58:20.82</time>
      </trkpt>
      <trkpt lat="44.42232" lon="5.89785">
        <ele>1502.5</ele>
        <time>2010-09-19T11:58:38.79</time>
      </trkpt>
      <trkpt lat="44.42237" lon="5.89789">
        <ele>1496</ele>
        <time>2010-09-19T11:59:05.74</time>
      </trkpt>
      <trkpt lat="44.42231" lon="5.89788">
        <ele>1494</ele>
        <time>2010-09-19T11:59:23.70</time>
      </trkpt>
      <trkpt lat="44.42244" lon="5.89789">
        <ele>1489</ele>
        <time>2010-09-19T11:59:53.55</time>
      </trkpt>
      <trkpt lat="44.42235" lon="5.89788">
        <ele>1488</ele>
        <time>2010-09-19T12:00:15.51</time>
      </trkpt>
      <trkpt lat="44.42233" lon="5.89787">
        <ele>1490.5</ele>
        <time>2010-09-19T12:00:32.47</time>
      </trkpt>
      <trkpt lat="44.42235" lon="5.89779">
        <ele>1501.5</ele>
        <time>2010-09-19T12:00:56.41</time>
      </trkpt>
      <trkpt lat="44.42233" lon="5.8978">
        <ele>1502</ele>
        <time>2010-09-19T12:01:13.37</time>
      </trkpt>
      <trkpt lat="44.42235" lon="5.89785">
        <ele>1502</ele>
        <time>2010-09-19T12:01:24.33</time>
      </trkpt>
      <trkpt lat="44.42232" lon="5.8979">
        <ele>1502</ele>
        <time>2010-09-19T12:01:40.27</time>
      </trkpt>
      <trkpt lat="44.42228" lon="5.89783">
        <ele>1501</ele>
        <time>2010-09-19T12:01:52.22</time>
      </trkpt>
      <trkpt lat="44.42225" lon="5.89782">
        <ele>1501</ele>
        <time>2010-09-19T12:02:02.17</time>
      </trkpt>
      <trkpt lat="44.42227" lon="5.89787">
        <ele>1501</ele>
        <time>2010-09-19T12:02:12.12</time>
      </trkpt>
      <trkpt lat="44.42229" lon="5.89792">
        <ele>1501</ele>
        <time>2010-09-19T12:02:22.09</time>
      </trkpt>
      <trkpt lat="44.42229" lon="5.89785">
        <ele>1501</ele>
        <time>2010-09-19T12:02:32.04</time>
      </trkpt>
      <trkpt lat="44.42229" lon="5.89783">
        <ele>1501</ele>
        <time>2010-09-19T12:02:41.99</time>
      </trkpt>
      <trkpt lat="44.42232" lon="5.89784">
        <ele>1501</ele>
        <time>2010-09-19T12:02:51.96</time>
      </trkpt>
      <trkpt lat="44.42235" lon="5.89783">
        <ele>1501</ele>
        <time>2010-09-19T12:03:01.91</time>
      </trkpt>
      <trkpt lat="44.42233" lon="5.89775">
        <ele>1501</ele>
        <time>2010-09-19T12:03:11.89</time>
      </trkpt>
      <trkpt lat="44.42235" lon="5.89775">
        <ele>1501</ele>
        <time>2010-09-19T12:03:21.85</time>
      </trkpt>
      <trkpt lat="44.42238" lon="5.89776">
        <ele>1501</ele>
        <time>2010-09-19T12:03:31.84</time>
      </trkpt>
      <trkpt lat="44.42252" lon="5.89768">
        <ele>1501</ele>
        <time>2010-09-19T12:03:44.54</time>
      </trkpt>
      <trkpt lat="44.42262" lon="5.89787">
        <ele>1501.5</ele>
        <time>2010-09-19T12:03:58.55</time>
      </trkpt>
      <trkpt lat="44.42225" lon="5.89795">
        <ele>1501</ele>
        <time>2010-09-19T12:04:21.55</time>
      </trkpt>
      <trkpt lat="44.42253" lon="5.8977">
        <ele>1501</ele>
        <time>2010-09-19T12:04:39.56</time>
      </trkpt>
      <trkpt lat="44.42253" lon="5.89773">
        <ele>1501</ele>
        <time>2010-09-19T12:04:49.51</time>
      </trkpt>
      <trkpt lat="44.42247" lon="5.89769">
        <ele>1501</ele>
        <time>2010-09-19T12:05:02.52</time>
      </trkpt>
      <trkpt lat="44.42222" lon="5.898">
        <ele>1501</ele>
        <time>2010-09-19T12:05:22.57</time>
      </trkpt>
      <trkpt lat="44.42245" lon="5.89798">
        <ele>1499</ele>
        <time>2010-09-19T12:05:42.53</time>
      </trkpt>
      <trkpt lat="44.42238" lon="5.89793">
        <ele>1490</ele>
        <time>2010-09-19T12:06:30.49</time>
      </trkpt>
      <trkpt lat="44.42239" lon="5.89792">
        <ele>1490</ele>
        <time>2010-09-19T12:06:45.45</time>
      </trkpt>
      <trkpt lat="44.42233" lon="5.89789">
        <ele>1492.5</ele>
        <time>2010-09-19T12:07:07.42</time>
      </trkpt>
      <trkpt lat="44.42231" lon="5.89789">
        <ele>1496.5</ele>
        <time>2010-09-19T12:07:32.37</time>
      </trkpt>
      <trkpt lat="44.4223" lon="5.89787">
        <ele>1495</ele>
        <time>2010-09-19T12:12:08.32</time>
      </trkpt>
      <trkpt lat="44.42229" lon="5.89792">
        <ele>1496.5</ele>
        <time>2010-09-19T12:12:23.28</time>
      </trkpt>
      <trkpt lat="44.42228" lon="5.89791">
        <ele>1498.5</ele>
        <time>2010-09-19T12:12:45.23</time>
      </trkpt>
      <trkpt lat="44.42226" lon="5.89784">
        <ele>1508.5</ele>
        <time>2010-09-19T12:13:31.20</time>
      </trkpt>
      <trkpt lat="44.42233" lon="5.89787">
        <ele>1495.5</ele>
        <time>2010-09-19T12:15:47.16</time>
      </trkpt>
      <trkpt lat="44.42228" lon="5.89788">
        <ele>1501.5</ele>
        <time>2010-09-19T12:16:19.11</time>
      </trkpt>
      <trkpt lat="44.4223" lon="5.89787">
        <ele>1501</ele>
        <time>2010-09-19T12:16:34.12</time>
      </trkpt>
      <trkpt lat="44.42239" lon="5.89786">
        <ele>1495.5</ele>
        <time>2010-09-19T12:17:24.13</time>
      </trkpt>
      <trkpt lat="44.42265" lon="5.89773">
        <ele>1494.5</ele>
        <time>2010-09-19T12:17:36.54</time>
      </trkpt>
      <trkpt lat="44.42271" lon="5.89781">
        <ele>1495</ele>
        <time>2010-09-19T12:18:04.50</time>
      </trkpt>
      <trkpt lat="44.42279" lon="5.89776">
        <ele>1494.5</ele>
        <time>2010-09-19T12:18:15.47</time>
      </trkpt>
      <trkpt lat="44.42287" lon="5.89783">
        <ele>1494.5</ele>
        <time>2010-09-19T12:19:03.41</time>
      </trkpt>
      <trkpt lat="44.42289" lon="5.89803">
        <ele>1490.5</ele>
        <time>2010-09-19T12:19:13.39</time>
      </trkpt>
      <trkpt lat="44.42299" lon="5.8981">
        <ele>1490</ele>
        <time>2010-09-19T12:19:39.36</time>
      </trkpt>
      <trkpt lat="44.42298" lon="5.89826">
        <ele>1490.5</ele>
        <time>2010-09-19T12:19:49.32</time>
      </trkpt>
      <trkpt lat="44.42295" lon="5.89842">
        <ele>1489.5</ele>
        <time>2010-09-19T12:20:05.29</time>
      </trkpt>
      <trkpt lat="44.42298" lon="5.8983">
        <ele>1479</ele>
        <time>2010-09-19T12:20:26.30</time>
      </trkpt>
      <trkpt lat="44.42313" lon="5.89832">
        <ele>1482</ele>
        <time>2010-09-19T12:20:38.20</time>
      </trkpt>
      <trkpt lat="44.42301" lon="5.89837">
        <ele>1479</ele>
        <time>2010-09-19T12:20:49.32</time>
      </trkpt>
      <trkpt lat="44.42295" lon="5.89842">
        <ele>1481</ele>
        <time>2010-09-19T12:20:59.14</time>
      </trkpt>
      <trkpt lat="44.42296" lon="5.89838">
        <ele>1483</ele>
        <time>2010-09-19T12:21:10.18</time>
      </trkpt>
      <trkpt lat="44.42304" lon="5.8983">
        <ele>1484</ele>
        <time>2010-09-19T12:21:21.07</time>
      </trkpt>
      <trkpt lat="44.4231" lon="5.8983">
        <ele>1487</ele>
        <time>2010-09-19T12:21:33.03</time>
      </trkpt>
      <trkpt lat="44.42314" lon="5.89831">
        <ele>1492</ele>
        <time>2010-09-19T12:22:00.98</time>
      </trkpt>
      <trkpt lat="44.42343" lon="5.89841">
        <ele>1491.5</ele>
        <time>2010-09-19T12:22:17.54</time>
      </trkpt>
      <trkpt lat="44.42389" lon="5.8986">
        <ele>1487</ele>
        <time>2010-09-19T12:22:33.49</time>
      </trkpt>
      <trkpt lat="44.42471" lon="5.89888">
        <ele>1486</ele>
        <time>2010-09-19T12:22:53.54</time>
      </trkpt>
      <trkpt lat="44.42513" lon="5.89896">
        <ele>1480.5</ele>
        <time>2010-09-19T12:23:08.50</time>
      </trkpt>
      <trkpt lat="44.4256" lon="5.89909">
        <ele>1466.5</ele>
        <time>2010-09-19T12:23:25.53</time>
      </trkpt>
      <trkpt lat="44.42593" lon="5.89924">
        <ele>1455.5</ele>
        <time>2010-09-19T12:23:46.51</time>
      </trkpt>
      <trkpt lat="44.42597" lon="5.89937">
        <ele>1453</ele>
        <time>2010-09-19T12:24:18.46</time>
      </trkpt>
      <trkpt lat="44.42597" lon="5.89928">
        <ele>1451.5</ele>
        <time>2010-09-19T12:24:46.40</time>
      </trkpt>
      <trkpt lat="44.42596" lon="5.89925">
        <ele>1446</ele>
        <time>2010-09-19T12:25:24.35</time>
      </trkpt>
      <trkpt lat="44.42613" lon="5.89938">
        <ele>1446</ele>
        <time>2010-09-19T12:25:35.33</time>
      </trkpt>
      <trkpt lat="44.42617" lon="5.89939">
        <ele>1445</ele>
        <time>2010-09-19T12:25:50.27</time>
      </trkpt>
      <trkpt lat="44.42634" lon="5.89947">
        <ele>1448</ele>
        <time>2010-09-19T12:26:07.24</time>
      </trkpt>
      <trkpt lat="44.42677" lon="5.89935">
        <ele>1444.5</ele>
        <time>2010-09-19T12:26:21.19</time>
      </trkpt>
      <trkpt lat="44.42696" lon="5.89931">
        <ele>1440.5</ele>
        <time>2010-09-19T12:26:32.15</time>
      </trkpt>
      <trkpt lat="44.42727" lon="5.89918">
        <ele>1437</ele>
        <time>2010-09-19T12:26:44.11</time>
      </trkpt>
      <trkpt lat="44.4278" lon="5.89905">
        <ele>1437</ele>
        <time>2010-09-19T12:26:59.60</time>
      </trkpt>
      <trkpt lat="44.42785" lon="5.89895">
        <ele>1445.5</ele>
        <time>2010-09-19T12:27:09.46</time>
      </trkpt>
      <trkpt lat="44.42814" lon="5.89883">
        <ele>1445.5</ele>
        <time>2010-09-19T12:27:23.52</time>
      </trkpt>
      <trkpt lat="44.42849" lon="5.89888">
        <ele>1447.5</ele>
        <time>2010-09-19T12:27:39.49</time>
      </trkpt>
      <trkpt lat="44.42862" lon="5.89891">
        <ele>1445</ele>
        <time>2010-09-19T12:27:54.45</time>
      </trkpt>
      <trkpt lat="44.42881" lon="5.89901">
        <ele>1440</ele>
        <time>2010-09-19T12:28:06.56</time>
      </trkpt>
      <trkpt lat="44.42895" lon="5.89911">
        <ele>1435</ele>
        <time>2010-09-19T12:28:44.39</time>
      </trkpt>
      <trkpt lat="44.4293" lon="5.89934">
        <ele>1435.5</ele>
        <time>2010-09-19T12:28:56.33</time>
      </trkpt>
      <trkpt lat="44.42952" lon="5.8996">
        <ele>1431.5</ele>
        <time>2010-09-19T12:29:08.29</time>
      </trkpt>
      <trkpt lat="44.43028" lon="5.90028">
        <ele>1421.5</ele>
        <time>2010-09-19T12:29:26.52</time>
      </trkpt>
      <trkpt lat="44.43055" lon="5.90052">
        <ele>1396.5</ele>
        <time>2010-09-19T12:29:46.53</time>
      </trkpt>
      <trkpt lat="44.43056" lon="5.90064">
        <ele>1389</ele>
        <time>2010-09-19T12:30:00.50</time>
      </trkpt>
      <trkpt lat="44.43058" lon="5.90079">
        <ele>1380</ele>
        <time>2010-09-19T12:31:04.46</time>
      </trkpt>
      <trkpt lat="44.43097" lon="5.90088">
        <ele>1372.5</ele>
        <time>2010-09-19T12:31:20.42</time>
      </trkpt>
      <trkpt lat="44.43138" lon="5.90091">
        <ele>1367.5</ele>
        <time>2010-09-19T12:31:33.41</time>
      </trkpt>
      <trkpt lat="44.43142" lon="5.90098">
        <ele>1364.5</ele>
        <time>2010-09-19T12:31:46.58</time>
      </trkpt>
      <trkpt lat="44.43134" lon="5.90124">
        <ele>1361</ele>
        <time>2010-09-19T12:31:58.33</time>
      </trkpt>
      <trkpt lat="44.43172" lon="5.90186">
        <ele>1363.5</ele>
        <time>2010-09-19T12:32:10.29</time>
      </trkpt>
      <trkpt lat="44.43199" lon="5.902">
        <ele>1362.5</ele>
        <time>2010-09-19T12:32:22.25</time>
      </trkpt>
      <trkpt lat="44.43235" lon="5.90211">
        <ele>1365.5</ele>
        <time>2010-09-19T12:32:32.20</time>
      </trkpt>
      <trkpt lat="44.43262" lon="5.90222">
        <ele>1361.5</ele>
        <time>2010-09-19T12:33:11.18</time>
      </trkpt>
      <trkpt lat="44.43284" lon="5.90216">
        <ele>1355.5</ele>
        <time>2010-09-19T12:33:21.14</time>
      </trkpt>
      <trkpt lat="44.43286" lon="5.90215">
        <ele>1357.5</ele>
        <time>2010-09-19T12:33:37.10</time>
      </trkpt>
      <trkpt lat="44.43295" lon="5.90219">
        <ele>1363</ele>
        <time>2010-09-19T12:33:54.06</time>
      </trkpt>
      <trkpt lat="44.43302" lon="5.90215">
        <ele>1360</ele>
        <time>2010-09-19T12:34:05.04</time>
      </trkpt>
      <trkpt lat="44.43311" lon="5.90209">
        <ele>1362</ele>
        <time>2010-09-19T12:34:16.02</time>
      </trkpt>
      <trkpt lat="44.43322" lon="5.90209">
        <ele>1355.5</ele>
        <time>2010-09-19T12:34:35.98</time>
      </trkpt>
      <trkpt lat="44.43318" lon="5.90217">
        <ele>1353.5</ele>
        <time>2010-09-19T12:34:45.95</time>
      </trkpt>
      <trkpt lat="44.43318" lon="5.90219">
        <ele>1354</ele>
        <time>2010-09-19T12:34:57.91</time>
      </trkpt>
      <trkpt lat="44.43313" lon="5.9022">
        <ele>1356.5</ele>
        <time>2010-09-19T12:35:19.86</time>
      </trkpt>
      <trkpt lat="44.43304" lon="5.90219">
        <ele>1357.5</ele>
        <time>2010-09-19T12:35:35.82</time>
      </trkpt>
      <trkpt lat="44.4329" lon="5.90221">
        <ele>1358</ele>
        <time>2010-09-19T12:35:45.78</time>
      </trkpt>
      <trkpt lat="44.43256" lon="5.90227">
        <ele>1359</ele>
        <time>2010-09-19T12:35:57.74</time>
      </trkpt>
      <trkpt lat="44.43247" lon="5.90229">
        <ele>1354</ele>
        <time>2010-09-19T12:36:08.71</time>
      </trkpt>
      <trkpt lat="44.43237" lon="5.90251">
        <ele>1356</ele>
        <time>2010-09-19T12:36:27.67</time>
      </trkpt>
      <trkpt lat="44.43248" lon="5.90266">
        <ele>1347.5</ele>
        <time>2010-09-19T12:36:37.65</time>
      </trkpt>
      <trkpt lat="44.43278" lon="5.90308">
        <ele>1336.5</ele>
        <time>2010-09-19T12:36:48.61</time>
      </trkpt>
      <trkpt lat="44.433" lon="5.90335">
        <ele>1328</ele>
        <time>2010-09-19T12:37:12.58</time>
      </trkpt>
      <trkpt lat="44.43311" lon="5.90364">
        <ele>1323</ele>
        <time>2010-09-19T12:37:22.54</time>
      </trkpt>
      <trkpt lat="44.43284" lon="5.90395">
        <ele>1313.5</ele>
        <time>2010-09-19T12:37:32.51</time>
      </trkpt>
      <trkpt lat="44.43281" lon="5.9043">
        <ele>1311.5</ele>
        <time>2010-09-19T12:37:46.51</time>
      </trkpt>
      <trkpt lat="44.43237" lon="5.90422">
        <ele>1306</ele>
        <time>2010-09-19T12:37:59.51</time>
      </trkpt>
      <trkpt lat="44.43195" lon="5.90445">
        <ele>1305</ele>
        <time>2010-09-19T12:38:16.48</time>
      </trkpt>
      <trkpt lat="44.43158" lon="5.90464">
        <ele>1296.5</ele>
        <time>2010-09-19T12:38:35.49</time>
      </trkpt>
      <trkpt lat="44.43152" lon="5.90485">
        <ele>1275</ele>
        <time>2010-09-19T12:38:56.45</time>
      </trkpt>
      <trkpt lat="44.43157" lon="5.90511">
        <ele>1260</ele>
        <time>2010-09-19T12:39:10.41</time>
      </trkpt>
      <trkpt lat="44.43153" lon="5.90552">
        <ele>1246</ele>
        <time>2010-09-19T12:39:24.51</time>
      </trkpt>
      <trkpt lat="44.43122" lon="5.90632">
        <ele>1238</ele>
        <time>2010-09-19T12:39:37.51</time>
      </trkpt>
      <trkpt lat="44.43106" lon="5.90713">
        <ele>1243</ele>
        <time>2010-09-19T12:39:49.46</time>
      </trkpt>
      <trkpt lat="44.43121" lon="5.9077">
        <ele>1240.5</ele>
        <time>2010-09-19T12:40:00.42</time>
      </trkpt>
      <trkpt lat="44.43117" lon="5.90833">
        <ele>1242.5</ele>
        <time>2010-09-19T12:40:24.39</time>
      </trkpt>
      <trkpt lat="44.43109" lon="5.90851">
        <ele>1232</ele>
        <time>2010-09-19T12:40:51.34</time>
      </trkpt>
      <trkpt lat="44.43112" lon="5.90863">
        <ele>1227.5</ele>
        <time>2010-09-19T12:41:01.32</time>
      </trkpt>
      <trkpt lat="44.43127" lon="5.9089">
        <ele>1216</ele>
        <time>2010-09-19T12:41:12.27</time>
      </trkpt>
      <trkpt lat="44.43146" lon="5.90903">
        <ele>1209</ele>
        <time>2010-09-19T12:41:23.24</time>
      </trkpt>
      <trkpt lat="44.43144" lon="5.90916">
        <ele>1202.5</ele>
        <time>2010-09-19T12:41:37.20</time>
      </trkpt>
      <trkpt lat="44.43149" lon="5.90929">
        <ele>1201.5</ele>
        <time>2010-09-19T12:42:01.17</time>
      </trkpt>
      <trkpt lat="44.43156" lon="5.90942">
        <ele>1196</ele>
        <time>2010-09-19T12:42:16.15</time>
      </trkpt>
      <trkpt lat="44.43163" lon="5.90959">
        <ele>1197.5</ele>
        <time>2010-09-19T12:42:26.11</time>
      </trkpt>
      <trkpt lat="44.43173" lon="5.90988">
        <ele>1186.5</ele>
        <time>2010-09-19T12:42:38.07</time>
      </trkpt>
      <trkpt lat="44.43168" lon="5.91005">
        <ele>1181.5</ele>
        <time>2010-09-19T12:42:56.04</time>
      </trkpt>
      <trkpt lat="44.43159" lon="5.91015">
        <ele>1175.5</ele>
        <time>2010-09-19T12:43:09.99</time>
      </trkpt>
      <trkpt lat="44.43151" lon="5.91033">
        <ele>1169</ele>
        <time>2010-09-19T12:43:48.97</time>
      </trkpt>
      <trkpt lat="44.43147" lon="5.91058">
        <ele>1162.5</ele>
        <time>2010-09-19T12:43:58.95</time>
      </trkpt>
      <trkpt lat="44.4313" lon="5.91078">
        <ele>1153.5</ele>
        <time>2010-09-19T12:44:08.89</time>
      </trkpt>
      <trkpt lat="44.43126" lon="5.9109">
        <ele>1151.5</ele>
        <time>2010-09-19T12:44:18.86</time>
      </trkpt>
      <trkpt lat="44.4313" lon="5.91101">
        <ele>1154</ele>
        <time>2010-09-19T12:44:58.80</time>
      </trkpt>
      <trkpt lat="44.43152" lon="5.91127">
        <ele>1145</ele>
        <time>2010-09-19T12:45:09.75</time>
      </trkpt>
      <trkpt lat="44.43157" lon="5.91149">
        <ele>1135.5</ele>
        <time>2010-09-19T12:45:19.71</time>
      </trkpt>
      <trkpt lat="44.43171" lon="5.9116">
        <ele>1133.5</ele>
        <time>2010-09-19T12:45:30.65</time>
      </trkpt>
      <trkpt lat="44.43194" lon="5.9118">
        <ele>1122</ele>
        <time>2010-09-19T12:45:40.61</time>
      </trkpt>
      <trkpt lat="44.43205" lon="5.91223">
        <ele>1111.5</ele>
        <time>2010-09-19T12:45:50.58</time>
      </trkpt>
      <trkpt lat="44.43179" lon="5.91238">
        <ele>1105</ele>
        <time>2010-09-19T12:46:00.62</time>
      </trkpt>
      <trkpt lat="44.43168" lon="5.91261">
        <ele>1100</ele>
        <time>2010-09-19T12:46:11.51</time>
      </trkpt>
      <trkpt lat="44.43149" lon="5.91268">
        <ele>1097</ele>
        <time>2010-09-19T12:46:21.48</time>
      </trkpt>
      <trkpt lat="44.43137" lon="5.91299">
        <ele>1086</ele>
        <time>2010-09-19T12:46:32.46</time>
      </trkpt>
      <trkpt lat="44.43128" lon="5.91322">
        <ele>1073.5</ele>
        <time>2010-09-19T12:46:52.47</time>
      </trkpt>
      <trkpt lat="44.43126" lon="5.91314">
        <ele>1074</ele>
        <time>2010-09-19T12:47:02.36</time>
      </trkpt>
      <trkpt lat="44.43123" lon="5.91309">
        <ele>1075</ele>
        <time>2010-09-19T12:47:47.54</time>
      </trkpt>
      <trkpt lat="44.43124" lon="5.91319">
        <ele>1071.5</ele>
        <time>2010-09-19T12:48:00.29</time>
      </trkpt>
      <trkpt lat="44.43128" lon="5.9132">
        <ele>1070</ele>
        <time>2010-09-19T12:48:34.24</time>
      </trkpt>
      <trkpt lat="44.43149" lon="5.91345">
        <ele>1063</ele>
        <time>2010-09-19T12:48:44.39</time>
      </trkpt>
      <trkpt lat="44.43181" lon="5.91394">
        <ele>1052.5</ele>
        <time>2010-09-19T12:48:54.14</time>
      </trkpt>
      <trkpt lat="44.43221" lon="5.91421">
        <ele>1047.5</ele>
        <time>2010-09-19T12:49:04.11</time>
      </trkpt>
      <trkpt lat="44.43256" lon="5.91441">
        <ele>1041.5</ele>
        <time>2010-09-19T12:49:15.14</time>
      </trkpt>
      <trkpt lat="44.43286" lon="5.91458">
        <ele>1034.5</ele>
        <time>2010-09-19T12:49:25.02</time>
      </trkpt>
      <trkpt lat="44.43313" lon="5.9148">
        <ele>1015.5</ele>
        <time>2010-09-19T12:49:35.18</time>
      </trkpt>
      <trkpt lat="44.43323" lon="5.91489">
        <ele>1014.5</ele>
        <time>2010-09-19T12:50:34.93</time>
      </trkpt>
      <trkpt lat="44.43369" lon="5.91524">
        <ele>1000.5</ele>
        <time>2010-09-19T12:50:46.89</time>
      </trkpt>
      <trkpt lat="44.43396" lon="5.91543">
        <ele>991</ele>
        <time>2010-09-19T12:50:56.84</time>
      </trkpt>
      <trkpt lat="44.43382" lon="5.91566">
        <ele>979</ele>
        <time>2010-09-19T12:51:06.80</time>
      </trkpt>
      <trkpt lat="44.4338" lon="5.91598">
        <ele>967.5</ele>
        <time>2010-09-19T12:51:16.75</time>
      </trkpt>
      <trkpt lat="44.4338" lon="5.91605">
        <ele>966</ele>
        <time>2010-09-19T12:51:37.71</time>
      </trkpt>
      <trkpt lat="44.43376" lon="5.91616">
        <ele>957.5</ele>
        <time>2010-09-19T12:52:05.89</time>
      </trkpt>
      <trkpt lat="44.43366" lon="5.91628">
        <ele>952</ele>
        <time>2010-09-19T12:52:20.64</time>
      </trkpt>
      <trkpt lat="44.43372" lon="5.91647">
        <ele>946</ele>
        <time>2010-09-19T12:52:30.60</time>
      </trkpt>
      <trkpt lat="44.43381" lon="5.91672">
        <ele>933</ele>
        <time>2010-09-19T12:52:40.56</time>
      </trkpt>
      <trkpt lat="44.4338" lon="5.91698">
        <ele>929.5</ele>
        <time>2010-09-19T12:52:50.51</time>
      </trkpt>
      <trkpt lat="44.43385" lon="5.91726">
        <ele>921</ele>
        <time>2010-09-19T12:53:03.69</time>
      </trkpt>
      <trkpt lat="44.434" lon="5.91714">
        <ele>922.5</ele>
        <time>2010-09-19T12:53:13.42</time>
      </trkpt>
      <trkpt lat="44.43397" lon="5.91758">
        <ele>916.5</ele>
        <time>2010-09-19T12:53:23.37</time>
      </trkpt>
      <trkpt lat="44.43405" lon="5.91787">
        <ele>912.5</ele>
        <time>2010-09-19T12:53:34.34</time>
      </trkpt>
      <trkpt lat="44.43404" lon="5.91792">
        <ele>906.5</ele>
        <time>2010-09-19T12:54:37.32</time>
      </trkpt>
      <trkpt lat="44.43425" lon="5.918">
        <ele>906</ele>
        <time>2010-09-19T12:54:48.27</time>
      </trkpt>
      <trkpt lat="44.43455" lon="5.91814">
        <ele>907.5</ele>
        <time>2010-09-19T12:54:58.22</time>
      </trkpt>
      <trkpt lat="44.43478" lon="5.91827">
        <ele>909.5</ele>
        <time>2010-09-19T12:55:08.18</time>
      </trkpt>
      <trkpt lat="44.43478" lon="5.91865">
        <ele>908</ele>
        <time>2010-09-19T12:55:20.15</time>
      </trkpt>
      <trkpt lat="44.43456" lon="5.91896">
        <ele>902</ele>
        <time>2010-09-19T12:55:31.10</time>
      </trkpt>
      <trkpt lat="44.4345" lon="5.91895">
        <ele>894</ele>
        <time>2010-09-19T12:55:46.10</time>
      </trkpt>
      <trkpt lat="44.43453" lon="5.91891">
        <ele>889</ele>
        <time>2010-09-19T12:55:56.05</time>
      </trkpt>
      <trkpt lat="44.43458" lon="5.91891">
        <ele>883</ele>
        <time>2010-09-19T12:56:38.01</time>
      </trkpt>
      <trkpt lat="44.43454" lon="5.91883">
        <ele>872.5</ele>
        <time>2010-09-19T12:58:06.96</time>
      </trkpt>
      <trkpt lat="44.43452" lon="5.9189">
        <ele>875</ele>
        <time>2010-09-19T12:59:20.92</time>
      </trkpt>
      <trkpt lat="44.43449" lon="5.91885">
        <ele>884</ele>
        <time>2010-09-19T13:01:25.87</time>
      </trkpt>
      <trkpt lat="44.43449" lon="5.91893">
        <ele>892</ele>
        <time>2010-09-19T13:02:33.82</time>
      </trkpt>
      <trkpt lat="44.43452" lon="5.9189">
        <ele>877.5</ele>
        <time>2010-09-19T13:05:45.78</time>
      </trkpt>
      <trkpt lat="44.43451" lon="5.91889">
        <ele>877</ele>
        <time>2010-09-19T13:06:11.75</time>
      </trkpt>
      <trkpt lat="44.43445" lon="5.91892">
        <ele>883.5</ele>
        <time>2010-09-19T13:07:36.69</time>
      </trkpt>
      <trkpt lat="44.43448" lon="5.91893">
        <ele>888.5</ele>
        <time>2010-09-19T13:08:50.66</time>
      </trkpt>
      <trkpt lat="44.43446" lon="5.91898">
        <ele>890.5</ele>
        <time>2010-09-19T13:09:00.62</time>
      </trkpt>
      <trkpt lat="44.43446" lon="5.91893">
        <ele>880</ele>
        <time>2010-09-19T13:10:17.58</time>
      </trkpt>
      <trkpt lat="44.4345" lon="5.91887">
        <ele>878</ele>
        <time>2010-09-19T13:10:42.55</time>
      </trkpt>
      <trkpt lat="44.43446" lon="5.91915">
        <ele>878.5</ele>
        <time>2010-09-19T13:10:53.51</time>
      </trkpt>
      <trkpt lat="44.43419" lon="5.91944">
        <ele>878</ele>
        <time>2010-09-19T13:11:03.47</time>
      </trkpt>
      <trkpt lat="44.43384" lon="5.91968">
        <ele>875.5</ele>
        <time>2010-09-19T13:11:13.43</time>
      </trkpt>
      <trkpt lat="44.43338" lon="5.91947">
        <ele>872</ele>
        <time>2010-09-19T13:11:23.40</time>
      </trkpt>
      <trkpt lat="44.43313" lon="5.91928">
        <ele>874.5</ele>
        <time>2010-09-19T13:11:33.37</time>
      </trkpt>
      <trkpt lat="44.43299" lon="5.91924">
        <ele>879</ele>
        <time>2010-09-19T13:11:43.33</time>
      </trkpt>
      <trkpt lat="44.43284" lon="5.91931">
        <ele>883</ele>
        <time>2010-09-19T13:11:53.30</time>
      </trkpt>
      <trkpt lat="44.43272" lon="5.91938">
        <ele>884.5</ele>
        <time>2010-09-19T13:12:03.27</time>
      </trkpt>
      <trkpt lat="44.43263" lon="5.91947">
        <ele>887</ele>
        <time>2010-09-19T13:12:13.26</time>
      </trkpt>
      <trkpt lat="44.43248" lon="5.91958">
        <ele>889</ele>
        <time>2010-09-19T13:12:23.23</time>
      </trkpt>
      <trkpt lat="44.43234" lon="5.91971">
        <ele>890</ele>
        <time>2010-09-19T13:12:33.18</time>
      </trkpt>
      <trkpt lat="44.4322" lon="5.9198">
        <ele>888</ele>
        <time>2010-09-19T13:12:43.14</time>
      </trkpt>
      <trkpt lat="44.43205" lon="5.91988">
        <ele>888.5</ele>
        <time>2010-09-19T13:12:53.09</time>
      </trkpt>
      <trkpt lat="44.43188" lon="5.9199">
        <ele>889.5</ele>
        <time>2010-09-19T13:13:03.08</time>
      </trkpt>
      <trkpt lat="44.43172" lon="5.91987">
        <ele>891</ele>
        <time>2010-09-19T13:13:13.07</time>
      </trkpt>
      <trkpt lat="44.43155" lon="5.91977">
        <ele>892</ele>
        <time>2010-09-19T13:13:23.06</time>
      </trkpt>
      <trkpt lat="44.43139" lon="5.91956">
        <ele>892.5</ele>
        <time>2010-09-19T13:13:33.02</time>
      </trkpt>
      <trkpt lat="44.43107" lon="5.91927">
        <ele>889</ele>
        <time>2010-09-19T13:13:43.00</time>
      </trkpt>
      <trkpt lat="44.43056" lon="5.91906">
        <ele>889.5</ele>
        <time>2010-09-19T13:13:52.98</time>
      </trkpt>
      <trkpt lat="44.43015" lon="5.9188">
        <ele>890</ele>
        <time>2010-09-19T13:14:03.95</time>
      </trkpt>
      <trkpt lat="44.42989" lon="5.9188">
        <ele>885.5</ele>
        <time>2010-09-19T13:14:13.91</time>
      </trkpt>
      <trkpt lat="44.42979" lon="5.91923">
        <ele>882.5</ele>
        <time>2010-09-19T13:14:23.87</time>
      </trkpt>
      <trkpt lat="44.42946" lon="5.91934">
        <ele>889</ele>
        <time>2010-09-19T13:14:33.84</time>
      </trkpt>
      <trkpt lat="44.42921" lon="5.91942">
        <ele>893</ele>
        <time>2010-09-19T13:14:43.82</time>
      </trkpt>
      <trkpt lat="44.42897" lon="5.91954">
        <ele>893.5</ele>
        <time>2010-09-19T13:14:53.79</time>
      </trkpt>
      <trkpt lat="44.42878" lon="5.91984">
        <ele>895</ele>
        <time>2010-09-19T13:15:03.74</time>
      </trkpt>
      <trkpt lat="44.42855" lon="5.9201">
        <ele>895.5</ele>
        <time>2010-09-19T13:15:13.72</time>
      </trkpt>
      <trkpt lat="44.42834" lon="5.92035">
        <ele>896.5</ele>
        <time>2010-09-19T13:15:23.70</time>
      </trkpt>
      <trkpt lat="44.42808" lon="5.92058">
        <ele>897.5</ele>
        <time>2010-09-19T13:15:33.69</time>
      </trkpt>
      <trkpt lat="44.42782" lon="5.92081">
        <ele>899.5</ele>
        <time>2010-09-19T13:15:43.67</time>
      </trkpt>
      <trkpt lat="44.42763" lon="5.92089">
        <ele>900.5</ele>
        <time>2010-09-19T13:15:53.64</time>
      </trkpt>
      <trkpt lat="44.42769" lon="5.92071">
        <ele>904</ele>
        <time>2010-09-19T13:16:03.73</time>
      </trkpt>
      <trkpt lat="44.42782" lon="5.92051">
        <ele>907.5</ele>
        <time>2010-09-19T13:16:13.57</time>
      </trkpt>
      <trkpt lat="44.42792" lon="5.9203">
        <ele>910.5</ele>
        <time>2010-09-19T13:16:23.56</time>
      </trkpt>
      <trkpt lat="44.42799" lon="5.92008">
        <ele>913.5</ele>
        <time>2010-09-19T13:16:33.53</time>
      </trkpt>
      <trkpt lat="44.42806" lon="5.91988">
        <ele>915.5</ele>
        <time>2010-09-19T13:16:43.51</time>
      </trkpt>
      <trkpt lat="44.42818" lon="5.91972">
        <ele>917</ele>
        <time>2010-09-19T13:16:53.49</time>
      </trkpt>
      <trkpt lat="44.42808" lon="5.9196">
        <ele>919</ele>
        <time>2010-09-19T13:17:03.45</time>
      </trkpt>
      <trkpt lat="44.42795" lon="5.91973">
        <ele>919.5</ele>
        <time>2010-09-19T13:17:13.40</time>
      </trkpt>
      <trkpt lat="44.42785" lon="5.91986">
        <ele>920.5</ele>
        <time>2010-09-19T13:17:23.55</time>
      </trkpt>
      <trkpt lat="44.42775" lon="5.91998">
        <ele>920.5</ele>
        <time>2010-09-19T13:17:33.32</time>
      </trkpt>
      <trkpt lat="44.42761" lon="5.9201">
        <ele>922</ele>
        <time>2010-09-19T13:17:43.28</time>
      </trkpt>
      <trkpt lat="44.42749" lon="5.92022">
        <ele>924</ele>
        <time>2010-09-19T13:17:53.27</time>
      </trkpt>
      <trkpt lat="44.42734" lon="5.92029">
        <ele>922.5</ele>
        <time>2010-09-19T13:18:03.21</time>
      </trkpt>
      <trkpt lat="44.42722" lon="5.92045">
        <ele>927.5</ele>
        <time>2010-09-19T13:18:13.19</time>
      </trkpt>
      <trkpt lat="44.4271" lon="5.92059">
        <ele>929.5</ele>
        <time>2010-09-19T13:18:23.13</time>
      </trkpt>
      <trkpt lat="44.427" lon="5.92075">
        <ele>933</ele>
        <time>2010-09-19T13:18:33.10</time>
      </trkpt>
      <trkpt lat="44.42688" lon="5.92089">
        <ele>933.5</ele>
        <time>2010-09-19T13:18:43.07</time>
      </trkpt>
      <trkpt lat="44.42676" lon="5.92103">
        <ele>935</ele>
        <time>2010-09-19T13:18:53.04</time>
      </trkpt>
      <trkpt lat="44.42664" lon="5.92116">
        <ele>935.5</ele>
        <time>2010-09-19T13:19:03.23</time>
      </trkpt>
      <trkpt lat="44.42653" lon="5.9213">
        <ele>936</ele>
        <time>2010-09-19T13:19:12.98</time>
      </trkpt>
      <trkpt lat="44.4264" lon="5.92139">
        <ele>936</ele>
        <time>2010-09-19T13:19:22.95</time>
      </trkpt>
      <trkpt lat="44.42628" lon="5.92154">
        <ele>938.5</ele>
        <time>2010-09-19T13:19:32.92</time>
      </trkpt>
      <trkpt lat="44.42616" lon="5.9217">
        <ele>942.5</ele>
        <time>2010-09-19T13:19:42.89</time>
      </trkpt>
      <trkpt lat="44.42605" lon="5.92183">
        <ele>945.5</ele>
        <time>2010-09-19T13:19:52.87</time>
      </trkpt>
      <trkpt lat="44.42591" lon="5.92193">
        <ele>946.5</ele>
        <time>2010-09-19T13:20:02.82</time>
      </trkpt>
      <trkpt lat="44.42582" lon="5.92179">
        <ele>950.5</ele>
        <time>2010-09-19T13:20:12.80</time>
      </trkpt>
      <trkpt lat="44.42591" lon="5.92166">
        <ele>953.5</ele>
        <time>2010-09-19T13:20:22.81</time>
      </trkpt>
      <trkpt lat="44.426" lon="5.92156">
        <ele>954.5</ele>
        <time>2010-09-19T13:20:32.73</time>
      </trkpt>
      <trkpt lat="44.42609" lon="5.92145">
        <ele>957.5</ele>
        <time>2010-09-19T13:20:42.70</time>
      </trkpt>
      <trkpt lat="44.42616" lon="5.92128">
        <ele>958.5</ele>
        <time>2010-09-19T13:20:52.68</time>
      </trkpt>
      <trkpt lat="44.42624" lon="5.9211">
        <ele>962.5</ele>
        <time>2010-09-19T13:21:02.64</time>
      </trkpt>
      <trkpt lat="44.4263" lon="5.92093">
        <ele>966</ele>
        <time>2010-09-19T13:21:12.61</time>
      </trkpt>
      <trkpt lat="44.42637" lon="5.92077">
        <ele>968.5</ele>
        <time>2010-09-19T13:21:22.58</time>
      </trkpt>
      <trkpt lat="44.42644" lon="5.92059">
        <ele>971.5</ele>
        <time>2010-09-19T13:21:32.66</time>
      </trkpt>
      <trkpt lat="44.4265" lon="5.92042">
        <ele>974.5</ele>
        <time>2010-09-19T13:21:42.51</time>
      </trkpt>
      <trkpt lat="44.42653" lon="5.92025">
        <ele>977</ele>
        <time>2010-09-19T13:21:52.63</time>
      </trkpt>
      <trkpt lat="44.42659" lon="5.92006">
        <ele>981.5</ele>
        <time>2010-09-19T13:22:02.44</time>
      </trkpt>
      <trkpt lat="44.42666" lon="5.91986">
        <ele>979</ele>
        <time>2010-09-19T13:22:12.41</time>
      </trkpt>
      <trkpt lat="44.42671" lon="5.91966">
        <ele>977</ele>
        <time>2010-09-19T13:22:22.37</time>
      </trkpt>
      <trkpt lat="44.42678" lon="5.91949">
        <ele>981.5</ele>
        <time>2010-09-19T13:22:32.34</time>
      </trkpt>
      <trkpt lat="44.42685" lon="5.91933">
        <ele>983.5</ele>
        <time>2010-09-19T13:22:42.32</time>
      </trkpt>
      <trkpt lat="44.42694" lon="5.91918">
        <ele>985.5</ele>
        <time>2010-09-19T13:22:52.30</time>
      </trkpt>
      <trkpt lat="44.42707" lon="5.91901">
        <ele>988</ele>
        <time>2010-09-19T13:23:02.25</time>
      </trkpt>
      <trkpt lat="44.42704" lon="5.91883">
        <ele>988</ele>
        <time>2010-09-19T13:23:12.47</time>
      </trkpt>
      <trkpt lat="44.42691" lon="5.9189">
        <ele>984.5</ele>
        <time>2010-09-19T13:23:22.18</time>
      </trkpt>
      <trkpt lat="44.42681" lon="5.91903">
        <ele>983</ele>
        <time>2010-09-19T13:23:32.15</time>
      </trkpt>
      <trkpt lat="44.42671" lon="5.91917">
        <ele>985</ele>
        <time>2010-09-19T13:23:42.10</time>
      </trkpt>
      <trkpt lat="44.42659" lon="5.91931">
        <ele>988</ele>
        <time>2010-09-19T13:23:52.07</time>
      </trkpt>
      <trkpt lat="44.42648" lon="5.91944">
        <ele>989.5</ele>
        <time>2010-09-19T13:24:02.03</time>
      </trkpt>
      <trkpt lat="44.42638" lon="5.91956">
        <ele>991</ele>
        <time>2010-09-19T13:24:11.98</time>
      </trkpt>
      <trkpt lat="44.4263" lon="5.91973">
        <ele>993.5</ele>
        <time>2010-09-19T13:24:21.95</time>
      </trkpt>
      <trkpt lat="44.42621" lon="5.9199">
        <ele>996.5</ele>
        <time>2010-09-19T13:24:31.89</time>
      </trkpt>
      <trkpt lat="44.4261" lon="5.92005">
        <ele>999.5</ele>
        <time>2010-09-19T13:24:41.87</time>
      </trkpt>
      <trkpt lat="44.42598" lon="5.9202">
        <ele>1000.5</ele>
        <time>2010-09-19T13:24:51.81</time>
      </trkpt>
      <trkpt lat="44.42587" lon="5.92033">
        <ele>1001</ele>
        <time>2010-09-19T13:25:01.78</time>
      </trkpt>
      <trkpt lat="44.42575" lon="5.92048">
        <ele>1004</ele>
        <time>2010-09-19T13:25:11.76</time>
      </trkpt>
      <trkpt lat="44.42564" lon="5.92063">
        <ele>1004</ele>
        <time>2010-09-19T13:25:21.71</time>
      </trkpt>
      <trkpt lat="44.42553" lon="5.92077">
        <ele>1003.5</ele>
        <time>2010-09-19T13:25:31.68</time>
      </trkpt>
      <trkpt lat="44.42541" lon="5.92089">
        <ele>1003.5</ele>
        <time>2010-09-19T13:25:41.65</time>
      </trkpt>
      <trkpt lat="44.42529" lon="5.92104">
        <ele>1005.5</ele>
        <time>2010-09-19T13:25:51.64</time>
      </trkpt>
      <trkpt lat="44.42517" lon="5.92117">
        <ele>1006</ele>
        <time>2010-09-19T13:26:01.60</time>
      </trkpt>
      <trkpt lat="44.42504" lon="5.92133">
        <ele>1009</ele>
        <time>2010-09-19T13:26:11.57</time>
      </trkpt>
      <trkpt lat="44.42496" lon="5.92148">
        <ele>1013.5</ele>
        <time>2010-09-19T13:26:21.51</time>
      </trkpt>
      <trkpt lat="44.42485" lon="5.92161">
        <ele>1015.5</ele>
        <time>2010-09-19T13:26:31.47</time>
      </trkpt>
      <trkpt lat="44.42472" lon="5.92178">
        <ele>1019</ele>
        <time>2010-09-19T13:26:41.44</time>
      </trkpt>
      <trkpt lat="44.42458" lon="5.92193">
        <ele>1020</ele>
        <time>2010-09-19T13:26:51.41</time>
      </trkpt>
      <trkpt lat="44.42443" lon="5.9221">
        <ele>1020</ele>
        <time>2010-09-19T13:27:01.38</time>
      </trkpt>
      <trkpt lat="44.42427" lon="5.92217">
        <ele>1021.5</ele>
        <time>2010-09-19T13:27:11.35</time>
      </trkpt>
      <trkpt lat="44.42421" lon="5.92197">
        <ele>1023.5</ele>
        <time>2010-09-19T13:27:21.34</time>
      </trkpt>
      <trkpt lat="44.42421" lon="5.92179">
        <ele>1024</ele>
        <time>2010-09-19T13:27:31.36</time>
      </trkpt>
      <trkpt lat="44.42424" lon="5.92161">
        <ele>1024.5</ele>
        <time>2010-09-19T13:27:41.27</time>
      </trkpt>
      <trkpt lat="44.42427" lon="5.9214">
        <ele>1023</ele>
        <time>2010-09-19T13:27:51.24</time>
      </trkpt>
      <trkpt lat="44.42428" lon="5.92119">
        <ele>1025.5</ele>
        <time>2010-09-19T13:28:01.21</time>
      </trkpt>
      <trkpt lat="44.42426" lon="5.92099">
        <ele>1030.5</ele>
        <time>2010-09-19T13:28:11.18</time>
      </trkpt>
      <trkpt lat="44.42424" lon="5.92078">
        <ele>1035.5</ele>
        <time>2010-09-19T13:28:21.16</time>
      </trkpt>
      <trkpt lat="44.42421" lon="5.92055">
        <ele>1036.5</ele>
        <time>2010-09-19T13:28:31.13</time>
      </trkpt>
      <trkpt lat="44.42418" lon="5.92035">
        <ele>1040.5</ele>
        <time>2010-09-19T13:28:41.10</time>
      </trkpt>
      <trkpt lat="44.42416" lon="5.92014">
        <ele>1042.5</ele>
        <time>2010-09-19T13:28:51.06</time>
      </trkpt>
      <trkpt lat="44.42414" lon="5.91994">
        <ele>1045</ele>
        <time>2010-09-19T13:29:01.02</time>
      </trkpt>
      <trkpt lat="44.4241" lon="5.91973">
        <ele>1047.5</ele>
        <time>2010-09-19T13:29:11.00</time>
      </trkpt>
      <trkpt lat="44.42406" lon="5.91952">
        <ele>1050</ele>
        <time>2010-09-19T13:29:21.02</time>
      </trkpt>
      <trkpt lat="44.424" lon="5.91931">
        <ele>1052</ele>
        <time>2010-09-19T13:29:30.91</time>
      </trkpt>
      <trkpt lat="44.42394" lon="5.91909">
        <ele>1052.5</ele>
        <time>2010-09-19T13:29:40.87</time>
      </trkpt>
      <trkpt lat="44.42389" lon="5.9189">
        <ele>1056</ele>
        <time>2010-09-19T13:29:50.84</time>
      </trkpt>
      <trkpt lat="44.42383" lon="5.9187">
        <ele>1058.5</ele>
        <time>2010-09-19T13:30:00.79</time>
      </trkpt>
      <trkpt lat="44.42379" lon="5.91849">
        <ele>1061.5</ele>
        <time>2010-09-19T13:30:10.76</time>
      </trkpt>
      <trkpt lat="44.42376" lon="5.91828">
        <ele>1064</ele>
        <time>2010-09-19T13:30:20.73</time>
      </trkpt>
      <trkpt lat="44.42371" lon="5.91807">
        <ele>1065</ele>
        <time>2010-09-19T13:30:30.71</time>
      </trkpt>
      <trkpt lat="44.42366" lon="5.91787">
        <ele>1065.5</ele>
        <time>2010-09-19T13:30:40.67</time>
      </trkpt>
      <trkpt lat="44.42364" lon="5.91766">
        <ele>1065.5</ele>
        <time>2010-09-19T13:30:50.65</time>
      </trkpt>
      <trkpt lat="44.42368" lon="5.91749">
        <ele>1061</ele>
        <time>2010-09-19T13:31:06.60</time>
      </trkpt>
      <trkpt lat="44.42365" lon="5.9175">
        <ele>1064</ele>
        <time>2010-09-19T13:31:19.56</time>
      </trkpt>
      <trkpt lat="44.42363" lon="5.91741">
        <ele>1062</ele>
        <time>2010-09-19T13:31:29.61</time>
      </trkpt>
      <trkpt lat="44.42362" lon="5.91741">
        <ele>1059.5</ele>
        <time>2010-09-19T13:31:45.48</time>
      </trkpt>
      <trkpt lat="44.42364" lon="5.91741">
        <ele>1057</ele>
        <time>2010-09-19T13:32:01.42</time>
      </trkpt>
      <trkpt lat="44.42373" lon="5.91734">
        <ele>1051.5</ele>
        <time>2010-09-19T13:32:26.38</time>
      </trkpt>
      <trkpt lat="44.42371" lon="5.91738">
        <ele>1059</ele>
        <time>2010-09-19T13:33:22.34</time>
      </trkpt>
      <trkpt lat="44.42363" lon="5.91722">
        <ele>1058</ele>
        <time>2010-09-19T13:33:32.29</time>
      </trkpt>
      <trkpt lat="44.42364" lon="5.91699">
        <ele>1058.5</ele>
        <time>2010-09-19T13:33:42.26</time>
      </trkpt>
      <trkpt lat="44.4236" lon="5.9168">
        <ele>1058</ele>
        <time>2010-09-19T13:33:52.21</time>
      </trkpt>
      <trkpt lat="44.42348" lon="5.91663">
        <ele>1061.5</ele>
        <time>2010-09-19T13:34:02.17</time>
      </trkpt>
      <trkpt lat="44.42337" lon="5.91645">
        <ele>1064</ele>
        <time>2010-09-19T13:34:12.15</time>
      </trkpt>
      <trkpt lat="44.42334" lon="5.91625">
        <ele>1067.5</ele>
        <time>2010-09-19T13:34:22.11</time>
      </trkpt>
      <trkpt lat="44.4232" lon="5.91621">
        <ele>1072.5</ele>
        <time>2010-09-19T13:34:32.09</time>
      </trkpt>
      <trkpt lat="44.42306" lon="5.91601">
        <ele>1073</ele>
        <time>2010-09-19T13:34:42.07</time>
      </trkpt>
      <trkpt lat="44.42288" lon="5.91579">
        <ele>1075.5</ele>
        <time>2010-09-19T13:34:52.00</time>
      </trkpt>
      <trkpt lat="44.42268" lon="5.9158">
        <ele>1079</ele>
        <time>2010-09-19T13:35:01.95</time>
      </trkpt>
      <trkpt lat="44.42249" lon="5.91563">
        <ele>1083.5</ele>
        <time>2010-09-19T13:35:11.95</time>
      </trkpt>
      <trkpt lat="44.42255" lon="5.91524">
        <ele>1081</ele>
        <time>2010-09-19T13:35:22.08</time>
      </trkpt>
      <trkpt lat="44.42266" lon="5.91488">
        <ele>1076</ele>
        <time>2010-09-19T13:35:31.80</time>
      </trkpt>
      <trkpt lat="44.42249" lon="5.91467">
        <ele>1076</ele>
        <time>2010-09-19T13:35:41.74</time>
      </trkpt>
      <trkpt lat="44.42227" lon="5.91452">
        <ele>1077.5</ele>
        <time>2010-09-19T13:35:51.70</time>
      </trkpt>
      <trkpt lat="44.42213" lon="5.91432">
        <ele>1079</ele>
        <time>2010-09-19T13:36:01.65</time>
      </trkpt>
      <trkpt lat="44.42205" lon="5.91411">
        <ele>1079</ele>
        <time>2010-09-19T13:36:11.61</time>
      </trkpt>
      <trkpt lat="44.42193" lon="5.91401">
        <ele>1081</ele>
        <time>2010-09-19T13:36:21.59</time>
      </trkpt>
      <trkpt lat="44.42183" lon="5.91388">
        <ele>1081</ele>
        <time>2010-09-19T13:36:31.54</time>
      </trkpt>
      <trkpt lat="44.42176" lon="5.91367">
        <ele>1081.5</ele>
        <time>2010-09-19T13:36:41.50</time>
      </trkpt>
      <trkpt lat="44.42163" lon="5.91351">
        <ele>1077.5</ele>
        <time>2010-09-19T13:36:51.47</time>
      </trkpt>
      <trkpt lat="44.42149" lon="5.91342">
        <ele>1074</ele>
        <time>2010-09-19T13:37:01.46</time>
      </trkpt>
      <trkpt lat="44.42141" lon="5.91325">
        <ele>1076</ele>
        <time>2010-09-19T13:37:11.39</time>
      </trkpt>
      <trkpt lat="44.4214" lon="5.91306">
        <ele>1081.5</ele>
        <time>2010-09-19T13:37:21.37</time>
      </trkpt>
      <trkpt lat="44.42133" lon="5.91289">
        <ele>1085.5</ele>
        <time>2010-09-19T13:37:31.35</time>
      </trkpt>
      <trkpt lat="44.4212" lon="5.91288">
        <ele>1086.5</ele>
        <time>2010-09-19T13:37:41.33</time>
      </trkpt>
      <trkpt lat="44.42102" lon="5.91293">
        <ele>1090</ele>
        <time>2010-09-19T13:37:51.30</time>
      </trkpt>
      <trkpt lat="44.42087" lon="5.91279">
        <ele>1090</ele>
        <time>2010-09-19T13:38:01.26</time>
      </trkpt>
      <trkpt lat="44.42067" lon="5.9127">
        <ele>1089</ele>
        <time>2010-09-19T13:38:11.22</time>
      </trkpt>
      <trkpt lat="44.42048" lon="5.91259">
        <ele>1092.5</ele>
        <time>2010-09-19T13:38:21.19</time>
      </trkpt>
      <trkpt lat="44.42032" lon="5.91279">
        <ele>1092.5</ele>
        <time>2010-09-19T13:38:31.14</time>
      </trkpt>
      <trkpt lat="44.42024" lon="5.91318">
        <ele>1099.5</ele>
        <time>2010-09-19T13:38:41.10</time>
      </trkpt>
      <trkpt lat="44.42009" lon="5.91349">
        <ele>1100.5</ele>
        <time>2010-09-19T13:38:51.09</time>
      </trkpt>
      <trkpt lat="44.41997" lon="5.91374">
        <ele>1104.5</ele>
        <time>2010-09-19T13:39:01.05</time>
      </trkpt>
      <trkpt lat="44.41992" lon="5.914">
        <ele>1106</ele>
        <time>2010-09-19T13:39:11.02</time>
      </trkpt>
      <trkpt lat="44.41984" lon="5.91427">
        <ele>1110.5</ele>
        <time>2010-09-19T13:39:21.00</time>
      </trkpt>
      <trkpt lat="44.41976" lon="5.91452">
        <ele>1114.5</ele>
        <time>2010-09-19T13:39:31.01</time>
      </trkpt>
      <trkpt lat="44.41969" lon="5.91474">
        <ele>1118.5</ele>
        <time>2010-09-19T13:39:40.91</time>
      </trkpt>
      <trkpt lat="44.41966" lon="5.91496">
        <ele>1124</ele>
        <time>2010-09-19T13:39:50.89</time>
      </trkpt>
      <trkpt lat="44.41958" lon="5.91515">
        <ele>1125</ele>
        <time>2010-09-19T13:40:00.86</time>
      </trkpt>
      <trkpt lat="44.41948" lon="5.91532">
        <ele>1125</ele>
        <time>2010-09-19T13:40:10.83</time>
      </trkpt>
      <trkpt lat="44.41939" lon="5.91547">
        <ele>1126</ele>
        <time>2010-09-19T13:40:20.81</time>
      </trkpt>
      <trkpt lat="44.41929" lon="5.91559">
        <ele>1128</ele>
        <time>2010-09-19T13:40:30.78</time>
      </trkpt>
      <trkpt lat="44.41918" lon="5.91569">
        <ele>1130</ele>
        <time>2010-09-19T13:40:40.77</time>
      </trkpt>
      <trkpt lat="44.41907" lon="5.91576">
        <ele>1129</ele>
        <time>2010-09-19T13:40:50.73</time>
      </trkpt>
      <trkpt lat="44.41895" lon="5.91584">
        <ele>1131.5</ele>
        <time>2010-09-19T13:41:00.68</time>
      </trkpt>
      <trkpt lat="44.41884" lon="5.91595">
        <ele>1135</ele>
        <time>2010-09-19T13:41:10.63</time>
      </trkpt>
      <trkpt lat="44.4187" lon="5.91606">
        <ele>1139</ele>
        <time>2010-09-19T13:41:20.62</time>
      </trkpt>
      <trkpt lat="44.41858" lon="5.91613">
        <ele>1141</ele>
        <time>2010-09-19T13:41:30.58</time>
      </trkpt>
      <trkpt lat="44.41845" lon="5.9162">
        <ele>1148</ele>
        <time>2010-09-19T13:41:40.56</time>
      </trkpt>
      <trkpt lat="44.41831" lon="5.91625">
        <ele>1153.5</ele>
        <time>2010-09-19T13:41:50.53</time>
      </trkpt>
      <trkpt lat="44.41816" lon="5.91622">
        <ele>1155</ele>
        <time>2010-09-19T13:42:00.50</time>
      </trkpt>
      <trkpt lat="44.41801" lon="5.91621">
        <ele>1157.5</ele>
        <time>2010-09-19T13:42:10.46</time>
      </trkpt>
      <trkpt lat="44.41785" lon="5.91612">
        <ele>1159</ele>
        <time>2010-09-19T13:42:20.42</time>
      </trkpt>
      <trkpt lat="44.41772" lon="5.91595">
        <ele>1156</ele>
        <time>2010-09-19T13:42:30.53</time>
      </trkpt>
      <trkpt lat="44.41763" lon="5.91578">
        <ele>1155</ele>
        <time>2010-09-19T13:42:40.48</time>
      </trkpt>
      <trkpt lat="44.41757" lon="5.9156">
        <ele>1155</ele>
        <time>2010-09-19T13:42:50.31</time>
      </trkpt>
      <trkpt lat="44.41751" lon="5.91542">
        <ele>1154.5</ele>
        <time>2010-09-19T13:43:00.27</time>
      </trkpt>
      <trkpt lat="44.41744" lon="5.91525">
        <ele>1154.5</ele>
        <time>2010-09-19T13:43:10.24</time>
      </trkpt>
      <trkpt lat="44.41734" lon="5.91522">
        <ele>1157</ele>
        <time>2010-09-19T13:43:20.20</time>
      </trkpt>
      <trkpt lat="44.41723" lon="5.91525">
        <ele>1157.5</ele>
        <time>2010-09-19T13:43:30.17</time>
      </trkpt>
      <trkpt lat="44.41712" lon="5.91536">
        <ele>1161</ele>
        <time>2010-09-19T13:43:40.14</time>
      </trkpt>
      <trkpt lat="44.417" lon="5.9154">
        <ele>1166</ele>
        <time>2010-09-19T13:43:50.12</time>
      </trkpt>
      <trkpt lat="44.41688" lon="5.91529">
        <ele>1167.5</ele>
        <time>2010-09-19T13:44:00.07</time>
      </trkpt>
      <trkpt lat="44.41679" lon="5.91511">
        <ele>1168</ele>
        <time>2010-09-19T13:44:10.05</time>
      </trkpt>
      <trkpt lat="44.41671" lon="5.91497">
        <ele>1170.5</ele>
        <time>2010-09-19T13:44:20.01</time>
      </trkpt>
      <trkpt lat="44.4166" lon="5.91487">
        <ele>1172.5</ele>
        <time>2010-09-19T13:44:29.98</time>
      </trkpt>
      <trkpt lat="44.41647" lon="5.91483">
        <ele>1175</ele>
        <time>2010-09-19T13:44:39.96</time>
      </trkpt>
      <trkpt lat="44.41632" lon="5.91476">
        <ele>1177.5</ele>
        <time>2010-09-19T13:44:49.91</time>
      </trkpt>
      <trkpt lat="44.41623" lon="5.91462">
        <ele>1178</ele>
        <time>2010-09-19T13:44:59.88</time>
      </trkpt>
      <trkpt lat="44.41615" lon="5.91447">
        <ele>1181</ele>
        <time>2010-09-19T13:45:09.84</time>
      </trkpt>
      <trkpt lat="44.41609" lon="5.91431">
        <ele>1185</ele>
        <time>2010-09-19T13:45:19.81</time>
      </trkpt>
      <trkpt lat="44.41603" lon="5.91413">
        <ele>1187.5</ele>
        <time>2010-09-19T13:45:29.86</time>
      </trkpt>
      <trkpt lat="44.416" lon="5.91391">
        <ele>1185</ele>
        <time>2010-09-19T13:45:39.72</time>
      </trkpt>
      <trkpt lat="44.41598" lon="5.91363">
        <ele>1178</ele>
        <time>2010-09-19T13:45:49.69</time>
      </trkpt>
      <trkpt lat="44.41595" lon="5.91343">
        <ele>1175</ele>
        <time>2010-09-19T13:45:59.64</time>
      </trkpt>
      <trkpt lat="44.41596" lon="5.9132">
        <ele>1176.5</ele>
        <time>2010-09-19T13:46:09.63</time>
      </trkpt>
      <trkpt lat="44.41599" lon="5.91298">
        <ele>1176</ele>
        <time>2010-09-19T13:46:19.59</time>
      </trkpt>
      <trkpt lat="44.41596" lon="5.91279">
        <ele>1177</ele>
        <time>2010-09-19T13:46:29.54</time>
      </trkpt>
      <trkpt lat="44.41591" lon="5.91259">
        <ele>1178</ele>
        <time>2010-09-19T13:46:39.51</time>
      </trkpt>
      <trkpt lat="44.41587" lon="5.91241">
        <ele>1178.5</ele>
        <time>2010-09-19T13:46:49.47</time>
      </trkpt>
      <trkpt lat="44.41584" lon="5.91221">
        <ele>1178.5</ele>
        <time>2010-09-19T13:46:59.53</time>
      </trkpt>
      <trkpt lat="44.4158" lon="5.912">
        <ele>1180</ele>
        <time>2010-09-19T13:47:09.36</time>
      </trkpt>
      <trkpt lat="44.41575" lon="5.91182">
        <ele>1181</ele>
        <time>2010-09-19T13:47:19.31</time>
      </trkpt>
      <trkpt lat="44.4157" lon="5.91162">
        <ele>1183</ele>
        <time>2010-09-19T13:47:29.27</time>
      </trkpt>
      <trkpt lat="44.41559" lon="5.91145">
        <ele>1187</ele>
        <time>2010-09-19T13:47:39.24</time>
      </trkpt>
      <trkpt lat="44.41553" lon="5.9114">
        <ele>1192</ele>
        <time>2010-09-19T13:47:56.21</time>
      </trkpt>
      <trkpt lat="44.41553" lon="5.91136">
        <ele>1197.5</ele>
        <time>2010-09-19T13:49:43.15</time>
      </trkpt>
      <trkpt lat="44.41556" lon="5.91126">
        <ele>1194</ele>
        <time>2010-09-19T13:52:14.10</time>
      </trkpt>
      <trkpt lat="44.41555" lon="5.91111">
        <ele>1195.5</ele>
        <time>2010-09-19T13:52:27.07</time>
      </trkpt>
      <trkpt lat="44.41561" lon="5.91089">
        <ele>1201</ele>
        <time>2010-09-19T13:52:37.03</time>
      </trkpt>
      <trkpt lat="44.41565" lon="5.91069">
        <ele>1203</ele>
        <time>2010-09-19T13:52:46.98</time>
      </trkpt>
      <trkpt lat="44.4157" lon="5.91052">
        <ele>1202.5</ele>
        <time>2010-09-19T13:52:56.94</time>
      </trkpt>
      <trkpt lat="44.41579" lon="5.91037">
        <ele>1203</ele>
        <time>2010-09-19T13:53:07.01</time>
      </trkpt>
      <trkpt lat="44.4158" lon="5.91018">
        <ele>1203.5</ele>
        <time>2010-09-19T13:53:16.86</time>
      </trkpt>
      <trkpt lat="44.41583" lon="5.91">
        <ele>1205</ele>
        <time>2010-09-19T13:53:26.83</time>
      </trkpt>
      <trkpt lat="44.41583" lon="5.90981">
        <ele>1209.5</ele>
        <time>2010-09-19T13:53:36.79</time>
      </trkpt>
      <trkpt lat="44.41584" lon="5.9096">
        <ele>1211.5</ele>
        <time>2010-09-19T13:53:46.76</time>
      </trkpt>
      <trkpt lat="44.41584" lon="5.90942">
        <ele>1214.5</ele>
        <time>2010-09-19T13:53:56.74</time>
      </trkpt>
      <trkpt lat="44.41583" lon="5.90923">
        <ele>1217</ele>
        <time>2010-09-19T13:54:06.69</time>
      </trkpt>
      <trkpt lat="44.41584" lon="5.90906">
        <ele>1219.5</ele>
        <time>2010-09-19T13:54:16.64</time>
      </trkpt>
      <trkpt lat="44.41587" lon="5.90891">
        <ele>1221.5</ele>
        <time>2010-09-19T13:54:26.61</time>
      </trkpt>
      <trkpt lat="44.41592" lon="5.90873">
        <ele>1222.5</ele>
        <time>2010-09-19T13:54:37.57</time>
      </trkpt>
      <trkpt lat="44.41586" lon="5.90856">
        <ele>1224</ele>
        <time>2010-09-19T13:54:47.54</time>
      </trkpt>
      <trkpt lat="44.41584" lon="5.90838">
        <ele>1225</ele>
        <time>2010-09-19T13:54:57.49</time>
      </trkpt>
      <trkpt lat="44.41588" lon="5.90823">
        <ele>1228.5</ele>
        <time>2010-09-19T13:55:07.46</time>
      </trkpt>
      <trkpt lat="44.41592" lon="5.9081">
        <ele>1232.5</ele>
        <time>2010-09-19T13:55:17.45</time>
      </trkpt>
      <trkpt lat="44.41595" lon="5.90796">
        <ele>1236.5</ele>
        <time>2010-09-19T13:55:27.43</time>
      </trkpt>
      <trkpt lat="44.41596" lon="5.90781">
        <ele>1240.5</ele>
        <time>2010-09-19T13:55:37.40</time>
      </trkpt>
      <trkpt lat="44.41597" lon="5.90762">
        <ele>1243.5</ele>
        <time>2010-09-19T13:55:47.36</time>
      </trkpt>
      <trkpt lat="44.41592" lon="5.90743">
        <ele>1246.5</ele>
        <time>2010-09-19T13:55:57.34</time>
      </trkpt>
      <trkpt lat="44.41595" lon="5.90724">
        <ele>1250</ele>
        <time>2010-09-19T13:56:07.30</time>
      </trkpt>
      <trkpt lat="44.41599" lon="5.90703">
        <ele>1254</ele>
        <time>2010-09-19T13:56:17.26</time>
      </trkpt>
      <trkpt lat="44.41602" lon="5.90684">
        <ele>1255</ele>
        <time>2010-09-19T13:56:27.22</time>
      </trkpt>
      <trkpt lat="44.41601" lon="5.90663">
        <ele>1259</ele>
        <time>2010-09-19T13:56:37.19</time>
      </trkpt>
      <trkpt lat="44.416" lon="5.90638">
        <ele>1262</ele>
        <time>2010-09-19T13:56:47.27</time>
      </trkpt>
      <trkpt lat="44.41586" lon="5.90628">
        <ele>1260</ele>
        <time>2010-09-19T13:56:57.14</time>
      </trkpt>
      <trkpt lat="44.4158" lon="5.90634">
        <ele>1258.5</ele>
        <time>2010-09-19T13:57:07.10</time>
      </trkpt>
      <trkpt lat="44.41575" lon="5.90642">
        <ele>1252.5</ele>
        <time>2010-09-19T13:57:17.29</time>
      </trkpt>
      <trkpt lat="44.41575" lon="5.90656">
        <ele>1244</ele>
        <time>2010-09-19T13:57:27.03</time>
      </trkpt>
      <trkpt lat="44.41572" lon="5.90674">
        <ele>1244.5</ele>
        <time>2010-09-19T13:57:36.99</time>
      </trkpt>
      <trkpt lat="44.41566" lon="5.90686">
        <ele>1243.5</ele>
        <time>2010-09-19T13:57:46.96</time>
      </trkpt>
      <trkpt lat="44.41558" lon="5.90695">
        <ele>1242.5</ele>
        <time>2010-09-19T13:57:56.92</time>
      </trkpt>
      <trkpt lat="44.41546" lon="5.90709">
        <ele>1240.5</ele>
        <time>2010-09-19T13:58:06.89</time>
      </trkpt>
      <trkpt lat="44.41543" lon="5.90723">
        <ele>1245</ele>
        <time>2010-09-19T13:58:16.86</time>
      </trkpt>
      <trkpt lat="44.41535" lon="5.90736">
        <ele>1248.5</ele>
        <time>2010-09-19T13:58:26.83</time>
      </trkpt>
      <trkpt lat="44.41526" lon="5.90746">
        <ele>1257.5</ele>
        <time>2010-09-19T13:58:36.81</time>
      </trkpt>
      <trkpt lat="44.41517" lon="5.90754">
        <ele>1262</ele>
        <time>2010-09-19T13:58:46.78</time>
      </trkpt>
      <trkpt lat="44.41506" lon="5.90762">
        <ele>1267.5</ele>
        <time>2010-09-19T13:58:57.76</time>
      </trkpt>
      <trkpt lat="44.41498" lon="5.90769">
        <ele>1274</ele>
        <time>2010-09-19T13:59:07.97</time>
      </trkpt>
      <trkpt lat="44.41486" lon="5.90782">
        <ele>1275</ele>
        <time>2010-09-19T13:59:17.84</time>
      </trkpt>
      <trkpt lat="44.41478" lon="5.90795">
        <ele>1275</ele>
        <time>2010-09-19T13:59:27.64</time>
      </trkpt>
      <trkpt lat="44.41472" lon="5.90807">
        <ele>1278.5</ele>
        <time>2010-09-19T13:59:37.60</time>
      </trkpt>
      <trkpt lat="44.41464" lon="5.90818">
        <ele>1285.5</ele>
        <time>2010-09-19T13:59:47.59</time>
      </trkpt>
      <trkpt lat="44.41454" lon="5.90826">
        <ele>1288</ele>
        <time>2010-09-19T13:59:57.62</time>
      </trkpt>
      <trkpt lat="44.41436" lon="5.90828">
        <ele>1277</ele>
        <time>2010-09-19T14:00:07.53</time>
      </trkpt>
      <trkpt lat="44.41419" lon="5.90828">
        <ele>1278.5</ele>
        <time>2010-09-19T14:00:17.72</time>
      </trkpt>
      <trkpt lat="44.41405" lon="5.9083">
        <ele>1282.5</ele>
        <time>2010-09-19T14:00:27.50</time>
      </trkpt>
      <trkpt lat="44.41388" lon="5.90835">
        <ele>1281.5</ele>
        <time>2010-09-19T14:00:37.47</time>
      </trkpt>
      <trkpt lat="44.4137" lon="5.90863">
        <ele>1283.5</ele>
        <time>2010-09-19T14:00:48.60</time>
      </trkpt>
      <trkpt lat="44.41359" lon="5.90892">
        <ele>1286</ele>
        <time>2010-09-19T14:00:58.40</time>
      </trkpt>
      <trkpt lat="44.41344" lon="5.90904">
        <ele>1287.5</ele>
        <time>2010-09-19T14:01:08.38</time>
      </trkpt>
      <trkpt lat="44.41345" lon="5.90883">
        <ele>1294</ele>
        <time>2010-09-19T14:01:18.36</time>
      </trkpt>
      <trkpt lat="44.41352" lon="5.90864">
        <ele>1298</ele>
        <time>2010-09-19T14:01:28.34</time>
      </trkpt>
      <trkpt lat="44.41358" lon="5.90848">
        <ele>1304</ele>
        <time>2010-09-19T14:01:38.30</time>
      </trkpt>
      <trkpt lat="44.41361" lon="5.90828">
        <ele>1303.5</ele>
        <time>2010-09-19T14:01:48.26</time>
      </trkpt>
      <trkpt lat="44.41368" lon="5.90812">
        <ele>1305.5</ele>
        <time>2010-09-19T14:01:58.22</time>
      </trkpt>
      <trkpt lat="44.4138" lon="5.90797">
        <ele>1305.5</ele>
        <time>2010-09-19T14:02:09.22</time>
      </trkpt>
      <trkpt lat="44.41389" lon="5.90781">
        <ele>1303.5</ele>
        <time>2010-09-19T14:02:19.13</time>
      </trkpt>
      <trkpt lat="44.41403" lon="5.90773">
        <ele>1302</ele>
        <time>2010-09-19T14:02:29.08</time>
      </trkpt>
      <trkpt lat="44.41412" lon="5.9076">
        <ele>1302.5</ele>
        <time>2010-09-19T14:02:39.05</time>
      </trkpt>
      <trkpt lat="44.41415" lon="5.90744">
        <ele>1305.5</ele>
        <time>2010-09-19T14:02:49.10</time>
      </trkpt>
      <trkpt lat="44.41418" lon="5.90727">
        <ele>1308.5</ele>
        <time>2010-09-19T14:02:59.00</time>
      </trkpt>
      <trkpt lat="44.41425" lon="5.9071">
        <ele>1310.5</ele>
        <time>2010-09-19T14:03:09.16</time>
      </trkpt>
      <trkpt lat="44.41432" lon="5.90695">
        <ele>1317</ele>
        <time>2010-09-19T14:03:18.93</time>
      </trkpt>
      <trkpt lat="44.41442" lon="5.9068">
        <ele>1319.5</ele>
        <time>2010-09-19T14:03:28.87</time>
      </trkpt>
      <trkpt lat="44.41452" lon="5.90662">
        <ele>1321</ele>
        <time>2010-09-19T14:03:38.85</time>
      </trkpt>
      <trkpt lat="44.41463" lon="5.90644">
        <ele>1324.5</ele>
        <time>2010-09-19T14:03:48.82</time>
      </trkpt>
      <trkpt lat="44.41472" lon="5.90623">
        <ele>1328</ele>
        <time>2010-09-19T14:03:58.80</time>
      </trkpt>
      <trkpt lat="44.41485" lon="5.90594">
        <ele>1326.5</ele>
        <time>2010-09-19T14:04:08.91</time>
      </trkpt>
      <trkpt lat="44.415" lon="5.90569">
        <ele>1324</ele>
        <time>2010-09-19T14:04:18.72</time>
      </trkpt>
      <trkpt lat="44.41508" lon="5.90546">
        <ele>1326.5</ele>
        <time>2010-09-19T14:04:28.92</time>
      </trkpt>
      <trkpt lat="44.41513" lon="5.90521">
        <ele>1327.5</ele>
        <time>2010-09-19T14:04:38.63</time>
      </trkpt>
      <trkpt lat="44.41512" lon="5.90497">
        <ele>1327.5</ele>
        <time>2010-09-19T14:04:49.60</time>
      </trkpt>
      <trkpt lat="44.41501" lon="5.90497">
        <ele>1329</ele>
        <time>2010-09-19T14:04:59.55</time>
      </trkpt>
      <trkpt lat="44.41492" lon="5.9051">
        <ele>1330</ele>
        <time>2010-09-19T14:05:09.52</time>
      </trkpt>
      <trkpt lat="44.41483" lon="5.90523">
        <ele>1328.5</ele>
        <time>2010-09-19T14:05:19.47</time>
      </trkpt>
      <trkpt lat="44.4147" lon="5.90539">
        <ele>1330</ele>
        <time>2010-09-19T14:05:29.45</time>
      </trkpt>
      <trkpt lat="44.41456" lon="5.90557">
        <ele>1332</ele>
        <time>2010-09-19T14:05:39.43</time>
      </trkpt>
      <trkpt lat="44.41448" lon="5.90564">
        <ele>1334.5</ele>
        <time>2010-09-19T14:06:56.40</time>
      </trkpt>
      <trkpt lat="44.41439" lon="5.90582">
        <ele>1334</ele>
        <time>2010-09-19T14:07:06.37</time>
      </trkpt>
      <trkpt lat="44.41432" lon="5.90602">
        <ele>1335</ele>
        <time>2010-09-19T14:07:16.34</time>
      </trkpt>
      <trkpt lat="44.41423" lon="5.90616">
        <ele>1339</ele>
        <time>2010-09-19T14:07:26.30</time>
      </trkpt>
      <trkpt lat="44.41412" lon="5.90622">
        <ele>1341</ele>
        <time>2010-09-19T14:07:36.26</time>
      </trkpt>
      <trkpt lat="44.41398" lon="5.90625">
        <ele>1341.5</ele>
        <time>2010-09-19T14:07:46.21</time>
      </trkpt>
      <trkpt lat="44.41385" lon="5.90626">
        <ele>1339.5</ele>
        <time>2010-09-19T14:07:56.19</time>
      </trkpt>
      <trkpt lat="44.4137" lon="5.90649">
        <ele>1341</ele>
        <time>2010-09-19T14:08:06.13</time>
      </trkpt>
      <trkpt lat="44.41366" lon="5.90677">
        <ele>1350</ele>
        <time>2010-09-19T14:08:16.07</time>
      </trkpt>
      <trkpt lat="44.41355" lon="5.90706">
        <ele>1354</ele>
        <time>2010-09-19T14:08:26.15</time>
      </trkpt>
      <trkpt lat="44.41345" lon="5.90729">
        <ele>1350.5</ele>
        <time>2010-09-19T14:08:36.00</time>
      </trkpt>
      <trkpt lat="44.41331" lon="5.90747">
        <ele>1351.5</ele>
        <time>2010-09-19T14:08:46.94</time>
      </trkpt>
      <trkpt lat="44.41308" lon="5.90754">
        <ele>1343</ele>
        <time>2010-09-19T14:08:58.91</time>
      </trkpt>
      <trkpt lat="44.41293" lon="5.90756">
        <ele>1343.5</ele>
        <time>2010-09-19T14:09:08.86</time>
      </trkpt>
      <trkpt lat="44.4128" lon="5.90759">
        <ele>1346</ele>
        <time>2010-09-19T14:09:18.82</time>
      </trkpt>
      <trkpt lat="44.41267" lon="5.90764">
        <ele>1350</ele>
        <time>2010-09-19T14:09:28.80</time>
      </trkpt>
      <trkpt lat="44.41255" lon="5.90768">
        <ele>1353.5</ele>
        <time>2010-09-19T14:09:38.76</time>
      </trkpt>
      <trkpt lat="44.41245" lon="5.90768">
        <ele>1352.5</ele>
        <time>2010-09-19T14:09:48.74</time>
      </trkpt>
      <trkpt lat="44.41234" lon="5.9077">
        <ele>1360</ele>
        <time>2010-09-19T14:09:58.71</time>
      </trkpt>
      <trkpt lat="44.41221" lon="5.90771">
        <ele>1360</ele>
        <time>2010-09-19T14:10:08.67</time>
      </trkpt>
      <trkpt lat="44.41211" lon="5.90775">
        <ele>1357</ele>
        <time>2010-09-19T14:10:18.65</time>
      </trkpt>
      <trkpt lat="44.41202" lon="5.90785">
        <ele>1356.5</ele>
        <time>2010-09-19T14:10:28.62</time>
      </trkpt>
      <trkpt lat="44.41194" lon="5.90796">
        <ele>1358</ele>
        <time>2010-09-19T14:10:38.59</time>
      </trkpt>
      <trkpt lat="44.41184" lon="5.90805">
        <ele>1360.5</ele>
        <time>2010-09-19T14:10:48.58</time>
      </trkpt>
      <trkpt lat="44.41178" lon="5.90818">
        <ele>1362.5</ele>
        <time>2010-09-19T14:10:58.55</time>
      </trkpt>
      <trkpt lat="44.41173" lon="5.90834">
        <ele>1366</ele>
        <time>2010-09-19T14:11:08.51</time>
      </trkpt>
      <trkpt lat="44.41175" lon="5.90848">
        <ele>1368.5</ele>
        <time>2010-09-19T14:11:18.48</time>
      </trkpt>
      <trkpt lat="44.41166" lon="5.9086">
        <ele>1367.5</ele>
        <time>2010-09-19T14:11:28.45</time>
      </trkpt>
      <trkpt lat="44.41155" lon="5.9087">
        <ele>1368.5</ele>
        <time>2010-09-19T14:11:38.41</time>
      </trkpt>
      <trkpt lat="44.41147" lon="5.90881">
        <ele>1369</ele>
        <time>2010-09-19T14:11:48.38</time>
      </trkpt>
      <trkpt lat="44.4114" lon="5.90894">
        <ele>1372</ele>
        <time>2010-09-19T14:11:58.55</time>
      </trkpt>
      <trkpt lat="44.41136" lon="5.90908">
        <ele>1374</ele>
        <time>2010-09-19T14:12:08.30</time>
      </trkpt>
      <trkpt lat="44.41131" lon="5.90922">
        <ele>1377</ele>
        <time>2010-09-19T14:12:18.26</time>
      </trkpt>
      <trkpt lat="44.41126" lon="5.90936">
        <ele>1379</ele>
        <time>2010-09-19T14:12:28.23</time>
      </trkpt>
      <trkpt lat="44.41119" lon="5.90949">
        <ele>1380.5</ele>
        <time>2010-09-19T14:12:38.20</time>
      </trkpt>
      <trkpt lat="44.41111" lon="5.90962">
        <ele>1381</ele>
        <time>2010-09-19T14:12:48.17</time>
      </trkpt>
      <trkpt lat="44.41103" lon="5.90975">
        <ele>1382.5</ele>
        <time>2010-09-19T14:12:58.15</time>
      </trkpt>
      <trkpt lat="44.41094" lon="5.90989">
        <ele>1384</ele>
        <time>2010-09-19T14:13:08.13</time>
      </trkpt>
      <trkpt lat="44.41087" lon="5.91002">
        <ele>1385.5</ele>
        <time>2010-09-19T14:13:18.09</time>
      </trkpt>
      <trkpt lat="44.4108" lon="5.91015">
        <ele>1388</ele>
        <time>2010-09-19T14:13:28.06</time>
      </trkpt>
      <trkpt lat="44.41073" lon="5.91028">
        <ele>1389.5</ele>
        <time>2010-09-19T14:13:38.03</time>
      </trkpt>
      <trkpt lat="44.41066" lon="5.91039">
        <ele>1389</ele>
        <time>2010-09-19T14:13:48.01</time>
      </trkpt>
      <trkpt lat="44.41057" lon="5.91051">
        <ele>1389</ele>
        <time>2010-09-19T14:13:57.97</time>
      </trkpt>
      <trkpt lat="44.4105" lon="5.91063">
        <ele>1388</ele>
        <time>2010-09-19T14:14:07.94</time>
      </trkpt>
      <trkpt lat="44.41044" lon="5.91075">
        <ele>1386.5</ele>
        <time>2010-09-19T14:14:17.90</time>
      </trkpt>
      <trkpt lat="44.41038" lon="5.91086">
        <ele>1387.5</ele>
        <time>2010-09-19T14:14:27.88</time>
      </trkpt>
      <trkpt lat="44.41034" lon="5.91099">
        <ele>1389.5</ele>
        <time>2010-09-19T14:14:37.84</time>
      </trkpt>
      <trkpt lat="44.41031" lon="5.91113">
        <ele>1395</ele>
        <time>2010-09-19T14:14:47.79</time>
      </trkpt>
      <trkpt lat="44.41028" lon="5.91128">
        <ele>1398.5</ele>
        <time>2010-09-19T14:14:57.75</time>
      </trkpt>
      <trkpt lat="44.41021" lon="5.91141">
        <ele>1394</ele>
        <time>2010-09-19T14:15:07.72</time>
      </trkpt>
      <trkpt lat="44.41017" lon="5.91147">
        <ele>1394.5</ele>
        <time>2010-09-19T14:15:20.81</time>
      </trkpt>
      <trkpt lat="44.41012" lon="5.91151">
        <ele>1400.5</ele>
        <time>2010-09-19T14:16:08.63</time>
      </trkpt>
      <trkpt lat="44.41008" lon="5.91149">
        <ele>1403</ele>
        <time>2010-09-19T14:16:30.61</time>
      </trkpt>
      <trkpt lat="44.41009" lon="5.91153">
        <ele>1404.5</ele>
        <time>2010-09-19T14:17:13.55</time>
      </trkpt>
      <trkpt lat="44.41013" lon="5.9115">
        <ele>1407</ele>
        <time>2010-09-19T14:17:54.52</time>
      </trkpt>
      <trkpt lat="44.41011" lon="5.91146">
        <ele>1409</ele>
        <time>2010-09-19T14:21:06.47</time>
      </trkpt>
      <trkpt lat="44.41013" lon="5.91152">
        <ele>1408</ele>
        <time>2010-09-19T14:23:55.43</time>
      </trkpt>
      <trkpt lat="44.41011" lon="5.91147">
        <ele>1415.5</ele>
        <time>2010-09-19T14:40:25.36</time>
      </trkpt>
      <trkpt lat="44.41014" lon="5.9115">
        <ele>1406.5</ele>
        <time>2010-09-19T14:50:04.30</time>
      </trkpt>
      <trkpt lat="44.41017" lon="5.91154">
        <ele>1397.5</ele>
        <time>2010-09-19T14:51:35.25</time>
      </trkpt>
      <trkpt lat="44.4101" lon="5.91148">
        <ele>1415</ele>
        <time>2010-09-19T14:54:11.22</time>
      </trkpt>
      <trkpt lat="44.41016" lon="5.91148">
        <ele>1409.5</ele>
        <time>2010-09-19T14:56:49.16</time>
      </trkpt>
      <trkpt lat="44.41024" lon="5.91142">
        <ele>1414.5</ele>
        <time>2010-09-19T14:58:41.12</time>
      </trkpt>
      <trkpt lat="44.41021" lon="5.91141">
        <ele>1417</ele>
        <time>2010-09-19T14:59:12.31</time>
      </trkpt>
      <trkpt lat="44.41024" lon="5.91148">
        <ele>1406</ele>
        <time>2010-09-19T15:01:50.02</time>
      </trkpt>
      <trkpt lat="44.41017" lon="5.91152">
        <ele>1405</ele>
        <time>2010-09-19T15:02:49.97</time>
      </trkpt>
      <trkpt lat="44.41005" lon="5.91139">
        <ele>1404</ele>
        <time>2010-09-19T15:02:59.93</time>
      </trkpt>
      <trkpt lat="44.40981" lon="5.91078">
        <ele>1399</ele>
        <time>2010-09-19T15:03:10.88</time>
      </trkpt>
      <trkpt lat="44.40936" lon="5.91034">
        <ele>1395.5</ele>
        <time>2010-09-19T15:03:22.82</time>
      </trkpt>
      <trkpt lat="44.40916" lon="5.91002">
        <ele>1394</ele>
        <time>2010-09-19T15:03:32.80</time>
      </trkpt>
      <trkpt lat="44.40902" lon="5.90932">
        <ele>1389.5</ele>
        <time>2010-09-19T15:03:42.76</time>
      </trkpt>
      <trkpt lat="44.40873" lon="5.90859">
        <ele>1383.5</ele>
        <time>2010-09-19T15:04:15.48</time>
      </trkpt>
      <trkpt lat="44.4085" lon="5.90732">
        <ele>1371</ele>
        <time>2010-09-19T15:04:25.27</time>
      </trkpt>
      <trkpt lat="44.40839" lon="5.90638">
        <ele>1360</ele>
        <time>2010-09-19T15:04:35.25</time>
      </trkpt>
      <trkpt lat="44.40824" lon="5.90556">
        <ele>1352</ele>
        <time>2010-09-19T15:04:45.20</time>
      </trkpt>
      <trkpt lat="44.40819" lon="5.90524">
        <ele>1353</ele>
        <time>2010-09-19T15:04:56.16</time>
      </trkpt>
      <trkpt lat="44.40813" lon="5.90516">
        <ele>1350.5</ele>
        <time>2010-09-19T15:05:08.13</time>
      </trkpt>
      <trkpt lat="44.40811" lon="5.90508">
        <ele>1347.5</ele>
        <time>2010-09-19T15:05:24.09</time>
      </trkpt>
      <trkpt lat="44.40815" lon="5.9055">
        <ele>1341.5</ele>
        <time>2010-09-19T15:05:35.04</time>
      </trkpt>
      <trkpt lat="44.4079" lon="5.90596">
        <ele>1333.5</ele>
        <time>2010-09-19T15:05:48.01</time>
      </trkpt>
      <trkpt lat="44.40767" lon="5.90646">
        <ele>1329.5</ele>
        <time>2010-09-19T15:05:58.96</time>
      </trkpt>
      <trkpt lat="44.4075" lon="5.90647">
        <ele>1323</ele>
        <time>2010-09-19T15:06:09.93</time>
      </trkpt>
      <trkpt lat="44.40737" lon="5.9067">
        <ele>1308</ele>
        <time>2010-09-19T15:06:20.89</time>
      </trkpt>
      <trkpt lat="44.4073" lon="5.90706">
        <ele>1304.5</ele>
        <time>2010-09-19T15:06:30.93</time>
      </trkpt>
      <trkpt lat="44.4073" lon="5.90751">
        <ele>1307</ele>
        <time>2010-09-19T15:06:42.78</time>
      </trkpt>
      <trkpt lat="44.40717" lon="5.90798">
        <ele>1307.5</ele>
        <time>2010-09-19T15:06:53.73</time>
      </trkpt>
      <trkpt lat="44.40707" lon="5.90844">
        <ele>1297.5</ele>
        <time>2010-09-19T15:07:03.65</time>
      </trkpt>
      <trkpt lat="44.40698" lon="5.9085">
        <ele>1294.5</ele>
        <time>2010-09-19T15:07:15.62</time>
      </trkpt>
      <trkpt lat="44.40677" lon="5.908">
        <ele>1279.5</ele>
        <time>2010-09-19T15:07:30.57</time>
      </trkpt>
      <trkpt lat="44.40674" lon="5.90803">
        <ele>1262.5</ele>
        <time>2010-09-19T15:07:52.51</time>
      </trkpt>
      <trkpt lat="44.40666" lon="5.90794">
        <ele>1254.5</ele>
        <time>2010-09-19T15:08:26.46</time>
      </trkpt>
      <trkpt lat="44.40667" lon="5.90801">
        <ele>1242.5</ele>
        <time>2010-09-19T15:09:16.36</time>
      </trkpt>
      <trkpt lat="44.40668" lon="5.90835">
        <ele>1241</ele>
        <time>2010-09-19T15:09:27.33</time>
      </trkpt>
      <trkpt lat="44.40675" lon="5.90878">
        <ele>1238.5</ele>
        <time>2010-09-19T15:09:39.28</time>
      </trkpt>
      <trkpt lat="44.40649" lon="5.90917">
        <ele>1234</ele>
        <time>2010-09-19T15:09:50.29</time>
      </trkpt>
      <trkpt lat="44.40635" lon="5.90964">
        <ele>1230.5</ele>
        <time>2010-09-19T15:10:00.19</time>
      </trkpt>
      <trkpt lat="44.40627" lon="5.90991">
        <ele>1216</ele>
        <time>2010-09-19T15:10:11.16</time>
      </trkpt>
      <trkpt lat="44.40616" lon="5.90966">
        <ele>1207</ele>
        <time>2010-09-19T15:10:22.11</time>
      </trkpt>
      <trkpt lat="44.40606" lon="5.90989">
        <ele>1206.5</ele>
        <time>2010-09-19T15:10:32.09</time>
      </trkpt>
      <trkpt lat="44.40594" lon="5.9099">
        <ele>1195.5</ele>
        <time>2010-09-19T15:10:43.05</time>
      </trkpt>
      <trkpt lat="44.40569" lon="5.91004">
        <ele>1187.5</ele>
        <time>2010-09-19T15:10:55.99</time>
      </trkpt>
      <trkpt lat="44.4055" lon="5.91008">
        <ele>1186</ele>
        <time>2010-09-19T15:11:07.94</time>
      </trkpt>
      <trkpt lat="44.40524" lon="5.91003">
        <ele>1181</ele>
        <time>2010-09-19T15:11:21.37</time>
      </trkpt>
      <trkpt lat="44.40522" lon="5.91001">
        <ele>1170</ele>
        <time>2010-09-19T15:11:46.32</time>
      </trkpt>
      <trkpt lat="44.40525" lon="5.91003">
        <ele>1167.5</ele>
        <time>2010-09-19T15:12:02.29</time>
      </trkpt>
      <trkpt lat="44.40526" lon="5.90998">
        <ele>1167</ele>
        <time>2010-09-19T15:12:12.37</time>
      </trkpt>
      <trkpt lat="44.40523" lon="5.90994">
        <ele>1165.5</ele>
        <time>2010-09-19T15:12:23.19</time>
      </trkpt>
      <trkpt lat="44.40505" lon="5.91002">
        <ele>1160.5</ele>
        <time>2010-09-19T15:12:44.37</time>
      </trkpt>
      <trkpt lat="44.40491" lon="5.91013">
        <ele>1157</ele>
        <time>2010-09-19T15:12:55.43</time>
      </trkpt>
      <trkpt lat="44.40473" lon="5.91005">
        <ele>1157</ele>
        <time>2010-09-19T15:13:07.46</time>
      </trkpt>
      <trkpt lat="44.40473" lon="5.90995">
        <ele>1157</ele>
        <time>2010-09-19T15:13:26.26</time>
      </trkpt>
      <trkpt lat="44.40473" lon="5.90985">
        <ele>1156.5</ele>
        <time>2010-09-19T15:14:16.38</time>
      </trkpt>
      <trkpt lat="44.40457" lon="5.90999">
        <ele>1156</ele>
        <time>2010-09-19T15:14:35.35</time>
      </trkpt>
      <trkpt lat="44.40455" lon="5.91026">
        <ele>1156</ele>
        <time>2010-09-19T15:14:48.30</time>
      </trkpt>
      <trkpt lat="44.40453" lon="5.91037">
        <ele>1156.5</ele>
        <time>2010-09-19T15:14:58.25</time>
      </trkpt>
      <trkpt lat="44.40453" lon="5.9105">
        <ele>1156.5</ele>
        <time>2010-09-19T15:15:08.33</time>
      </trkpt>
      <trkpt lat="44.40453" lon="5.91062">
        <ele>1156.5</ele>
        <time>2010-09-19T15:15:18.16</time>
      </trkpt>
      <trkpt lat="44.40465" lon="5.91085">
        <ele>1156.5</ele>
        <time>2010-09-19T15:15:40.36</time>
      </trkpt>
      <trkpt lat="44.40477" lon="5.91105">
        <ele>1156.5</ele>
        <time>2010-09-19T15:15:53.38</time>
      </trkpt>
      <trkpt lat="44.40448" lon="5.91114">
        <ele>1156.5</ele>
        <time>2010-09-19T15:16:15.35</time>
      </trkpt>
      <trkpt lat="44.40439" lon="5.91119">
        <ele>1156.5</ele>
        <time>2010-09-19T15:16:28.31</time>
      </trkpt>
      <trkpt lat="44.40438" lon="5.91129">
        <ele>1156</ele>
        <time>2010-09-19T15:16:39.26</time>
      </trkpt>
      <trkpt lat="44.40435" lon="5.91136">
        <ele>1156</ele>
        <time>2010-09-19T15:16:49.21</time>
      </trkpt>
      <trkpt lat="44.4043" lon="5.91146">
        <ele>1155</ele>
        <time>2010-09-19T15:16:59.20</time>
      </trkpt>
      <trkpt lat="44.40424" lon="5.91153">
        <ele>1152.5</ele>
        <time>2010-09-19T15:17:14.17</time>
      </trkpt>
      <trkpt lat="44.40422" lon="5.91162">
        <ele>1152.5</ele>
        <time>2010-09-19T15:17:28.15</time>
      </trkpt>
      <trkpt lat="44.40421" lon="5.91174">
        <ele>1150.5</ele>
        <time>2010-09-19T15:17:38.08</time>
      </trkpt>
      <trkpt lat="44.40418" lon="5.91186">
        <ele>1149.5</ele>
        <time>2010-09-19T15:17:48.03</time>
      </trkpt>
      <trkpt lat="44.40422" lon="5.91206">
        <ele>1146</ele>
        <time>2010-09-19T15:17:58.97</time>
      </trkpt>
      <trkpt lat="44.40422" lon="5.91218">
        <ele>1144</ele>
        <time>2010-09-19T15:18:08.95</time>
      </trkpt>
      <trkpt lat="44.40415" lon="5.91223">
        <ele>1143</ele>
        <time>2010-09-19T15:18:18.90</time>
      </trkpt>
      <trkpt lat="44.40414" lon="5.91237">
        <ele>1141</ele>
        <time>2010-09-19T15:18:29.86</time>
      </trkpt>
      <trkpt lat="44.40415" lon="5.91252">
        <ele>1139.5</ele>
        <time>2010-09-19T15:18:40.80</time>
      </trkpt>
      <trkpt lat="44.40409" lon="5.91256">
        <ele>1140</ele>
        <time>2010-09-19T15:18:51.76</time>
      </trkpt>
      <trkpt lat="44.40378" lon="5.91249">
        <ele>1139</ele>
        <time>2010-09-19T15:19:05.73</time>
      </trkpt>
      <trkpt lat="44.40365" lon="5.91251">
        <ele>1138.5</ele>
        <time>2010-09-19T15:19:15.71</time>
      </trkpt>
      <trkpt lat="44.4036" lon="5.91254">
        <ele>1138</ele>
        <time>2010-09-19T15:19:33.66</time>
      </trkpt>
      <trkpt lat="44.40351" lon="5.91251">
        <ele>1153</ele>
        <time>2010-09-19T15:20:13.62</time>
      </trkpt>
      <trkpt lat="44.40338" lon="5.91258">
        <ele>1157</ele>
        <time>2010-09-19T15:20:50.57</time>
      </trkpt>
      <trkpt lat="44.40336" lon="5.91268">
        <ele>1155</ele>
        <time>2010-09-19T15:21:03.54</time>
      </trkpt>
      <trkpt lat="44.40324" lon="5.91289">
        <ele>1150</ele>
        <time>2010-09-19T15:21:14.50</time>
      </trkpt>
      <trkpt lat="44.4031" lon="5.91292">
        <ele>1145.5</ele>
        <time>2010-09-19T15:21:26.46</time>
      </trkpt>
      <trkpt lat="44.40307" lon="5.91294">
        <ele>1146.5</ele>
        <time>2010-09-19T15:21:39.42</time>
      </trkpt>
      <trkpt lat="44.40307" lon="5.91296">
        <ele>1139.5</ele>
        <time>2010-09-19T15:22:24.37</time>
      </trkpt>
      <trkpt lat="44.40305" lon="5.91283">
        <ele>1139</ele>
        <time>2010-09-19T15:22:34.35</time>
      </trkpt>
      <trkpt lat="44.40292" lon="5.91292">
        <ele>1135.5</ele>
        <time>2010-09-19T15:22:44.33</time>
      </trkpt>
      <trkpt lat="44.40294" lon="5.91271">
        <ele>1131</ele>
        <time>2010-09-19T15:22:54.30</time>
      </trkpt>
      <trkpt lat="44.40281" lon="5.91286">
        <ele>1126.5</ele>
        <time>2010-09-19T15:23:04.28</time>
      </trkpt>
      <trkpt lat="44.40273" lon="5.91313">
        <ele>1121</ele>
        <time>2010-09-19T15:23:14.26</time>
      </trkpt>
      <trkpt lat="44.40264" lon="5.91321">
        <ele>1119.5</ele>
        <time>2010-09-19T15:23:24.22</time>
      </trkpt>
      <trkpt lat="44.40259" lon="5.91297">
        <ele>1116</ele>
        <time>2010-09-19T15:23:34.21</time>
      </trkpt>
      <trkpt lat="44.4026" lon="5.91274">
        <ele>1118</ele>
        <time>2010-09-19T15:23:44.17</time>
      </trkpt>
      <trkpt lat="44.40264" lon="5.9125">
        <ele>1116.5</ele>
        <time>2010-09-19T15:23:54.14</time>
      </trkpt>
      <trkpt lat="44.40248" lon="5.91267">
        <ele>1110.5</ele>
        <time>2010-09-19T15:24:04.11</time>
      </trkpt>
      <trkpt lat="44.40238" lon="5.91279">
        <ele>1109.5</ele>
        <time>2010-09-19T15:24:14.08</time>
      </trkpt>
      <trkpt lat="44.40225" lon="5.913">
        <ele>1107.5</ele>
        <time>2010-09-19T15:24:24.05</time>
      </trkpt>
      <trkpt lat="44.40194" lon="5.91322">
        <ele>1094.5</ele>
        <time>2010-09-19T15:24:34.01</time>
      </trkpt>
      <trkpt lat="44.40178" lon="5.91321">
        <ele>1085</ele>
        <time>2010-09-19T15:24:58.00</time>
      </trkpt>
      <trkpt lat="44.40175" lon="5.91312">
        <ele>1080.5</ele>
        <time>2010-09-19T15:25:13.95</time>
      </trkpt>
      <trkpt lat="44.40168" lon="5.91313">
        <ele>1081.5</ele>
        <time>2010-09-19T15:25:31.90</time>
      </trkpt>
      <trkpt lat="44.40154" lon="5.91326">
        <ele>1073</ele>
        <time>2010-09-19T15:26:14.86</time>
      </trkpt>
      <trkpt lat="44.40132" lon="5.91337">
        <ele>1067</ele>
        <time>2010-09-19T15:26:25.82</time>
      </trkpt>
      <trkpt lat="44.40124" lon="5.9135">
        <ele>1063.5</ele>
        <time>2010-09-19T15:26:37.78</time>
      </trkpt>
      <trkpt lat="44.40123" lon="5.91374">
        <ele>1057.5</ele>
        <time>2010-09-19T15:26:47.74</time>
      </trkpt>
      <trkpt lat="44.40117" lon="5.91374">
        <ele>1054</ele>
        <time>2010-09-19T15:26:57.70</time>
      </trkpt>
      <trkpt lat="44.40111" lon="5.91382">
        <ele>1052.5</ele>
        <time>2010-09-19T15:27:27.66</time>
      </trkpt>
      <trkpt lat="44.40108" lon="5.91387">
        <ele>1044</ele>
        <time>2010-09-19T15:28:30.82</time>
      </trkpt>
      <trkpt lat="44.40097" lon="5.91398">
        <ele>1040.5</ele>
        <time>2010-09-19T15:28:40.56</time>
      </trkpt>
      <trkpt lat="44.40091" lon="5.91396">
        <ele>1040</ele>
        <time>2010-09-19T15:28:55.54</time>
      </trkpt>
      <trkpt lat="44.40087" lon="5.91399">
        <ele>1035.5</ele>
        <time>2010-09-19T15:29:23.50</time>
      </trkpt>
      <trkpt lat="44.40068" lon="5.91397">
        <ele>1030</ele>
        <time>2010-09-19T15:29:39.47</time>
      </trkpt>
      <trkpt lat="44.40045" lon="5.91403">
        <ele>1021</ele>
        <time>2010-09-19T15:29:49.38</time>
      </trkpt>
      <trkpt lat="44.40026" lon="5.91411">
        <ele>1013</ele>
        <time>2010-09-19T15:30:00.35</time>
      </trkpt>
      <trkpt lat="44.40005" lon="5.91407">
        <ele>1005</ele>
        <time>2010-09-19T15:30:11.30</time>
      </trkpt>
      <trkpt lat="44.40002" lon="5.91404">
        <ele>1002.5</ele>
        <time>2010-09-19T15:31:40.25</time>
      </trkpt>
      <trkpt lat="44.39996" lon="5.91399">
        <ele>1004.5</ele>
        <time>2010-09-19T15:35:04.21</time>
      </trkpt>
      <trkpt lat="44.39972" lon="5.91401">
        <ele>996</ele>
        <time>2010-09-19T15:35:14.16</time>
      </trkpt>
      <trkpt lat="44.39944" lon="5.91412">
        <ele>987.5</ele>
        <time>2010-09-19T15:35:25.10</time>
      </trkpt>
      <trkpt lat="44.3992" lon="5.91437">
        <ele>975.5</ele>
        <time>2010-09-19T15:35:35.09</time>
      </trkpt>
      <trkpt lat="44.3989" lon="5.91435">
        <ele>963.5</ele>
        <time>2010-09-19T15:35:46.02</time>
      </trkpt>
      <trkpt lat="44.39863" lon="5.91406">
        <ele>949</ele>
        <time>2010-09-19T15:35:55.99</time>
      </trkpt>
      <trkpt lat="44.39817" lon="5.91382">
        <ele>946.5</ele>
        <time>2010-09-19T15:36:05.96</time>
      </trkpt>
      <trkpt lat="44.39769" lon="5.91339">
        <ele>933</ele>
        <time>2010-09-19T15:36:16.92</time>
      </trkpt>
      <trkpt lat="44.39739" lon="5.91337">
        <ele>925.5</ele>
        <time>2010-09-19T15:36:27.03</time>
      </trkpt>
      <trkpt lat="44.39716" lon="5.91314">
        <ele>912.5</ele>
        <time>2010-09-19T15:36:36.81</time>
      </trkpt>
      <trkpt lat="44.39693" lon="5.91258">
        <ele>897.5</ele>
        <time>2010-09-19T15:36:46.77</time>
      </trkpt>
      <trkpt lat="44.39669" lon="5.91214">
        <ele>884.5</ele>
        <time>2010-09-19T15:37:41.73</time>
      </trkpt>
      <trkpt lat="44.39664" lon="5.91199">
        <ele>890</ele>
        <time>2010-09-19T15:40:49.68</time>
      </trkpt>
      <trkpt lat="44.3966" lon="5.91165">
        <ele>881</ele>
        <time>2010-09-19T15:40:59.65</time>
      </trkpt>
      <trkpt lat="44.39656" lon="5.91136">
        <ele>871.5</ele>
        <time>2010-09-19T15:41:09.62</time>
      </trkpt>
      <trkpt lat="44.39654" lon="5.91104">
        <ele>865</ele>
        <time>2010-09-19T15:41:19.56</time>
      </trkpt>
      <trkpt lat="44.39649" lon="5.91095">
        <ele>865.5</ele>
        <time>2010-09-19T15:41:56.52</time>
      </trkpt>
      <trkpt lat="44.3964" lon="5.91084">
        <ele>859.5</ele>
        <time>2010-09-19T15:42:07.49</time>
      </trkpt>
      <trkpt lat="44.39635" lon="5.91059">
        <ele>848</ele>
        <time>2010-09-19T15:42:17.45</time>
      </trkpt>
      <trkpt lat="44.39642" lon="5.91032">
        <ele>838.5</ele>
        <time>2010-09-19T15:42:27.41</time>
      </trkpt>
      <trkpt lat="44.39647" lon="5.91001">
        <ele>834</ele>
        <time>2010-09-19T15:42:37.35</time>
      </trkpt>
      <trkpt lat="44.3965" lon="5.90979">
        <ele>829</ele>
        <time>2010-09-19T15:42:52.32</time>
      </trkpt>
      <trkpt lat="44.39649" lon="5.90941">
        <ele>822.5</ele>
        <time>2010-09-19T15:43:02.27</time>
      </trkpt>
      <trkpt lat="44.39628" lon="5.9089">
        <ele>817</ele>
        <time>2010-09-19T15:43:12.23</time>
      </trkpt>
      <trkpt lat="44.39619" lon="5.90876">
        <ele>818</ele>
        <time>2010-09-19T15:45:18.20</time>
      </trkpt>
      <trkpt lat="44.39622" lon="5.90874">
        <ele>807</ele>
        <time>2010-09-19T15:47:40.15</time>
      </trkpt>
      <trkpt lat="44.39616" lon="5.90872">
        <ele>805.5</ele>
        <time>2010-09-19T15:47:52.10</time>
      </trkpt>
      <trkpt lat="44.39613" lon="5.90867">
        <ele>811</ele>
        <time>2010-09-19T15:48:07.06</time>
      </trkpt>
      <trkpt lat="44.39614" lon="5.90872">
        <ele>806.5</ele>
        <time>2010-09-19T15:48:23.02</time>
      </trkpt>
      <trkpt lat="44.39621" lon="5.9087">
        <ele>808</ele>
        <time>2010-09-19T15:50:10.97</time>
      </trkpt>
      <trkpt lat="44.39604" lon="5.90869">
        <ele>808.5</ele>
        <time>2010-09-19T15:52:30.93</time>
      </trkpt>
      <trkpt lat="44.39578" lon="5.90859">
        <ele>804.5</ele>
        <time>2010-09-19T15:52:40.89</time>
      </trkpt>
      <trkpt lat="44.39558" lon="5.90852">
        <ele>801</ele>
        <time>2010-09-19T15:52:50.86</time>
      </trkpt>
      <trkpt lat="44.3954" lon="5.90873">
        <ele>797.5</ele>
        <time>2010-09-19T15:53:00.82</time>
      </trkpt>
      <trkpt lat="44.39525" lon="5.9088">
        <ele>796</ele>
        <time>2010-09-19T15:53:24.79</time>
      </trkpt>
      <trkpt lat="44.39483" lon="5.90888">
        <ele>790.5</ele>
        <time>2010-09-19T15:53:34.74</time>
      </trkpt>
      <trkpt lat="44.39418" lon="5.90887">
        <ele>783</ele>
        <time>2010-09-19T15:53:44.68</time>
      </trkpt>
      <trkpt lat="44.39343" lon="5.90888">
        <ele>773.5</ele>
        <time>2010-09-19T15:53:54.66</time>
      </trkpt>
      <trkpt lat="44.39261" lon="5.90896">
        <ele>764.5</ele>
        <time>2010-09-19T15:54:05.61</time>
      </trkpt>
      <trkpt lat="44.3919" lon="5.909">
        <ele>754</ele>
        <time>2010-09-19T15:54:15.58</time>
      </trkpt>
      <trkpt lat="44.39156" lon="5.90862">
        <ele>750.5</ele>
        <time>2010-09-19T15:54:25.52</time>
      </trkpt>
      <trkpt lat="44.39103" lon="5.90833">
        <ele>750.5</ele>
        <time>2010-09-19T15:54:35.47</time>
      </trkpt>
      <trkpt lat="44.39055" lon="5.90773">
        <ele>747</ele>
        <time>2010-09-19T15:54:45.44</time>
      </trkpt>
      <trkpt lat="44.39027" lon="5.9069">
        <ele>743.5</ele>
        <time>2010-09-19T15:54:55.41</time>
      </trkpt>
      <trkpt lat="44.39008" lon="5.90684">
        <ele>746</ele>
        <time>2010-09-19T15:55:05.37</time>
      </trkpt>
      <trkpt lat="44.38992" lon="5.9068">
        <ele>746</ele>
        <time>2010-09-19T15:55:15.33</time>
      </trkpt>
      <trkpt lat="44.39002" lon="5.90675">
        <ele>747</ele>
        <time>2010-09-19T15:55:25.30</time>
      </trkpt>
      <trkpt lat="44.39015" lon="5.90665">
        <ele>747</ele>
        <time>2010-09-19T15:55:35.29</time>
      </trkpt>
      <trkpt lat="44.39026" lon="5.90652">
        <ele>748</ele>
        <time>2010-09-19T15:55:45.25</time>
      </trkpt>
      <trkpt lat="44.39037" lon="5.90639">
        <ele>749.5</ele>
        <time>2010-09-19T15:55:55.24</time>
      </trkpt>
      <trkpt lat="44.39047" lon="5.90626">
        <ele>750</ele>
        <time>2010-09-19T15:56:05.21</time>
      </trkpt>
      <trkpt lat="44.39058" lon="5.90612">
        <ele>752.5</ele>
        <time>2010-09-19T15:56:15.17</time>
      </trkpt>
      <trkpt lat="44.39067" lon="5.90597">
        <ele>755.5</ele>
        <time>2010-09-19T15:56:25.14</time>
      </trkpt>
      <trkpt lat="44.39072" lon="5.90581">
        <ele>757</ele>
        <time>2010-09-19T15:56:35.08</time>
      </trkpt>
      <trkpt lat="44.39077" lon="5.90565">
        <ele>758.5</ele>
        <time>2010-09-19T15:56:45.06</time>
      </trkpt>
      <trkpt lat="44.39081" lon="5.90548">
        <ele>761</ele>
        <time>2010-09-19T15:56:55.05</time>
      </trkpt>
      <trkpt lat="44.39086" lon="5.9053">
        <ele>763</ele>
        <time>2010-09-19T15:57:05.02</time>
      </trkpt>
      <trkpt lat="44.39091" lon="5.90511">
        <ele>764</ele>
        <time>2010-09-19T15:57:15.00</time>
      </trkpt>
      <trkpt lat="44.39095" lon="5.90491">
        <ele>765.5</ele>
        <time>2010-09-19T15:57:24.97</time>
      </trkpt>
      <trkpt lat="44.39098" lon="5.9047">
        <ele>765.5</ele>
        <time>2010-09-19T15:57:34.93</time>
      </trkpt>
      <trkpt lat="44.39102" lon="5.9045">
        <ele>768</ele>
        <time>2010-09-19T15:57:45.08</time>
      </trkpt>
      <trkpt lat="44.39106" lon="5.90429">
        <ele>769.5</ele>
        <time>2010-09-19T15:57:54.85</time>
      </trkpt>
      <trkpt lat="44.39112" lon="5.90414">
        <ele>771</ele>
        <time>2010-09-19T15:58:04.80</time>
      </trkpt>
      <trkpt lat="44.39117" lon="5.904">
        <ele>773.5</ele>
        <time>2010-09-19T15:58:14.76</time>
      </trkpt>
      <trkpt lat="44.39121" lon="5.90384">
        <ele>774.5</ele>
        <time>2010-09-19T15:58:24.71</time>
      </trkpt>
      <trkpt lat="44.39127" lon="5.90371">
        <ele>775.5</ele>
        <time>2010-09-19T15:58:34.66</time>
      </trkpt>
      <trkpt lat="44.39135" lon="5.90361">
        <ele>777.5</ele>
        <time>2010-09-19T15:58:44.65</time>
      </trkpt>
      <trkpt lat="44.39144" lon="5.90349">
        <ele>780.5</ele>
        <time>2010-09-19T15:58:54.62</time>
      </trkpt>
      <trkpt lat="44.39156" lon="5.90336">
        <ele>783</ele>
        <time>2010-09-19T15:59:04.56</time>
      </trkpt>
      <trkpt lat="44.39168" lon="5.90324">
        <ele>785.5</ele>
        <time>2010-09-19T15:59:14.71</time>
      </trkpt>
      <trkpt lat="44.39181" lon="5.90314">
        <ele>788</ele>
        <time>2010-09-19T15:59:24.49</time>
      </trkpt>
      <trkpt lat="44.39192" lon="5.90302">
        <ele>790</ele>
        <time>2010-09-19T15:59:34.45</time>
      </trkpt>
      <trkpt lat="44.39202" lon="5.90288">
        <ele>791.5</ele>
        <time>2010-09-19T15:59:44.41</time>
      </trkpt>
      <trkpt lat="44.39209" lon="5.90271">
        <ele>793.5</ele>
        <time>2010-09-19T15:59:54.37</time>
      </trkpt>
      <trkpt lat="44.39216" lon="5.90248">
        <ele>794</ele>
        <time>2010-09-19T16:00:04.33</time>
      </trkpt>
      <trkpt lat="44.3922" lon="5.90224">
        <ele>795</ele>
        <time>2010-09-19T16:00:14.30</time>
      </trkpt>
      <trkpt lat="44.39224" lon="5.90194">
        <ele>796</ele>
        <time>2010-09-19T16:00:24.27</time>
      </trkpt>
      <trkpt lat="44.39228" lon="5.90162">
        <ele>797.5</ele>
        <time>2010-09-19T16:00:34.24</time>
      </trkpt>
      <trkpt lat="44.39232" lon="5.90129">
        <ele>798.5</ele>
        <time>2010-09-19T16:00:44.21</time>
      </trkpt>
      <trkpt lat="44.39232" lon="5.90081">
        <ele>798.5</ele>
        <time>2010-09-19T16:00:54.18</time>
      </trkpt>
      <trkpt lat="44.3923" lon="5.90038">
        <ele>799.5</ele>
        <time>2010-09-19T16:01:04.40</time>
      </trkpt>
      <trkpt lat="44.39229" lon="5.89998">
        <ele>799</ele>
        <time>2010-09-19T16:01:14.11</time>
      </trkpt>
      <trkpt lat="44.39224" lon="5.89955">
        <ele>799</ele>
        <time>2010-09-19T16:01:24.09</time>
      </trkpt>
      <trkpt lat="44.39215" lon="5.8992">
        <ele>798</ele>
        <time>2010-09-19T16:01:34.05</time>
      </trkpt>
      <trkpt lat="44.39207" lon="5.899">
        <ele>802.5</ele>
        <time>2010-09-19T16:01:44.18</time>
      </trkpt>
      <trkpt lat="44.392" lon="5.8988">
        <ele>804.5</ele>
        <time>2010-09-19T16:01:53.96</time>
      </trkpt>
      <trkpt lat="44.39195" lon="5.89861">
        <ele>807</ele>
        <time>2010-09-19T16:02:03.90</time>
      </trkpt>
      <trkpt lat="44.39192" lon="5.89848">
        <ele>808.5</ele>
        <time>2010-09-19T16:05:04.86</time>
      </trkpt>
      <trkpt lat="44.39193" lon="5.89828">
        <ele>812</ele>
        <time>2010-09-19T16:05:15.07</time>
      </trkpt>
      <trkpt lat="44.39197" lon="5.89806">
        <ele>815.5</ele>
        <time>2010-09-19T16:05:24.88</time>
      </trkpt>
      <trkpt lat="44.39201" lon="5.89781">
        <ele>817.5</ele>
        <time>2010-09-19T16:05:34.77</time>
      </trkpt>
      <trkpt lat="44.392" lon="5.89756">
        <ele>818</ele>
        <time>2010-09-19T16:05:44.91</time>
      </trkpt>
      <trkpt lat="44.39207" lon="5.89738">
        <ele>818</ele>
        <time>2010-09-19T16:05:54.68</time>
      </trkpt>
      <trkpt lat="44.39214" lon="5.89722">
        <ele>822</ele>
        <time>2010-09-19T16:06:04.64</time>
      </trkpt>
      <trkpt lat="44.39224" lon="5.89707">
        <ele>821.5</ele>
        <time>2010-09-19T16:06:14.75</time>
      </trkpt>
      <trkpt lat="44.39235" lon="5.89689">
        <ele>822</ele>
        <time>2010-09-19T16:06:24.65</time>
      </trkpt>
      <trkpt lat="44.39246" lon="5.89668">
        <ele>823</ele>
        <time>2010-09-19T16:06:34.53</time>
      </trkpt>
      <trkpt lat="44.39256" lon="5.89647">
        <ele>823.5</ele>
        <time>2010-09-19T16:06:44.67</time>
      </trkpt>
      <trkpt lat="44.39261" lon="5.89625">
        <ele>826</ele>
        <time>2010-09-19T16:06:54.44</time>
      </trkpt>
      <trkpt lat="44.39264" lon="5.89604">
        <ele>829.5</ele>
        <time>2010-09-19T16:07:04.51</time>
      </trkpt>
      <trkpt lat="44.39265" lon="5.89584">
        <ele>831</ele>
        <time>2010-09-19T16:07:14.39</time>
      </trkpt>
      <trkpt lat="44.39267" lon="5.89562">
        <ele>830.5</ele>
        <time>2010-09-19T16:07:24.36</time>
      </trkpt>
      <trkpt lat="44.39269" lon="5.89535">
        <ele>832.5</ele>
        <time>2010-09-19T16:07:34.51</time>
      </trkpt>
      <trkpt lat="44.39266" lon="5.89483">
        <ele>832.5</ele>
        <time>2010-09-19T16:07:44.25</time>
      </trkpt>
      <trkpt lat="44.39276" lon="5.89412">
        <ele>827.5</ele>
        <time>2010-09-19T16:07:54.22</time>
      </trkpt>
      <trkpt lat="44.3928" lon="5.89357">
        <ele>825</ele>
        <time>2010-09-19T16:08:04.18</time>
      </trkpt>
      <trkpt lat="44.39275" lon="5.893">
        <ele>826</ele>
        <time>2010-09-19T16:08:14.16</time>
      </trkpt>
      <trkpt lat="44.39265" lon="5.89243">
        <ele>824</ele>
        <time>2010-09-19T16:08:24.32</time>
      </trkpt>
      <trkpt lat="44.39259" lon="5.89187">
        <ele>822.5</ele>
        <time>2010-09-19T16:08:34.08</time>
      </trkpt>
      <trkpt lat="44.39261" lon="5.8916">
        <ele>819.5</ele>
        <time>2010-09-19T16:09:28.03</time>
      </trkpt>
      <trkpt lat="44.3927" lon="5.89079">
        <ele>808</ele>
        <time>2010-09-19T16:09:37.98</time>
      </trkpt>
      <trkpt lat="44.3925" lon="5.89026">
        <ele>807</ele>
        <time>2010-09-19T16:09:56.29</time>
      </trkpt>
      <trkpt lat="44.39212" lon="5.89003">
        <ele>805.5</ele>
        <time>2010-09-19T16:10:06.25</time>
      </trkpt>
      <trkpt lat="44.39171" lon="5.88985">
        <ele>805.5</ele>
        <time>2010-09-19T16:10:16.20</time>
      </trkpt>
      <trkpt lat="44.39128" lon="5.88969">
        <ele>806.5</ele>
        <time>2010-09-19T16:10:26.18</time>
      </trkpt>
      <trkpt lat="44.39095" lon="5.88969">
        <ele>806</ele>
        <time>2010-09-19T16:10:36.13</time>
      </trkpt>
      <trkpt lat="44.39039" lon="5.88998">
        <ele>801</ele>
        <time>2010-09-19T16:10:46.10</time>
      </trkpt>
      <trkpt lat="44.39011" lon="5.89059">
        <ele>802</ele>
        <time>2010-09-19T16:10:56.17</time>
      </trkpt>
      <trkpt lat="44.39011" lon="5.89066">
        <ele>802.5</ele>
        <time>2010-09-19T16:11:21.03</time>
      </trkpt>
      <trkpt lat="44.39014" lon="5.89046">
        <ele>802.5</ele>
        <time>2010-09-19T16:11:30.99</time>
      </trkpt>
      <trkpt lat="44.39015" lon="5.89024">
        <ele>802.5</ele>
        <time>2010-09-19T16:11:40.96</time>
      </trkpt>
      <trkpt lat="44.3902" lon="5.89008">
        <ele>803</ele>
        <time>2010-09-19T16:11:50.95</time>
      </trkpt>
      <trkpt lat="44.39032" lon="5.89003">
        <ele>804.5</ele>
        <time>2010-09-19T16:12:01.08</time>
      </trkpt>
      <trkpt lat="44.39045" lon="5.89001">
        <ele>805</ele>
        <time>2010-09-19T16:12:11.04</time>
      </trkpt>
      <trkpt lat="44.39057" lon="5.88997">
        <ele>806.5</ele>
        <time>2010-09-19T16:12:20.86</time>
      </trkpt>
      <trkpt lat="44.39067" lon="5.88989">
        <ele>807</ele>
        <time>2010-09-19T16:12:32.07</time>
      </trkpt>
      <trkpt lat="44.39079" lon="5.88981">
        <ele>807.5</ele>
        <time>2010-09-19T16:12:41.77</time>
      </trkpt>
      <trkpt lat="44.39083" lon="5.8898">
        <ele>808.5</ele>
        <time>2010-09-19T16:15:44.73</time>
      </trkpt>
      <trkpt lat="44.39088" lon="5.88978">
        <ele>812</ele>
        <time>2010-09-19T16:16:54.85</time>
      </trkpt>
      <trkpt lat="44.39096" lon="5.88972">
        <ele>813.5</ele>
        <time>2010-09-19T16:17:04.63</time>
      </trkpt>
      <trkpt lat="44.39103" lon="5.88966">
        <ele>819</ele>
        <time>2010-09-19T16:17:14.82</time>
      </trkpt>
      <trkpt lat="44.39113" lon="5.88952">
        <ele>817.5</ele>
        <time>2010-09-19T16:17:26.57</time>
      </trkpt>
      <trkpt lat="44.39137" lon="5.88918">
        <ele>811.5</ele>
        <time>2010-09-19T16:17:36.53</time>
      </trkpt>
      <trkpt lat="44.3916" lon="5.88851">
        <ele>799.5</ele>
        <time>2010-09-19T16:17:46.49</time>
      </trkpt>
      <trkpt lat="44.39199" lon="5.88772">
        <ele>795</ele>
        <time>2010-09-19T16:17:56.46</time>
      </trkpt>
      <trkpt lat="44.39219" lon="5.88731">
        <ele>795</ele>
        <time>2010-09-19T16:18:06.42</time>
      </trkpt>
      <trkpt lat="44.39232" lon="5.88707">
        <ele>790.5</ele>
        <time>2010-09-19T16:18:16.45</time>
      </trkpt>
      <trkpt lat="44.39265" lon="5.88686">
        <ele>785</ele>
        <time>2010-09-19T16:18:26.37</time>
      </trkpt>
      <trkpt lat="44.39299" lon="5.88648">
        <ele>777</ele>
        <time>2010-09-19T16:18:36.34</time>
      </trkpt>
      <trkpt lat="44.39302" lon="5.88627">
        <ele>777.5</ele>
        <time>2010-09-19T16:18:46.30</time>
      </trkpt>
      <trkpt lat="44.39305" lon="5.88584">
        <ele>772.5</ele>
        <time>2010-09-19T16:18:56.25</time>
      </trkpt>
      <trkpt lat="44.39289" lon="5.88553">
        <ele>772</ele>
        <time>2010-09-19T16:19:06.23</time>
      </trkpt>
      <trkpt lat="44.39246" lon="5.8854">
        <ele>762.5</ele>
        <time>2010-09-19T16:19:16.18</time>
      </trkpt>
      <trkpt lat="44.39203" lon="5.88482">
        <ele>753</ele>
        <time>2010-09-19T16:19:26.32</time>
      </trkpt>
      <trkpt lat="44.3918" lon="5.88435">
        <ele>750</ele>
        <time>2010-09-19T16:22:15.29</time>
      </trkpt>
      <trkpt lat="44.39155" lon="5.88402">
        <ele>742.5</ele>
        <time>2010-09-19T16:22:25.25</time>
      </trkpt>
      <trkpt lat="44.39114" lon="5.88331">
        <ele>735.5</ele>
        <time>2010-09-19T16:22:35.22</time>
      </trkpt>
      <trkpt lat="44.39121" lon="5.88289">
        <ele>731.5</ele>
        <time>2010-09-19T16:22:45.17</time>
      </trkpt>
      <trkpt lat="44.39144" lon="5.88262">
        <ele>732</ele>
        <time>2010-09-19T16:22:55.13</time>
      </trkpt>
    </trkseg>
  </trk>
</gpx>